Darstellungsparameter: Aktuell verwendete Einstellungen:
Skalierung der Graphiken ... ?
xyx+y,   Skalierungsfaktor:      Skalierung: Modus: x, Faktor: 1
Darstellungszeitraum ... ?
Vom - - bis: - -   Zeitraum: 16.08.2004 - 15.02.2005
Min/Max/Avg-Anzeige ... ?
Zeige MMA aktuell
Zeige MMA Monat
Zeige MMA alles
Zeige --A aktuell
Zeige --A Monat
Zeige --A alles
Keine MMA-Anzeige
MMA:
Minimum Maximum Average (ber die Originaldaten)
MMA-Basis: 16.08.2004 - 15.02.2005
Quicknavigation für Darstellung... ?
Tage:      1T, 2T, 3T, 5T -1T -2T -3T -5T +1T +2T +3T +5T
Wochen: 1W, 2W, 3W -1W -2W -3W +1W +2W +3W
Monate: 1M, 3M, 6M -1M -3M -6M +1M +3M +6M
Jahre:    1J, 3J, 5J, 10J -1J -3J -5J -10J +1J +3J +5J +10J
Nutze für die Darstellung ... ?
Originaldaten oder Mittelwerte auf ...
Stundenbasis Tagesbasis Wochenbasis
Monatsbasis Jahresbasis      Datenbasis: Original-Daten
Darstellen als:
Statistik (Auto) Statistik J:M      Darstellung:
Zur Graphik,    zurück zur Übersicht aller Sensoren.
 
Tabellarische Datenbersicht: ?
 
Sensor: Nr:Datum:Temp:Feuchte:Taupunkt:
Aussen-T/F 1 16-08-2004 00:29:16 18.3 C 75 % 13.79 C
2 16-08-2004 00:59:16 17.9 C 77 % 13.81 C
3 16-08-2004 01:29:16 17.5 C 78 % 13.62 C
4 16-08-2004 01:59:17 17 C 80 % 13.53 C
5 16-08-2004 02:29:17 16.8 C 81 % 13.52 C
6 16-08-2004 02:59:17 16.5 C 82 % 13.42 C
7 16-08-2004 03:29:17 16 C 83 % 13.12 C
8 16-08-2004 03:59:17 16 C 84 % 13.3 C
9 16-08-2004 04:29:17 16.1 C 84 % 13.4 C
10 16-08-2004 04:59:17 15.8 C 85 % 13.28 C
11 16-08-2004 05:29:17 15.8 C 86 % 13.46 C
12 16-08-2004 05:59:17 15.6 C 86 % 13.27 C
13 16-08-2004 06:29:18 15.8 C 86 % 13.46 C
14 16-08-2004 06:59:18 15.8 C 86 % 13.46 C
15 16-08-2004 07:29:18 16 C 85 % 13.48 C
16 16-08-2004 07:59:18 15.9 C 87 % 13.74 C
17 16-08-2004 08:29:18 17.1 C 83 % 14.19 C
18 16-08-2004 08:59:18 17.9 C 79 % 14.21 C
19 16-08-2004 09:29:18 18.5 C 76 % 14.19 C
20 16-08-2004 09:59:18 19.8 C 73 % 14.82 C
21 16-08-2004 10:29:18 21 C 64 % 13.93 C
22 16-08-2004 10:59:18 21.5 C 62 % 13.92 C
23 16-08-2004 11:29:18 23.1 C 57 % 14.12 C
24 16-08-2004 11:59:18 24.3 C 59 % 15.78 C
25 16-08-2004 12:29:18 25 C 60 % 16.7 C
Sensor: Nr:Datum:Temp:Feuchte:Taupunkt:
Aussen-T/F 26 16-08-2004 12:59:18 24.5 C 49 % 13.09 C
27 16-08-2004 13:29:18 24.7 C 53 % 14.48 C
28 16-08-2004 13:59:18 23.8 C 52 % 13.36 C
29 16-08-2004 14:29:18 23.5 C 52 % 13.08 C
30 16-08-2004 14:59:18 24.1 C 52 % 13.63 C
31 16-08-2004 15:29:18 23.9 C 54 % 14.03 C
32 16-08-2004 15:59:18 24.7 C 51 % 13.89 C
33 16-08-2004 16:29:19 24.5 C 54 % 14.58 C
34 16-08-2004 16:59:19 24.7 C 55 % 15.05 C
35 16-08-2004 17:29:19 25.6 C 55 % 15.89 C
36 16-08-2004 17:59:19 25.5 C 52 % 14.92 C
37 16-08-2004 18:29:19 24.5 C 56 % 15.15 C
38 16-08-2004 18:59:19 23 C 61 % 15.08 C
39 16-08-2004 19:29:19 20.8 C 76 % 16.41 C
40 16-08-2004 19:59:19 20.7 C 84 % 17.9 C
41 16-08-2004 20:29:19 20.8 C 80 % 17.22 C
42 16-08-2004 20:59:19 20 C 83 % 17.02 C
43 16-08-2004 21:29:19 19.6 C 86 % 17.19 C
44 16-08-2004 21:59:19 19.4 C 86 % 17 C
45 16-08-2004 22:29:19 19.2 C 87 % 16.98 C
46 16-08-2004 22:59:19 19.1 C 87 % 16.89 C
47 16-08-2004 23:29:19 18.8 C 88 % 16.77 C
48 16-08-2004 23:59:19 18.7 C 89 % 16.85 C
49 17-08-2004 00:29:19 18.7 C 89 % 16.85 C
50 17-08-2004 00:59:19 18.8 C 89 % 16.95 C
Sensor: Nr:Datum:Temp:Feuchte:Taupunkt:
Aussen-T/F 51 17-08-2004 01:29:20 18.7 C 89 % 16.85 C
52 17-08-2004 01:59:20 18.9 C 89 % 17.05 C
53 17-08-2004 02:29:20 18.7 C 91 % 17.2 C
54 17-08-2004 02:59:20 18.3 C 92 % 16.98 C
55 17-08-2004 03:29:20 17.7 C 93 % 16.55 C
56 17-08-2004 03:59:20 17.1 C 93 % 15.96 C
57 17-08-2004 04:29:20 16.9 C 94 % 15.93 C
58 17-08-2004 04:59:20 16.7 C 94 % 15.73 C
59 17-08-2004 05:29:20 16.4 C 94 % 15.43 C
60 17-08-2004 05:59:20 16.2 C 93 % 15.07 C
61 17-08-2004 06:29:20 16.1 C 93 % 14.97 C
62 17-08-2004 06:59:20 16.1 C 93 % 14.97 C
63 17-08-2004 07:29:20 16.2 C 93 % 15.07 C
64 17-08-2004 07:59:20 16.7 C 93 % 15.56 C
65 17-08-2004 08:29:20 17.2 C 92 % 15.89 C
66 17-08-2004 08:59:21 17.9 C 90 % 16.24 C
67 17-08-2004 09:29:21 18.9 C 85 % 16.32 C
68 17-08-2004 09:59:21 19.3 C 79 % 15.57 C
69 17-08-2004 10:29:21 20 C 76 % 15.64 C
70 17-08-2004 10:59:21 21.6 C 71 % 16.12 C
71 17-08-2004 11:29:21 22.1 C 67 % 15.69 C
72 17-08-2004 11:59:22 24.5 C 61 % 16.49 C
73 17-08-2004 12:29:22 24.9 C 56 % 15.52 C
74 17-08-2004 12:59:22 25.3 C 51 % 14.44 C
75 17-08-2004 13:29:22 26.2 C 48 % 14.32 C
Sensor: Nr:Datum:Temp:Feuchte:Taupunkt:
Aussen-T/F 76 17-08-2004 13:59:22 26.2 C 45 % 13.33 C
77 17-08-2004 14:29:22 27.2 C 46 % 14.58 C
78 17-08-2004 14:59:23 26 C 50 % 14.77 C
79 17-08-2004 15:29:23 26.7 C 47 % 14.45 C
80 17-08-2004 15:59:23 25.5 C 60 % 17.16 C
81 17-08-2004 16:29:23 24.1 C 62 % 16.37 C
82 17-08-2004 16:59:23 23.8 C 62 % 16.08 C
83 17-08-2004 17:29:23 25.4 C 55 % 15.7 C
84 17-08-2004 17:59:23 25.7 C 57 % 16.54 C
85 17-08-2004 18:29:23 21.8 C 80 % 18.2 C
86 17-08-2004 18:59:23 21.5 C 84 % 18.68 C
87 17-08-2004 19:29:23 21.5 C 79 % 17.7 C
88 17-08-2004 19:59:23 21.5 C 76 % 17.09 C
89 17-08-2004 20:29:23 20.5 C 80 % 16.93 C
90 17-08-2004 20:59:23 19.9 C 84 % 17.12 C
91 17-08-2004 21:29:23 19.7 C 84 % 16.92 C
92 17-08-2004 21:59:23 19.6 C 83 % 16.63 C
93 17-08-2004 22:29:23 19.3 C 84 % 16.53 C
94 17-08-2004 22:59:23 18.8 C 86 % 16.41 C
95 17-08-2004 23:29:23 18.8 C 86 % 16.41 C
96 17-08-2004 23:59:23 18.7 C 84 % 15.94 C
97 18-08-2004 00:29:23 18.3 C 86 % 15.92 C
98 18-08-2004 00:59:24 18.3 C 87 % 16.1 C
99 18-08-2004 01:29:24 18 C 86 % 15.62 C
100 18-08-2004 01:59:24 18.4 C 86 % 16.02 C
Sensor: Nr:Datum:Temp:Feuchte:Taupunkt:
Aussen-T/F 101 18-08-2004 02:29:24 18.5 C 85 % 15.93 C
102 18-08-2004 02:59:24 18.4 C 85 % 15.83 C
103 18-08-2004 03:29:24 18.4 C 85 % 15.83 C
104 18-08-2004 03:59:24 18.5 C 84 % 15.75 C
105 18-08-2004 04:29:24 18.5 C 84 % 15.75 C
106 18-08-2004 04:59:24 17.8 C 89 % 15.96 C
107 18-08-2004 05:29:25 17.6 C 91 % 16.11 C
108 18-08-2004 05:59:25 17.7 C 89 % 15.86 C
109 18-08-2004 06:29:25 17.6 C 88 % 15.59 C
110 18-08-2004 06:59:25 17.6 C 89 % 15.77 C
111 18-08-2004 07:29:25 18.4 C 87 % 16.2 C
112 18-08-2004 07:59:25 19 C 81 % 15.67 C
113 18-08-2004 08:29:26 19.6 C 76 % 15.26 C
114 18-08-2004 08:59:26 19.8 C 74 % 15.03 C
115 18-08-2004 09:29:26 20.5 C 70 % 14.84 C
116 18-08-2004 09:59:26 21.1 C 68 % 14.97 C
117 18-08-2004 10:29:26 21.8 C 66 % 15.17 C
118 18-08-2004 10:59:26 22.5 C 63 % 15.11 C
119 18-08-2004 11:29:26 23.4 C 56 % 14.13 C
120 18-08-2004 11:59:26 24.4 C 50 % 13.31 C
121 18-08-2004 12:29:26 25.2 C 44 % 12.09 C
122 18-08-2004 12:59:26 26.2 C 38 % 10.77 C
123 18-08-2004 13:29:26 27.6 C 39 % 12.4 C
124 18-08-2004 13:59:26 28.4 C 38 % 12.72 C
125 18-08-2004 14:29:26 28.7 C 37 % 12.57 C
Sensor: Nr:Datum:Temp:Feuchte:Taupunkt:
Aussen-T/F 126 18-08-2004 14:59:26 28.7 C 41 % 14.15 C
127 18-08-2004 15:29:26 28.4 C 41 % 13.88 C
128 18-08-2004 15:59:27 29.6 C 36 % 12.95 C
129 18-08-2004 16:29:27 30.1 C 33 % 12.06 C
130 18-08-2004 16:59:27 30.7 C 32 % 12.11 C
131 18-08-2004 17:29:27 30.7 C 29 % 10.63 C
132 18-08-2004 17:59:27 30.6 C 28 % 10.02 C
133 18-08-2004 18:29:27 30.1 C 32 % 11.59 C
134 18-08-2004 18:59:27 28.5 C 44 % 15.06 C
135 18-08-2004 19:29:27 26.9 C 46 % 14.3 C
136 18-08-2004 19:59:27 25.5 C 49 % 14 C
137 18-08-2004 20:29:27 24.9 C 54 % 14.95 C
138 18-08-2004 20:59:27 24.9 C 56 % 15.52 C
139 18-08-2004 21:29:27 23.8 C 65 % 16.83 C
140 18-08-2004 21:59:27 18.9 C 88 % 16.87 C
141 18-08-2004 22:29:27 19 C 90 % 17.32 C
142 18-08-2004 22:59:28 18.9 C 92 % 17.57 C
143 18-08-2004 23:29:28 19 C 92 % 17.67 C
144 18-08-2004 23:59:28 18.9 C 91 % 17.4 C
145 19-08-2004 00:29:28 18.9 C 89 % 17.05 C
146 19-08-2004 00:59:28 18.7 C 90 % 17.03 C
147 19-08-2004 01:29:28 18.6 C 90 % 16.93 C
148 19-08-2004 01:59:29 18.3 C 90 % 16.63 C
149 19-08-2004 02:29:29 18.2 C 90 % 16.53 C
150 19-08-2004 02:59:29 17.9 C 92 % 16.58 C
Sensor: Nr:Datum:Temp:Feuchte:Taupunkt:
Aussen-T/F 151 19-08-2004 03:29:29 17.8 C 92 % 16.48 C
152 19-08-2004 03:59:29 17.6 C 92 % 16.28 C
153 19-08-2004 04:29:29 17.4 C 92 % 16.09 C
154 19-08-2004 04:59:29 17 C 92 % 15.69 C
155 19-08-2004 05:29:29 16.9 C 93 % 15.76 C
156 19-08-2004 05:59:29 17.3 C 92 % 15.99 C
157 19-08-2004 06:29:29 17.2 C 90 % 15.55 C
158 19-08-2004 06:59:29 17.4 C 88 % 15.39 C
159 19-08-2004 07:29:29 17.8 C 81 % 14.5 C
160 19-08-2004 07:59:29 17.7 C 80 % 14.21 C
161 19-08-2004 08:29:29 17.7 C 79 % 14.01 C
162 19-08-2004 08:59:29 17.9 C 80 % 14.4 C
163 19-08-2004 09:29:30 18.8 C 74 % 14.07 C
164 19-08-2004 09:59:30 19.9 C 65 % 13.13 C
165 19-08-2004 10:29:30 20.8 C 59 % 12.5 C
166 19-08-2004 10:59:30 21.7 C 56 % 12.54 C
167 19-08-2004 11:29:30 22.8 C 52 % 12.43 C
168 19-08-2004 11:59:30 23.8 C 48 % 12.14 C
169 19-08-2004 12:29:31 23.8 C 48 % 12.14 C
170 19-08-2004 12:59:31 24.5 C 43 % 11.11 C
171 19-08-2004 13:29:31 24.5 C 43 % 11.11 C
172 19-08-2004 13:59:31 25 C 37 % 9.31 C
173 19-08-2004 14:29:31 24.4 C 39 % 9.56 C
174 19-08-2004 14:59:31 24.3 C 41 % 10.21 C
175 19-08-2004 15:29:32 24.4 C 39 % 9.56 C
Sensor: Nr:Datum:Temp:Feuchte:Taupunkt:
Aussen-T/F 176 19-08-2004 15:59:32 25 C 39 % 10.09 C
177 19-08-2004 16:29:32 26.3 C 36 % 10.05 C
178 19-08-2004 16:59:32 27.3 C 32 % 9.17 C
179 19-08-2004 17:29:32 26.3 C 32 % 8.3 C
180 19-08-2004 17:59:32 26.7 C 35 % 9.98 C
181 19-08-2004 18:29:32 24.9 C 35 % 8.4 C
182 19-08-2004 18:59:32 25 C 37 % 9.31 C
183 19-08-2004 19:29:32 25.4 C 37 % 9.66 C
184 19-08-2004 19:59:32 25.6 C 40 % 11 C
185 19-08-2004 20:29:32 23.3 C 47 % 11.36 C
186 19-08-2004 20:59:32 21.6 C 52 % 11.33 C
187 19-08-2004 21:29:32 20.4 C 59 % 12.12 C
188 19-08-2004 21:59:32 19.5 C 63 % 12.27 C
189 19-08-2004 22:29:32 19 C 63 % 11.8 C
190 19-08-2004 22:59:33 18.5 C 68 % 12.49 C
191 19-08-2004 23:29:33 18.5 C 68 % 12.49 C
192 19-08-2004 23:59:33 18.3 C 71 % 12.95 C
193 20-08-2004 00:29:33 18 C 75 % 13.51 C
194 20-08-2004 00:59:33 18.4 C 75 % 13.89 C
195 20-08-2004 01:29:33 18.7 C 74 % 13.97 C
196 20-08-2004 01:59:33 18.8 C 73 % 13.86 C
197 20-08-2004 02:29:33 18.8 C 74 % 14.07 C
198 20-08-2004 02:59:33 18 C 75 % 13.51 C
199 20-08-2004 03:29:33 17.9 C 79 % 14.21 C
200 20-08-2004 03:59:33 17.4 C 79 % 13.72 C
Sensor: Nr:Datum:Temp:Feuchte:Taupunkt:
Aussen-T/F 201 20-08-2004 04:29:33 16.9 C 82 % 13.81 C
202 20-08-2004 04:59:33 16.7 C 83 % 13.8 C
203 20-08-2004 05:29:33 16.6 C 83 % 13.7 C
204 20-08-2004 05:59:33 15.9 C 84 % 13.2 C
205 20-08-2004 06:29:34 15.8 C 85 % 13.28 C
206 20-08-2004 06:59:34 16 C 84 % 13.3 C
207 20-08-2004 07:29:34 16.2 C 83 % 13.31 C
208 20-08-2004 07:59:34 16.9 C 81 % 13.62 C
209 20-08-2004 08:29:34 17.3 C 79 % 13.63 C
210 20-08-2004 08:59:34 18.6 C 63 % 11.42 C
211 20-08-2004 09:29:35 18.9 C 61 % 11.22 C
212 20-08-2004 09:59:35 18.9 C 60 % 10.97 C
213 20-08-2004 10:29:35 19.5 C 59 % 11.28 C
214 20-08-2004 10:59:35 20.2 C 55 % 10.88 C
215 20-08-2004 11:29:35 19.9 C 55 % 10.6 C
216 20-08-2004 11:59:35 20.4 C 54 % 10.79 C
217 20-08-2004 12:29:36 20.8 C 50 % 10 C
218 20-08-2004 12:59:36 21.5 C 46 % 9.4 C
219 20-08-2004 13:29:36 22.5 C 40 % 8.24 C
220 20-08-2004 13:59:36 22.4 C 40 % 8.15 C
221 20-08-2004 14:29:36 23.5 C 37 % 7.98 C
222 20-08-2004 14:59:36 23.9 C 35 % 7.52 C
223 20-08-2004 15:29:36 24.8 C 33 % 7.45 C
224 20-08-2004 15:59:36 24.1 C 33 % 6.84 C
225 20-08-2004 16:29:36 24.1 C 37 % 8.51 C
Sensor: Nr:Datum:Temp:Feuchte:Taupunkt:
Aussen-T/F 226 20-08-2004 16:59:36 24.1 C 35 % 7.69 C
227 20-08-2004 17:29:36 23.5 C 40 % 9.13 C
228 20-08-2004 17:59:36 23.4 C 39 % 8.67 C
229 20-08-2004 18:29:36 22 C 40 % 7.79 C
230 20-08-2004 18:59:36 21.6 C 45 % 9.17 C
231 20-08-2004 19:29:37 20.4 C 51 % 9.93 C
232 20-08-2004 19:59:37 15.4 C 51 % 5.33 C
233 20-08-2004 20:29:37 15 C 56 % 6.3 C
234 20-08-2004 20:59:37 15 C 90 % 13.37 C
235 20-08-2004 21:29:37 14.7 C 91 % 13.25 C
236 20-08-2004 21:59:37 14.5 C 89 % 12.71 C
237 20-08-2004 22:29:38 14.7 C 87 % 12.56 C
238 20-08-2004 22:59:38 14.8 C 87 % 12.66 C
239 20-08-2004 23:29:38 14.8 C 88 % 12.83 C
240 20-08-2004 23:59:38 14.8 C 88 % 12.83 C
241 21-08-2004 00:29:38 14.7 C 88 % 12.73 C
242 21-08-2004 00:59:38 14.2 C 89 % 12.41 C
243 21-08-2004 01:29:38 14.1 C 89 % 12.32 C
244 21-08-2004 01:59:38 14.1 C 86 % 11.8 C
245 21-08-2004 02:29:38 13.8 C 88 % 11.85 C
246 21-08-2004 02:59:38 13.8 C 89 % 12.02 C
247 21-08-2004 03:29:38 14.2 C 88 % 12.24 C
248 21-08-2004 03:59:38 14.4 C 87 % 12.27 C
249 21-08-2004 04:29:39 14.5 C 88 % 12.54 C
250 21-08-2004 04:59:39 14.6 C 86 % 12.29 C
Sensor: Nr:Datum:Temp:Feuchte:Taupunkt:
Aussen-T/F 251 21-08-2004 05:29:39 14.7 C 83 % 11.85 C
252 21-08-2004 05:59:39 14.8 C 82 % 11.76 C
253 21-08-2004 06:29:39 14.7 C 83 % 11.85 C
254 21-08-2004 06:59:39 14.7 C 83 % 11.85 C
255 21-08-2004 07:29:39 15 C 82 % 11.95 C
256 21-08-2004 07:59:39 14.9 C 82 % 11.86 C
257 21-08-2004 08:29:39 15.3 C 81 % 12.06 C
258 21-08-2004 08:59:40 15.9 C 80 % 12.46 C
259 21-08-2004 09:29:40 16.5 C 77 % 12.46 C
260 21-08-2004 09:59:40 17.3 C 74 % 12.62 C
261 21-08-2004 10:29:40 17 C 75 % 12.54 C
262 21-08-2004 10:59:40 18.2 C 71 % 12.86 C
263 21-08-2004 11:29:40 17 C 80 % 13.53 C
264 21-08-2004 11:59:41 17.4 C 77 % 13.33 C
265 21-08-2004 12:29:41 17.1 C 79 % 13.43 C
266 21-08-2004 12:59:41 18.4 C 74 % 13.68 C
267 21-08-2004 13:29:41 19.1 C 67 % 12.83 C
268 21-08-2004 13:59:41 19.5 C 62 % 12.03 C
269 21-08-2004 14:29:41 18.9 C 63 % 11.71 C
270 21-08-2004 14:59:42 18.3 C 64 % 11.38 C
271 21-08-2004 15:29:42 17.5 C 67 % 11.31 C
272 21-08-2004 15:59:42 17.6 C 69 % 11.85 C
273 21-08-2004 16:29:42 15 C 85 % 12.5 C
274 21-08-2004 16:59:42 15.1 C 90 % 13.47 C
275 21-08-2004 17:29:42 14.7 C 89 % 12.91 C
Sensor: Nr:Datum:Temp:Feuchte:Taupunkt:
Aussen-T/F 276 21-08-2004 17:59:43 15.3 C 83 % 12.43 C
277 21-08-2004 18:29:43 14.9 C 79 % 11.29 C
278 21-08-2004 18:59:43 15.7 C 76 % 11.48 C
279 21-08-2004 19:29:43 15.2 C 76 % 11 C
280 21-08-2004 19:59:43 15.4 C 73 % 10.59 C
281 21-08-2004 20:29:43 14.8 C 78 % 11 C
282 21-08-2004 20:59:43 14.7 C 77 % 10.71 C
283 21-08-2004 21:29:43 14.4 C 78 % 10.62 C
284 21-08-2004 21:59:43 14.4 C 77 % 10.42 C
285 21-08-2004 22:29:43 14.2 C 76 % 10.03 C
286 21-08-2004 22:59:43 13.9 C 78 % 10.13 C
287 21-08-2004 23:29:43 12.8 C 84 % 10.17 C
288 21-08-2004 23:59:43 12.6 C 86 % 10.32 C
289 22-08-2004 00:29:43 12.4 C 86 % 10.13 C
290 22-08-2004 00:59:44 12.1 C 85 % 9.66 C
291 22-08-2004 01:29:44 11.7 C 87 % 9.61 C
292 22-08-2004 01:59:44 11.2 C 88 % 9.29 C
293 22-08-2004 02:29:44 11.1 C 90 % 9.52 C
294 22-08-2004 02:59:44 11.1 C 91 % 9.69 C
295 22-08-2004 03:29:44 11.3 C 89 % 9.55 C
296 22-08-2004 03:59:45 11 C 90 % 9.42 C
297 22-08-2004 04:29:45 10.4 C 91 % 9 C
298 22-08-2004 04:59:45 10.3 C 92 % 9.06 C
299 22-08-2004 05:29:45 10.3 C 92 % 9.06 C
300 22-08-2004 05:59:45 10 C 92 % 8.76 C
Sensor: Nr:Datum:Temp:Feuchte:Taupunkt:
Aussen-T/F 301 22-08-2004 06:29:45 9.7 C 94 % 8.78 C
302 22-08-2004 06:59:45 10.1 C 94 % 9.18 C
303 22-08-2004 07:29:45 10.4 C 94 % 9.48 C
304 22-08-2004 07:59:45 10.6 C 93 % 9.52 C
305 22-08-2004 08:29:45 11.4 C 91 % 9.98 C
306 22-08-2004 08:59:45 11.7 C 86 % 9.44 C
307 22-08-2004 09:29:45 12.4 C 84 % 9.78 C
308 22-08-2004 09:59:45 12.6 C 83 % 9.79 C
309 22-08-2004 10:29:45 13.4 C 81 % 10.21 C
310 22-08-2004 10:59:45 15.1 C 76 % 10.9 C
311 22-08-2004 11:29:45 16.6 C 70 % 11.11 C
312 22-08-2004 11:59:45 18.2 C 53 % 8.47 C
313 22-08-2004 12:29:45 19.2 C 53 % 9.4 C
314 22-08-2004 12:59:45 19.3 C 47 % 7.72 C
315 22-08-2004 13:29:45 21 C 42 % 7.61 C
316 22-08-2004 13:59:46 21.9 C 36 % 6.17 C
317 22-08-2004 14:29:46 21.8 C 34 % 5.26 C
318 22-08-2004 14:59:46 22.7 C 32 % 5.17 C
319 22-08-2004 15:29:46 24.1 C 30 % 5.46 C
320 22-08-2004 15:59:46 26 C 27 % 5.57 C
321 22-08-2004 16:29:46 27.3 C 23 % 4.37 C
322 22-08-2004 16:59:46 25.9 C 29 % 6.52 C
323 22-08-2004 17:29:46 26.8 C 27 % 6.25 C
324 22-08-2004 17:59:46 27.1 C 26 % 5.96 C
325 22-08-2004 18:29:46 26.6 C 29 % 7.12 C
Sensor: Nr:Datum:Temp:Feuchte:Taupunkt:
Aussen-T/F 326 22-08-2004 18:59:46 26.6 C 30 % 7.61 C
327 22-08-2004 19:29:46 24.9 C 36 % 8.81 C
328 22-08-2004 19:59:46 23 C 40 % 8.68 C
329 22-08-2004 20:29:46 18.5 C 51 % 8.18 C
330 22-08-2004 20:59:46 16.3 C 56 % 7.52 C
331 22-08-2004 21:29:46 15.1 C 54 % 5.87 C
332 22-08-2004 21:59:46 14.5 C 60 % 6.84 C
333 22-08-2004 22:29:46 14.4 C 60 % 6.74 C
334 22-08-2004 22:59:46 13.7 C 64 % 7.02 C
335 22-08-2004 23:29:46 13.1 C 67 % 7.12 C
336 22-08-2004 23:59:46 12.8 C 70 % 7.47 C
337 23-08-2004 00:29:47 12.5 C 74 % 8 C
338 23-08-2004 00:59:47 11.9 C 77 % 8 C
339 23-08-2004 01:29:47 11.5 C 79 % 7.99 C
340 23-08-2004 01:59:47 11.2 C 79 % 7.7 C
341 23-08-2004 02:29:47 10.7 C 81 % 7.58 C
342 23-08-2004 02:59:47 11 C 81 % 7.87 C
343 23-08-2004 03:29:47 11 C 82 % 8.05 C
344 23-08-2004 03:59:47 10.8 C 83 % 8.03 C
345 23-08-2004 04:29:47 10.6 C 83 % 7.84 C
346 23-08-2004 04:59:47 9.9 C 86 % 7.67 C
347 23-08-2004 05:29:47 9.7 C 87 % 7.64 C
348 23-08-2004 05:59:47 9.9 C 88 % 8.01 C
349 23-08-2004 06:29:47 10.4 C 86 % 8.16 C
350 23-08-2004 06:59:47 11 C 85 % 8.58 C
Sensor: Nr:Datum:Temp:Feuchte:Taupunkt:
Aussen-T/F 351 23-08-2004 07:29:47 11.3 C 83 % 8.52 C
352 23-08-2004 07:59:47 11.4 C 83 % 8.62 C
353 23-08-2004 08:29:47 11.4 C 85 % 8.97 C
354 23-08-2004 08:59:47 11.8 C 88 % 9.88 C
355 23-08-2004 09:29:47 12.7 C 87 % 10.59 C
356 23-08-2004 09:59:47 14.3 C 82 % 11.27 C
357 23-08-2004 10:29:47 15.5 C 72 % 10.48 C
358 23-08-2004 10:59:47 16.9 C 63 % 9.82 C
359 23-08-2004 11:29:48 18.7 C 59 % 10.53 C
360 23-08-2004 11:59:48 19.5 C 56 % 10.5 C
361 23-08-2004 12:29:48 20.9 C 52 % 10.68 C
362 23-08-2004 12:59:48 21.9 C 51 % 11.31 C
363 23-08-2004 13:29:48 23.8 C 45 % 11.16 C
364 23-08-2004 13:59:48 24.5 C 42 % 10.75 C
365 23-08-2004 14:29:48 23.7 C 46 % 11.4 C
366 23-08-2004 14:59:48 24.8 C 41 % 10.66 C
367 23-08-2004 15:29:48 24.1 C 47 % 12.09 C
368 23-08-2004 15:59:48 22.1 C 61 % 14.23 C
369 23-08-2004 16:29:48 20.7 C 70 % 15.03 C
370 23-08-2004 16:59:48 20.3 C 72 % 15.09 C
371 23-08-2004 17:29:48 20.6 C 69 % 14.71 C
372 23-08-2004 17:59:48 20.2 C 72 % 14.99 C
373 23-08-2004 18:29:48 21.1 C 66 % 14.5 C
374 23-08-2004 18:59:48 21.6 C 65 % 14.74 C
375 23-08-2004 19:29:48 20.4 C 72 % 15.18 C
Sensor: Nr:Datum:Temp:Feuchte:Taupunkt:
Aussen-T/F 376 23-08-2004 19:59:48 19.6 C 74 % 14.84 C
377 23-08-2004 20:29:48 19 C 75 % 14.47 C
378 23-08-2004 20:59:48 18.7 C 77 % 14.59 C
379 23-08-2004 21:29:48 18.4 C 78 % 14.5 C
380 23-08-2004 21:59:48 18.1 C 79 % 14.4 C
381 23-08-2004 22:29:49 17.7 C 82 % 14.59 C
382 23-08-2004 22:59:49 17.4 C 82 % 14.3 C
383 23-08-2004 23:29:49 16.9 C 83 % 14 C
384 23-08-2004 23:59:49 16.4 C 83 % 13.51 C
385 24-08-2004 00:29:49 16.3 C 84 % 13.59 C
386 24-08-2004 00:59:49 15.8 C 85 % 13.28 C
387 24-08-2004 01:29:49 16.1 C 86 % 13.76 C
388 24-08-2004 01:59:49 15.7 C 87 % 13.54 C
389 24-08-2004 02:29:49 15.3 C 87 % 13.15 C
390 24-08-2004 02:59:49 15.1 C 88 % 13.13 C
391 24-08-2004 03:29:49 15.1 C 89 % 13.3 C
392 24-08-2004 03:59:49 14.9 C 91 % 13.44 C
393 24-08-2004 04:29:49 14.7 C 91 % 13.25 C
394 24-08-2004 04:59:49 14.7 C 92 % 13.41 C
395 24-08-2004 05:29:49 14.4 C 92 % 13.12 C
396 24-08-2004 05:59:49 14.1 C 93 % 12.99 C
397 24-08-2004 06:29:49 14 C 93 % 12.89 C
398 24-08-2004 06:59:49 13.9 C 93 % 12.79 C
399 24-08-2004 07:29:49 14.3 C 93 % 13.18 C
400 24-08-2004 07:59:49 14.7 C 93 % 13.58 C
Sensor: Nr:Datum:Temp:Feuchte:Taupunkt:
Aussen-T/F 401 24-08-2004 08:29:49 15.2 C 92 % 13.91 C
402 24-08-2004 08:59:50 15.8 C 91 % 14.33 C
403 24-08-2004 09:29:50 16.7 C 87 % 14.53 C
404 24-08-2004 09:59:50 17 C 83 % 14.09 C
405 24-08-2004 10:29:50 17.1 C 82 % 14 C
406 24-08-2004 10:59:50 16.8 C 91 % 15.32 C
407 24-08-2004 11:29:50 16.5 C 91 % 15.03 C
408 24-08-2004 11:59:50 17.3 C 92 % 15.99 C
409 24-08-2004 12:29:50 18.5 C 87 % 16.3 C
410 24-08-2004 12:59:50 18.1 C 83 % 15.17 C
411 24-08-2004 13:29:50 17.7 C 81 % 14.4 C
412 24-08-2004 13:59:50 17.2 C 86 % 14.84 C
413 24-08-2004 14:29:50 19.6 C 76 % 15.26 C
414 24-08-2004 14:59:50 21.6 C 64 % 14.5 C
415 24-08-2004 15:29:50 20.4 C 66 % 13.84 C
416 24-08-2004 15:59:50 16.5 C 81 % 13.23 C
417 24-08-2004 16:29:50 19.2 C 73 % 14.25 C
418 24-08-2004 16:59:50 21.3 C 57 % 12.44 C
419 24-08-2004 17:29:50 22 C 54 % 12.27 C
420 24-08-2004 17:59:50 22.4 C 50 % 11.47 C
421 24-08-2004 18:29:50 21 C 54 % 11.34 C
422 24-08-2004 18:59:50 21.1 C 57 % 12.25 C
423 24-08-2004 19:29:50 21.7 C 54 % 11.99 C
424 24-08-2004 19:59:51 21 C 57 % 12.16 C
425 24-08-2004 20:29:51 19.2 C 65 % 12.47 C
Sensor: Nr:Datum:Temp:Feuchte:Taupunkt:
Aussen-T/F 426 24-08-2004 20:59:51 19 C 59 % 10.81 C
427 24-08-2004 21:29:51 18.9 C 59 % 10.72 C
428 24-08-2004 21:59:51 18.3 C 58 % 9.9 C
429 24-08-2004 22:29:51 18.1 C 59 % 9.97 C
430 24-08-2004 22:59:51 17.7 C 64 % 10.81 C
431 24-08-2004 23:29:51 17.2 C 66 % 10.8 C
432 24-08-2004 23:59:51 17 C 68 % 11.06 C
433 25-08-2004 00:29:51 16.9 C 69 % 11.18 C
434 25-08-2004 00:59:51 16.8 C 70 % 11.3 C
435 25-08-2004 01:29:51 16.9 C 69 % 11.18 C
436 25-08-2004 01:59:51 16.8 C 69 % 11.09 C
437 25-08-2004 02:29:51 16.6 C 69 % 10.89 C
438 25-08-2004 02:59:51 16.7 C 68 % 10.77 C
439 25-08-2004 03:29:51 16.4 C 68 % 10.48 C
440 25-08-2004 03:59:51 16.3 C 68 % 10.39 C
441 25-08-2004 04:29:51 16.2 C 69 % 10.51 C
442 25-08-2004 04:59:51 15.9 C 69 % 10.23 C
443 25-08-2004 05:29:51 15.8 C 69 % 10.13 C
444 25-08-2004 05:59:51 15.6 C 69 % 9.94 C
445 25-08-2004 06:29:51 15.4 C 70 % 9.96 C
446 25-08-2004 06:59:52 15.5 C 69 % 9.84 C
447 25-08-2004 07:29:52 15.5 C 66 % 9.18 C
448 25-08-2004 07:59:52 15.5 C 67 % 9.41 C
449 25-08-2004 08:29:52 15.6 C 69 % 9.94 C
450 25-08-2004 08:59:52 15.7 C 69 % 10.03 C
Sensor: Nr:Datum:Temp:Feuchte:Taupunkt:
Aussen-T/F 451 25-08-2004 09:29:52 16 C 65 % 9.43 C
452 25-08-2004 09:59:52 16.6 C 63 % 9.53 C
453 25-08-2004 10:29:52 16.6 C 63 % 9.53 C
454 25-08-2004 10:59:52 16.1 C 67 % 9.98 C
455 25-08-2004 11:29:52 16.1 C 69 % 10.42 C
456 25-08-2004 11:59:52 17.1 C 63 % 10.01 C
457 25-08-2004 12:29:52 18.6 C 56 % 9.66 C
458 25-08-2004 12:59:52 17.8 C 60 % 9.94 C
459 25-08-2004 13:29:52 16.9 C 69 % 11.18 C
460 25-08-2004 13:59:52 16 C 79 % 12.36 C
461 25-08-2004 14:29:52 16.9 C 78 % 13.04 C
462 25-08-2004 14:59:52 18.1 C 71 % 12.76 C
463 25-08-2004 15:29:52 19.4 C 58 % 10.93 C
464 25-08-2004 15:59:52 19.2 C 60 % 11.25 C
465 25-08-2004 16:29:52 19.2 C 58 % 10.74 C
466 25-08-2004 16:59:52 16.6 C 79 % 12.95 C
467 25-08-2004 17:29:01 17.5 C 75 % 13.02 C
468 25-08-2004 17:59:00 18 C 68 % 12.01 C
469 25-08-2004 18:29:00 17.8 C 66 % 11.37 C
470 25-08-2004 18:59:01 18.7 C 64 % 11.76 C
471 25-08-2004 19:29:01 17.5 C 68 % 11.53 C
472 25-08-2004 19:59:02 16.9 C 73 % 12.03 C
473 25-08-2004 20:22:02 15.3 C 86 % 12.97 C
474 25-08-2004 20:34:03 15.2 C 87 % 13.05 C
475 25-08-2004 20:46:02 14.8 C 88 % 12.83 C
Sensor: Nr:Datum:Temp:Feuchte:Taupunkt:
Aussen-T/F 476 25-08-2004 20:58:02 14.7 C 89 % 12.91 C
477 25-08-2004 21:10:02 14.7 C 89 % 12.91 C
478 25-08-2004 21:22:00 14.6 C 88 % 12.64 C
479 25-08-2004 21:34:01 14.7 C 87 % 12.56 C
480 25-08-2004 21:46:01 14.8 C 86 % 12.48 C
481 25-08-2004 21:58:02 14.8 C 86 % 12.48 C
482 25-08-2004 22:10:01 14.7 C 86 % 12.38 C
483 25-08-2004 22:22:01 14.6 C 86 % 12.29 C
484 25-08-2004 22:34:01 14.8 C 85 % 12.3 C
485 25-08-2004 22:46:01 14.8 C 85 % 12.3 C
486 25-08-2004 22:58:01 14.9 C 85 % 12.4 C
487 25-08-2004 23:10:01 14.9 C 85 % 12.4 C
488 25-08-2004 23:22:00 15 C 84 % 12.32 C
489 25-08-2004 23:34:00 15.1 C 83 % 12.24 C
490 25-08-2004 23:46:02 15.1 C 83 % 12.24 C
491 25-08-2004 23:58:02 15.1 C 83 % 12.24 C
492 26-08-2004 00:10:02 15 C 83 % 12.14 C
493 26-08-2004 00:22:01 15.4 C 81 % 12.16 C
494 26-08-2004 00:34:01 15.4 C 79 % 11.78 C
495 26-08-2004 00:46:01 15.4 C 80 % 11.97 C
496 26-08-2004 00:58:01 15 C 82 % 11.95 C
497 26-08-2004 01:10:01 14.8 C 84 % 12.12 C
498 26-08-2004 01:22:00 14.8 C 84 % 12.12 C
499 26-08-2004 01:34:00 14.6 C 85 % 12.11 C
500 26-08-2004 01:46:01 14.5 C 85 % 12.01 C
Sensor: Nr:Datum:Temp:Feuchte:Taupunkt:
Aussen-T/F 501 26-08-2004 01:58:01 14.8 C 84 % 12.12 C
502 26-08-2004 02:10:01 14.8 C 83 % 11.94 C
503 26-08-2004 02:22:02 14.7 C 84 % 12.03 C
504 26-08-2004 02:34:01 14.5 C 84 % 11.83 C
505 26-08-2004 02:47:02 14.6 C 84 % 11.93 C
506 26-08-2004 02:59:02 14.6 C 84 % 11.93 C
507 26-08-2004 03:11:02 14.7 C 83 % 11.85 C
508 26-08-2004 03:23:02 14.7 C 84 % 12.03 C
509 26-08-2004 03:35:01 14.7 C 83 % 11.85 C
510 26-08-2004 03:47:01 14.7 C 82 % 11.66 C
511 26-08-2004 03:59:01 14.6 C 83 % 11.75 C
512 26-08-2004 04:11:01 14.6 C 83 % 11.75 C
513 26-08-2004 04:23:01 14.3 C 82 % 11.27 C
514 26-08-2004 04:35:00 14 C 84 % 11.34 C
515 26-08-2004 04:47:01 14 C 84 % 11.34 C
516 26-08-2004 04:59:01 14.1 C 84 % 11.44 C
517 26-08-2004 05:11:01 14.1 C 84 % 11.44 C
518 26-08-2004 05:23:00 14.1 C 84 % 11.44 C
519 26-08-2004 05:35:00 14.1 C 85 % 11.62 C
520 26-08-2004 05:47:01 14.2 C 85 % 11.72 C
521 26-08-2004 05:59:01 14.1 C 85 % 11.62 C
522 26-08-2004 06:11:02 14.1 C 85 % 11.62 C
523 26-08-2004 06:23:01 14.2 C 85 % 11.72 C
524 26-08-2004 06:35:01 14.2 C 85 % 11.72 C
525 26-08-2004 06:47:01 14.3 C 84 % 11.64 C
Sensor: Nr:Datum:Temp:Feuchte:Taupunkt:
Aussen-T/F 526 26-08-2004 06:59:01 14.4 C 84 % 11.73 C
527 26-08-2004 07:11:01 14.4 C 84 % 11.73 C
528 26-08-2004 07:23:00 14.5 C 84 % 11.83 C
529 26-08-2004 07:35:00 14.7 C 83 % 11.85 C
530 26-08-2004 07:47:02 14.8 C 83 % 11.94 C
531 26-08-2004 07:59:02 14.9 C 83 % 12.04 C
532 26-08-2004 08:11:02 15.1 C 81 % 11.87 C
533 26-08-2004 08:23:01 15.2 C 79 % 11.59 C
534 26-08-2004 08:35:01 15.4 C 79 % 11.78 C
535 26-08-2004 08:47:01 15.9 C 79 % 12.27 C
536 26-08-2004 08:59:01 16 C 77 % 11.97 C
537 26-08-2004 09:11:01 16.1 C 77 % 12.07 C
538 26-08-2004 09:23:00 15.5 C 81 % 12.26 C
539 26-08-2004 09:35:00 15 C 86 % 12.68 C
540 26-08-2004 09:47:01 14.8 C 88 % 12.83 C
541 26-08-2004 09:59:01 14.9 C 89 % 13.1 C
542 26-08-2004 10:11:01 15.3 C 89 % 13.5 C
543 26-08-2004 10:23:01 15.6 C 88 % 13.62 C
544 26-08-2004 10:35:01 16.1 C 85 % 13.58 C
545 26-08-2004 10:47:02 16.2 C 82 % 13.13 C
546 26-08-2004 10:59:02 16.5 C 81 % 13.23 C
547 26-08-2004 11:11:02 17 C 79 % 13.33 C
548 26-08-2004 11:23:01 17.8 C 76 % 13.52 C
549 26-08-2004 11:35:01 18 C 71 % 12.67 C
550 26-08-2004 11:47:01 18.1 C 72 % 12.98 C
Sensor: Nr:Datum:Temp:Feuchte:Taupunkt:
Aussen-T/F 551 26-08-2004 11:59:01 17.7 C 70 % 12.16 C
552 26-08-2004 12:11:01 19 C 65 % 12.28 C
553 26-08-2004 12:23:03 18.8 C 62 % 11.37 C
554 26-08-2004 12:35:01 19.4 C 61 % 11.69 C
555 26-08-2004 12:47:01 19.2 C 61 % 11.5 C
556 26-08-2004 12:59:01 19 C 62 % 11.56 C
557 26-08-2004 13:11:01 19.4 C 61 % 11.69 C
558 26-08-2004 13:23:05 19.2 C 59 % 11 C
559 26-08-2004 13:35:01 19.8 C 59 % 11.56 C
560 26-08-2004 13:47:01 20 C 56 % 10.96 C
561 26-08-2004 13:59:01 19.5 C 59 % 11.28 C
562 26-08-2004 14:11:01 19.7 C 57 % 10.95 C
563 26-08-2004 14:23:01 20 C 56 % 10.96 C
564 26-08-2004 14:35:01 20.4 C 54 % 10.79 C
565 26-08-2004 14:47:02 20.1 C 54 % 10.51 C
566 26-08-2004 14:59:02 19.9 C 53 % 10.04 C
567 26-08-2004 15:11:02 20.2 C 58 % 11.68 C
568 26-08-2004 15:23:09 21.2 C 55 % 11.81 C
569 26-08-2004 15:35:01 20.8 C 52 % 10.59 C
570 26-08-2004 15:47:01 20.5 C 53 % 10.6 C
571 26-08-2004 15:59:01 20 C 51 % 9.56 C
572 26-08-2004 16:11:01 20.5 C 52 % 10.31 C
573 26-08-2004 16:23:01 20.7 C 53 % 10.78 C
574 26-08-2004 16:35:01 20.1 C 50 % 9.36 C
575 26-08-2004 16:47:02 19.9 C 50 % 9.18 C
Sensor: Nr:Datum:Temp:Feuchte:Taupunkt:
Aussen-T/F 576 26-08-2004 16:59:02 20.1 C 51 % 9.66 C
577 26-08-2004 17:11:02 20 C 52 % 9.85 C
578 26-08-2004 17:23:02 20 C 52 % 9.85 C
579 26-08-2004 17:35:01 19.8 C 54 % 10.23 C
580 26-08-2004 17:47:01 20.1 C 52 % 9.94 C
581 26-08-2004 17:59:01 19.8 C 53 % 9.95 C
582 26-08-2004 18:11:01 19.6 C 53 % 9.77 C
583 26-08-2004 18:23:01 19.2 C 55 % 9.95 C
584 26-08-2004 18:35:00 19.8 C 54 % 10.23 C
585 26-08-2004 18:47:01 20.5 C 52 % 10.31 C
586 26-08-2004 18:59:01 20.4 C 54 % 10.79 C
587 26-08-2004 19:11:01 20.2 C 52 % 10.04 C
588 26-08-2004 19:23:01 20.2 C 51 % 9.75 C
589 26-08-2004 19:35:01 19.6 C 52 % 9.48 C
590 26-08-2004 19:47:01 19.2 C 55 % 9.95 C
591 26-08-2004 19:59:01 18.8 C 54 % 9.3 C
592 26-08-2004 20:11:01 18.3 C 55 % 9.11 C
593 26-08-2004 20:23:00 17.7 C 58 % 9.34 C
594 26-08-2004 20:35:00 17 C 60 % 9.19 C
595 26-08-2004 20:47:02 16.8 C 59 % 8.75 C
596 26-08-2004 20:59:03 16.8 C 58 % 8.5 C
597 26-08-2004 21:11:01 16.7 C 58 % 8.4 C
598 26-08-2004 21:23:01 16.5 C 58 % 8.22 C
599 26-08-2004 21:35:01 16.2 C 59 % 8.19 C
600 26-08-2004 21:47:02 15.9 C 62 % 8.64 C
Sensor: Nr:Datum:Temp:Feuchte:Taupunkt:
Aussen-T/F 601 26-08-2004 21:59:02 15.6 C 63 % 8.59 C
602 26-08-2004 22:11:02 15.3 C 64 % 8.54 C
603 26-08-2004 22:23:02 15.1 C 64 % 8.35 C
604 26-08-2004 22:35:01 14.8 C 67 % 8.74 C
605 26-08-2004 22:47:01 14.7 C 68 % 8.86 C
606 26-08-2004 22:59:01 14.7 C 65 % 8.2 C
607 26-08-2004 23:11:01 14.4 C 65 % 7.91 C
608 26-08-2004 23:23:00 14.2 C 65 % 7.72 C
609 26-08-2004 23:35:00 14 C 67 % 7.98 C
610 26-08-2004 23:47:01 13.7 C 68 % 7.91 C
611 26-08-2004 23:59:01 13.7 C 68 % 7.91 C
612 27-08-2004 00:11:02 13.6 C 68 % 7.81 C
613 27-08-2004 00:23:02 13.3 C 69 % 7.74 C
614 27-08-2004 00:35:01 13.3 C 70 % 7.95 C
615 27-08-2004 00:47:01 13.3 C 70 % 7.95 C
616 27-08-2004 00:59:01 13 C 70 % 7.66 C
617 27-08-2004 01:11:01 12.9 C 72 % 7.98 C
618 27-08-2004 01:23:01 12.4 C 74 % 7.9 C
619 27-08-2004 01:35:00 12.1 C 77 % 8.2 C
620 27-08-2004 01:47:01 12 C 77 % 8.1 C
621 27-08-2004 01:59:01 11.8 C 79 % 8.28 C
622 27-08-2004 02:11:01 11.6 C 80 % 8.27 C
623 27-08-2004 02:23:00 11.5 C 81 % 8.36 C
624 27-08-2004 02:35:00 11.3 C 82 % 8.34 C
625 27-08-2004 02:48:03 11.1 C 84 % 8.5 C
Sensor: Nr:Datum:Temp:Feuchte:Taupunkt:
Aussen-T/F 626 27-08-2004 03:00:03 11.1 C 84 % 8.5 C
627 27-08-2004 03:12:03 11.1 C 83 % 8.33 C
628 27-08-2004 03:24:03 11 C 83 % 8.23 C
629 27-08-2004 03:36:01 11 C 83 % 8.23 C
630 27-08-2004 03:48:01 11.3 C 82 % 8.34 C
631 27-08-2004 04:00:01 11.5 C 81 % 8.36 C
632 27-08-2004 04:12:01 11.4 C 81 % 8.26 C
633 27-08-2004 04:24:00 11.2 C 82 % 8.25 C
634 27-08-2004 04:36:00 11.1 C 83 % 8.33 C
635 27-08-2004 04:48:01 11 C 83 % 8.23 C
636 27-08-2004 05:00:01 10.9 C 84 % 8.31 C
637 27-08-2004 05:12:01 11.1 C 84 % 8.5 C
638 27-08-2004 05:24:01 11.1 C 84 % 8.5 C
639 27-08-2004 05:36:01 11.4 C 84 % 8.8 C
640 27-08-2004 05:48:01 11.6 C 83 % 8.81 C
641 27-08-2004 06:00:01 11.5 C 83 % 8.72 C
642 27-08-2004 06:12:01 11.4 C 83 % 8.62 C
643 27-08-2004 06:24:00 11.4 C 84 % 8.8 C
644 27-08-2004 06:36:00 11.6 C 83 % 8.81 C
645 27-08-2004 06:48:01 11.7 C 83 % 8.91 C
646 27-08-2004 07:00:01 11.9 C 83 % 9.11 C
647 27-08-2004 07:12:01 12 C 82 % 9.03 C
648 27-08-2004 07:24:00 12 C 82 % 9.03 C
649 27-08-2004 07:36:00 12.2 C 82 % 9.22 C
650 27-08-2004 07:48:02 12.2 C 81 % 9.04 C
Sensor: Nr:Datum:Temp:Feuchte:Taupunkt:
Aussen-T/F 651 27-08-2004 08:00:02 12.4 C 81 % 9.23 C
652 27-08-2004 08:12:02 12.5 C 81 % 9.33 C
653 27-08-2004 08:24:01 12.8 C 81 % 9.62 C
654 27-08-2004 08:36:01 13.2 C 79 % 9.64 C
655 27-08-2004 08:48:02 13.4 C 78 % 9.65 C
656 27-08-2004 09:00:02 13.6 C 78 % 9.84 C
657 27-08-2004 09:12:01 13.8 C 78 % 10.03 C
658 27-08-2004 09:24:01 14 C 77 % 10.04 C
659 27-08-2004 09:36:00 14.3 C 77 % 10.33 C
660 27-08-2004 09:48:01 14.5 C 76 % 10.32 C
661 27-08-2004 10:00:01 14.7 C 77 % 10.71 C
662 27-08-2004 10:12:02 15.4 C 75 % 11 C
663 27-08-2004 10:24:02 15.9 C 73 % 11.07 C
664 27-08-2004 10:36:02 16.3 C 70 % 10.82 C
665 27-08-2004 10:48:01 16.6 C 68 % 10.67 C
666 27-08-2004 11:00:01 16.5 C 68 % 10.58 C
667 27-08-2004 11:12:01 17.1 C 65 % 10.47 C
668 27-08-2004 11:24:01 17.2 C 62 % 9.86 C
669 27-08-2004 11:36:00 17.3 C 63 % 10.2 C
670 27-08-2004 11:48:01 17.7 C 60 % 9.84 C
671 27-08-2004 12:00:01 17.8 C 59 % 9.69 C
672 27-08-2004 12:12:01 18.1 C 58 % 9.71 C
673 27-08-2004 12:24:00 18.9 C 57 % 10.2 C
674 27-08-2004 12:36:01 19.3 C 53 % 9.49 C
675 27-08-2004 12:48:02 19.6 C 52 % 9.48 C
Sensor: Nr:Datum:Temp:Feuchte:Taupunkt:
Aussen-T/F 676 27-08-2004 13:00:02 20.2 C 52 % 10.04 C
677 27-08-2004 13:12:02 20.3 C 49 % 9.24 C
678 27-08-2004 13:24:02 20.3 C 47 % 8.63 C
679 27-08-2004 13:36:01 21.2 C 46 % 9.13 C
680 27-08-2004 13:48:01 20.8 C 49 % 9.7 C
681 27-08-2004 14:00:01 20.2 C 49 % 9.15 C
682 27-08-2004 14:12:01 20.3 C 50 % 9.54 C
683 27-08-2004 14:24:03 20.3 C 49 % 9.24 C
684 27-08-2004 14:36:01 20.6 C 48 % 9.21 C
685 27-08-2004 14:48:01 20.8 C 48 % 9.4 C
686 27-08-2004 15:00:01 20.9 C 48 % 9.49 C
687 27-08-2004 15:12:01 20.5 C 49 % 9.43 C
688 27-08-2004 15:24:01 20.2 C 49 % 9.15 C
689 27-08-2004 15:36:00 20.2 C 48 % 8.85 C
690 27-08-2004 15:48:02 20 C 48 % 8.67 C
691 27-08-2004 16:00:02 20 C 49 % 8.97 C
692 27-08-2004 16:12:01 20 C 50 % 9.27 C
693 27-08-2004 16:24:00 19.8 C 51 % 9.38 C
694 27-08-2004 16:36:00 19.7 C 52 % 9.58 C
695 27-08-2004 16:48:02 19.7 C 52 % 9.58 C
696 27-08-2004 17:00:02 19.9 C 52 % 9.76 C
697 27-08-2004 17:12:02 20 C 51 % 9.56 C
698 27-08-2004 17:24:02 18.8 C 62 % 11.37 C
699 27-08-2004 17:36:01 17.8 C 71 % 12.47 C
700 27-08-2004 17:48:01 18.3 C 67 % 12.07 C
Sensor: Nr:Datum:Temp:Feuchte:Taupunkt:
Aussen-T/F 701 27-08-2004 18:00:01 18.3 C 69 % 12.52 C
702 27-08-2004 18:12:01 18.2 C 70 % 12.64 C
703 27-08-2004 18:24:01 18.6 C 65 % 11.9 C
704 27-08-2004 18:36:01 18.7 C 63 % 11.52 C
705 27-08-2004 18:48:02 17.8 C 70 % 12.26 C
706 27-08-2004 19:00:02 17.7 C 72 % 12.59 C
707 27-08-2004 19:12:01 17.3 C 74 % 12.62 C
708 27-08-2004 19:24:03 16.9 C 77 % 12.84 C
709 27-08-2004 19:36:01 17 C 76 % 12.74 C
710 27-08-2004 19:48:01 17.1 C 76 % 12.84 C
711 27-08-2004 20:00:01 17.1 C 76 % 12.84 C
712 27-08-2004 20:12:01 17.1 C 77 % 13.04 C
713 27-08-2004 20:24:01 17 C 77 % 12.94 C
714 27-08-2004 20:36:01 17.1 C 76 % 12.84 C
715 27-08-2004 20:48:02 17.1 C 77 % 13.04 C
716 27-08-2004 21:00:02 17.1 C 77 % 13.04 C
717 27-08-2004 21:12:01 17.2 C 77 % 13.14 C
718 27-08-2004 21:24:02 17.3 C 75 % 12.83 C
719 27-08-2004 21:36:01 17.8 C 71 % 12.47 C
720 27-08-2004 21:48:01 17.9 C 70 % 12.35 C
721 27-08-2004 22:00:01 18 C 68 % 12.01 C
722 27-08-2004 22:12:01 18.2 C 68 % 12.2 C
723 27-08-2004 22:24:00 18.4 C 68 % 12.39 C
724 27-08-2004 22:36:00 18.1 C 69 % 12.33 C
725 27-08-2004 22:48:01 18.1 C 69 % 12.33 C
Sensor: Nr:Datum:Temp:Feuchte:Taupunkt:
Aussen-T/F 726 27-08-2004 23:00:01 18.1 C 69 % 12.33 C
727 27-08-2004 23:12:01 17.9 C 72 % 12.78 C
728 27-08-2004 23:24:00 17.7 C 72 % 12.59 C
729 27-08-2004 23:36:01 17.8 C 72 % 12.69 C
730 27-08-2004 23:48:02 17.7 C 72 % 12.59 C
731 28-08-2004 00:00:02 17.7 C 72 % 12.59 C
732 28-08-2004 00:12:02 17.6 C 72 % 12.5 C
733 28-08-2004 00:24:01 17.5 C 74 % 12.82 C
734 28-08-2004 00:36:01 17.5 C 74 % 12.82 C
735 28-08-2004 00:48:01 17.2 C 77 % 13.14 C
736 28-08-2004 01:00:01 16.8 C 80 % 13.33 C
737 28-08-2004 01:12:01 16.6 C 81 % 13.33 C
738 28-08-2004 01:24:01 16.7 C 81 % 13.43 C
739 28-08-2004 01:36:01 16.7 C 82 % 13.61 C
740 28-08-2004 01:48:02 16.8 C 81 % 13.52 C
741 28-08-2004 02:00:02 16.9 C 80 % 13.43 C
742 28-08-2004 02:12:02 17 C 78 % 13.14 C
743 28-08-2004 02:24:02 17 C 78 % 13.14 C
744 28-08-2004 02:36:01 17 C 78 % 13.14 C
745 28-08-2004 02:49:02 16.9 C 79 % 13.24 C
746 28-08-2004 03:01:02 16.9 C 79 % 13.24 C
747 28-08-2004 03:13:03 17 C 78 % 13.14 C
748 28-08-2004 03:25:03 17 C 77 % 12.94 C
749 28-08-2004 03:37:01 17 C 78 % 13.14 C
750 28-08-2004 03:49:01 17 C 78 % 13.14 C
Sensor: Nr:Datum:Temp:Feuchte:Taupunkt:
Aussen-T/F 751 28-08-2004 04:01:01 16.9 C 79 % 13.24 C
752 28-08-2004 04:13:01 16.9 C 80 % 13.43 C
753 28-08-2004 04:25:01 16.8 C 80 % 13.33 C
754 28-08-2004 04:37:00 16.6 C 82 % 13.52 C
755 28-08-2004 04:49:01 16.2 C 84 % 13.5 C
756 28-08-2004 05:01:01 16.1 C 85 % 13.58 C
757 28-08-2004 05:13:01 15.9 C 87 % 13.74 C
758 28-08-2004 05:25:01 15.8 C 88 % 13.82 C
759 28-08-2004 05:37:01 15.9 C 89 % 14.09 C
760 28-08-2004 05:49:02 15.8 C 89 % 13.99 C
761 28-08-2004 06:01:02 15.7 C 90 % 14.06 C
762 28-08-2004 06:13:02 15.7 C 91 % 14.24 C
763 28-08-2004 06:25:01 15.6 C 91 % 14.14 C
764 28-08-2004 06:37:01 15.6 C 92 % 14.31 C
765 28-08-2004 06:49:01 15.5 C 92 % 14.21 C
766 28-08-2004 07:01:01 15.5 C 92 % 14.21 C
767 28-08-2004 07:13:01 15.5 C 92 % 14.21 C
768 28-08-2004 07:25:00 15.9 C 92 % 14.6 C
769 28-08-2004 07:37:00 15.6 C 92 % 14.31 C
770 28-08-2004 07:49:02 15.6 C 92 % 14.31 C
771 28-08-2004 08:01:02 15.8 C 92 % 14.5 C
772 28-08-2004 08:13:02 15.8 C 92 % 14.5 C
773 28-08-2004 08:25:01 15.8 C 92 % 14.5 C
774 28-08-2004 08:37:01 16 C 91 % 14.53 C
775 28-08-2004 08:49:01 16.1 C 91 % 14.63 C
Sensor: Nr:Datum:Temp:Feuchte:Taupunkt:
Aussen-T/F 776 28-08-2004 09:01:01 16.2 C 90 % 14.56 C
777 28-08-2004 09:13:01 16 C 90 % 14.36 C
778 28-08-2004 09:25:00 16 C 90 % 14.36 C
779 28-08-2004 09:37:00 16 C 90 % 14.36 C
780 28-08-2004 09:49:01 16 C 90 % 14.36 C
781 28-08-2004 10:01:01 16.2 C 90 % 14.56 C
782 28-08-2004 10:13:01 16.2 C 89 % 14.39 C
783 28-08-2004 10:25:01 16.1 C 89 % 14.29 C
784 28-08-2004 10:37:01 16 C 89 % 14.19 C
785 28-08-2004 10:49:01 16.1 C 89 % 14.29 C
786 28-08-2004 11:01:01 16 C 89 % 14.19 C
787 28-08-2004 11:13:01 16.1 C 89 % 14.29 C
788 28-08-2004 11:25:00 16.4 C 89 % 14.58 C
789 28-08-2004 11:37:00 16.6 C 90 % 14.95 C
790 28-08-2004 11:49:01 16.9 C 90 % 15.25 C
791 28-08-2004 12:01:01 16.7 C 89 % 14.88 C
792 28-08-2004 12:13:01 17 C 88 % 15 C
793 28-08-2004 12:25:00 17.4 C 87 % 15.21 C
794 28-08-2004 12:37:01 17.3 C 87 % 15.12 C
795 28-08-2004 12:49:02 17.4 C 87 % 15.21 C
796 28-08-2004 13:01:03 17.9 C 86 % 15.53 C
797 28-08-2004 13:13:03 18.3 C 84 % 15.55 C
798 28-08-2004 13:25:01 18.8 C 81 % 15.47 C
799 28-08-2004 13:37:01 18.6 C 81 % 15.28 C
800 28-08-2004 13:49:01 19.7 C 77 % 15.56 C
Sensor: Nr:Datum:Temp:Feuchte:Taupunkt:
Aussen-T/F 801 28-08-2004 14:01:01 19.7 C 73 % 14.73 C
802 28-08-2004 14:13:01 19.7 C 73 % 14.73 C
803 28-08-2004 14:25:00 19.8 C 74 % 15.03 C
804 28-08-2004 14:37:00 20.1 C 72 % 14.9 C
805 28-08-2004 14:49:02 21.2 C 68 % 15.06 C
806 28-08-2004 15:01:02 20.9 C 70 % 15.23 C
807 28-08-2004 15:13:02 21.5 C 65 % 14.65 C
808 28-08-2004 15:25:02 21.9 C 64 % 14.78 C
809 28-08-2004 15:37:01 22 C 62 % 14.39 C
810 28-08-2004 15:49:01 21.9 C 62 % 14.29 C
811 28-08-2004 16:01:01 22.1 C 62 % 14.48 C
812 28-08-2004 16:13:01 21.8 C 62 % 14.2 C
813 28-08-2004 16:25:00 21.7 C 61 % 13.85 C
814 28-08-2004 16:37:00 21.6 C 62 % 14.01 C
815 28-08-2004 16:49:01 21.3 C 61 % 13.48 C
816 28-08-2004 17:01:01 21.3 C 63 % 13.97 C
817 28-08-2004 17:13:01 21.2 C 64 % 14.12 C
818 28-08-2004 17:25:01 20.8 C 66 % 14.22 C
819 28-08-2004 17:37:01 20.8 C 68 % 14.68 C
820 28-08-2004 17:49:01 20.8 C 69 % 14.91 C
821 28-08-2004 18:01:01 20.5 C 70 % 14.84 C
822 28-08-2004 18:13:01 20.2 C 72 % 14.99 C
823 28-08-2004 18:25:01 19.9 C 74 % 15.13 C
824 28-08-2004 18:37:00 19.4 C 77 % 15.27 C
825 28-08-2004 18:49:01 18.9 C 83 % 15.95 C
Sensor: Nr:Datum:Temp:Feuchte:Taupunkt:
Aussen-T/F 826 28-08-2004 19:01:01 18.6 C 85 % 16.03 C
827 28-08-2004 19:13:01 18.4 C 87 % 16.2 C
828 28-08-2004 19:25:00 18.2 C 88 % 16.18 C
829 28-08-2004 19:37:00 18 C 88 % 15.98 C
830 28-08-2004 19:49:02 17.9 C 89 % 16.06 C
831 28-08-2004 20:01:02 17.7 C 90 % 16.04 C
832 28-08-2004 20:13:02 17.4 C 90 % 15.74 C
833 28-08-2004 20:25:01 17.1 C 89 % 15.27 C
834 28-08-2004 20:37:01 17.1 C 89 % 15.27 C
835 28-08-2004 20:49:01 17 C 87 % 14.82 C
836 28-08-2004 21:01:01 17 C 87 % 14.82 C
837 28-08-2004 21:13:01 17 C 87 % 14.82 C
838 28-08-2004 21:25:00 16.9 C 88 % 14.9 C
839 28-08-2004 21:37:00 16.8 C 89 % 14.98 C
840 28-08-2004 21:49:01 16.8 C 90 % 15.15 C
841 28-08-2004 22:01:02 16.8 C 90 % 15.15 C
842 28-08-2004 22:13:02 16.7 C 90 % 15.05 C
843 28-08-2004 22:25:01 16.6 C 90 % 14.95 C
844 28-08-2004 22:37:01 16.6 C 90 % 14.95 C
845 28-08-2004 22:49:01 16.6 C 90 % 14.95 C
846 28-08-2004 23:01:01 16.4 C 90 % 14.76 C
847 28-08-2004 23:13:01 16.5 C 91 % 15.03 C
848 28-08-2004 23:25:01 16.4 C 91 % 14.93 C
849 28-08-2004 23:37:00 16.4 C 91 % 14.93 C
850 28-08-2004 23:49:01 16.4 C 91 % 14.93 C
Sensor: Nr:Datum:Temp:Feuchte:Taupunkt:
Aussen-T/F 851 29-08-2004 00:01:01 16.5 C 92 % 15.2 C
852 29-08-2004 00:13:01 16.4 C 92 % 15.1 C
853 29-08-2004 00:25:01 16.4 C 91 % 14.93 C
854 29-08-2004 00:37:01 16.4 C 91 % 14.93 C
855 29-08-2004 00:49:01 16.5 C 90 % 14.85 C
856 29-08-2004 01:01:01 16.6 C 90 % 14.95 C
857 29-08-2004 01:13:01 16.6 C 89 % 14.78 C
858 29-08-2004 01:25:01 16.3 C 90 % 14.66 C
859 29-08-2004 01:37:00 16.1 C 90 % 14.46 C
860 29-08-2004 01:49:01 15.8 C 91 % 14.33 C
861 29-08-2004 02:01:01 15.8 C 91 % 14.33 C
862 29-08-2004 02:13:01 15.7 C 91 % 14.24 C
863 29-08-2004 02:25:00 15.7 C 91 % 14.24 C
864 29-08-2004 02:37:00 15.7 C 91 % 14.24 C
865 29-08-2004 02:50:03 15.6 C 91 % 14.14 C
866 29-08-2004 03:02:03 15.6 C 91 % 14.14 C
867 29-08-2004 03:14:03 15.4 C 91 % 13.94 C
868 29-08-2004 03:26:03 15.4 C 92 % 14.11 C
869 29-08-2004 03:38:01 15.4 C 92 % 14.11 C
870 29-08-2004 03:50:01 15.4 C 91 % 13.94 C
871 29-08-2004 04:02:02 15.4 C 91 % 13.94 C
872 29-08-2004 04:14:02 15.5 C 90 % 13.87 C
873 29-08-2004 04:26:01 15.7 C 89 % 13.89 C
874 29-08-2004 04:38:01 15.8 C 88 % 13.82 C
875 29-08-2004 04:50:01 15.7 C 88 % 13.72 C
Sensor: Nr:Datum:Temp:Feuchte:Taupunkt:
Aussen-T/F 876 29-08-2004 05:02:01 15.7 C 89 % 13.89 C
877 29-08-2004 05:14:01 15.8 C 89 % 13.99 C
878 29-08-2004 05:26:00 15.9 C 89 % 14.09 C
879 29-08-2004 05:38:00 15.9 C 88 % 13.92 C
880 29-08-2004 05:50:01 15.6 C 88 % 13.62 C
881 29-08-2004 06:02:01 15.9 C 88 % 13.92 C
882 29-08-2004 06:14:01 15.8 C 88 % 13.82 C
883 29-08-2004 06:26:00 15.6 C 89 % 13.79 C
884 29-08-2004 06:38:00 15.1 C 89 % 13.3 C
885 29-08-2004 06:50:02 14.9 C 91 % 13.44 C
886 29-08-2004 07:02:02 14.8 C 91 % 13.35 C
887 29-08-2004 07:14:02 14.8 C 91 % 13.35 C
888 29-08-2004 07:26:01 14.9 C 92 % 13.61 C
889 29-08-2004 07:38:01 15 C 91 % 13.54 C
890 29-08-2004 07:50:01 15.3 C 92 % 14.01 C
891 29-08-2004 08:02:01 15.7 C 92 % 14.4 C
892 29-08-2004 08:14:01 16 C 91 % 14.53 C
893 29-08-2004 08:26:00 15.9 C 92 % 14.6 C
894 29-08-2004 08:38:00 16.2 C 90 % 14.56 C
895 29-08-2004 08:50:01 16.5 C 89 % 14.68 C
896 29-08-2004 09:02:02 16.8 C 88 % 14.8 C
897 29-08-2004 09:14:02 17 C 85 % 14.46 C
898 29-08-2004 09:26:01 17.5 C 83 % 14.58 C
899 29-08-2004 09:38:01 18.1 C 81 % 14.79 C
900 29-08-2004 09:50:01 18.3 C 80 % 14.79 C
Sensor: Nr:Datum:Temp:Feuchte:Taupunkt:
Aussen-T/F 901 29-08-2004 10:02:01 18.5 C 79 % 14.79 C
902 29-08-2004 10:14:01 18.7 C 76 % 14.39 C
903 29-08-2004 10:26:00 18.9 C 75 % 14.37 C
904 29-08-2004 10:38:00 19.2 C 73 % 14.25 C
905 29-08-2004 10:50:01 19.2 C 71 % 13.82 C
906 29-08-2004 11:02:01 19.2 C 72 % 14.03 C
907 29-08-2004 11:14:01 19.4 C 70 % 13.79 C
908 29-08-2004 11:26:00 20 C 69 % 14.14 C
909 29-08-2004 11:38:00 20 C 66 % 13.46 C
910 29-08-2004 11:50:02 20 C 65 % 13.22 C
911 29-08-2004 12:02:02 20.8 C 64 % 13.74 C
912 29-08-2004 12:14:02 20.8 C 62 % 13.26 C
913 29-08-2004 12:26:01 20.9 C 63 % 13.6 C
914 29-08-2004 12:38:01 21.5 C 57 % 12.63 C
915 29-08-2004 12:50:01 21.8 C 52 % 11.51 C
916 29-08-2004 13:02:01 22.2 C 50 % 11.29 C
917 29-08-2004 13:14:01 22.5 C 49 % 11.26 C
918 29-08-2004 13:26:00 22.5 C 47 % 10.63 C
919 29-08-2004 13:38:00 22.6 C 46 % 10.4 C
920 29-08-2004 13:50:02 22.9 C 47 % 11 C
921 29-08-2004 14:02:02 22.9 C 48 % 11.31 C
922 29-08-2004 14:14:02 23.8 C 46 % 11.49 C
923 29-08-2004 14:26:02 23.3 C 46 % 11.04 C
924 29-08-2004 14:38:01 22.9 C 48 % 11.31 C
925 29-08-2004 14:50:01 22.9 C 45 % 10.34 C
Sensor: Nr:Datum:Temp:Feuchte:Taupunkt:
Aussen-T/F 926 29-08-2004 15:02:01 23.1 C 43 % 9.85 C
927 29-08-2004 15:14:01 23.4 C 45 % 10.8 C
928 29-08-2004 15:26:00 23.3 C 43 % 10.03 C
929 29-08-2004 15:38:00 23.1 C 47 % 11.18 C
930 29-08-2004 15:50:01 22.9 C 47 % 11 C
931 29-08-2004 16:02:01 23.3 C 44 % 10.37 C
932 29-08-2004 16:14:01 23.1 C 46 % 10.86 C
933 29-08-2004 16:26:00 24.3 C 43 % 10.93 C
934 29-08-2004 16:38:01 23.7 C 44 % 10.73 C
935 29-08-2004 16:50:01 23.8 C 45 % 11.16 C
936 29-08-2004 17:02:01 23.1 C 46 % 10.86 C
937 29-08-2004 17:14:01 23.4 C 47 % 11.45 C
938 29-08-2004 17:26:01 23.4 C 47 % 11.45 C
939 29-08-2004 17:38:01 23.3 C 48 % 11.68 C
940 29-08-2004 17:50:01 22.9 C 49 % 11.63 C
941 29-08-2004 18:02:02 22.4 C 50 % 11.47 C
942 29-08-2004 18:14:02 23.5 C 48 % 11.86 C
943 29-08-2004 18:26:01 23.3 C 48 % 11.68 C
944 29-08-2004 18:38:00 22.9 C 49 % 11.63 C
945 29-08-2004 18:50:02 23.1 C 48 % 11.5 C
946 29-08-2004 19:02:02 22.1 C 50 % 11.2 C
947 29-08-2004 19:14:02 21.6 C 56 % 12.45 C
948 29-08-2004 19:26:02 21.1 C 57 % 12.25 C
949 29-08-2004 19:38:01 20.6 C 61 % 12.82 C
950 29-08-2004 19:50:01 20 C 62 % 12.5 C
Sensor: Nr:Datum:Temp:Feuchte:Taupunkt:
Aussen-T/F 951 29-08-2004 20:02:01 19.6 C 64 % 12.61 C
952 29-08-2004 20:14:01 19.2 C 64 % 12.23 C
953 29-08-2004 20:26:01 18.7 C 67 % 12.45 C
954 29-08-2004 20:38:00 18.7 C 68 % 12.68 C
955 29-08-2004 20:50:01 18.8 C 70 % 13.22 C
956 29-08-2004 21:02:02 18.7 C 71 % 13.34 C
957 29-08-2004 21:14:02 18.8 C 71 % 13.43 C
958 29-08-2004 21:26:01 18.7 C 71 % 13.34 C
959 29-08-2004 21:38:01 18.5 C 72 % 13.36 C
960 29-08-2004 21:50:01 18.3 C 72 % 13.17 C
961 29-08-2004 22:02:01 18.2 C 73 % 13.28 C
962 29-08-2004 22:14:01 18.2 C 74 % 13.49 C
963 29-08-2004 22:26:00 17.9 C 75 % 13.41 C
964 29-08-2004 22:38:00 17.9 C 76 % 13.61 C
965 29-08-2004 22:50:01 18 C 73 % 13.09 C
966 29-08-2004 23:02:01 18 C 74 % 13.3 C
967 29-08-2004 23:14:01 18 C 74 % 13.3 C
968 29-08-2004 23:26:00 17.8 C 74 % 13.11 C
969 29-08-2004 23:38:01 17.7 C 75 % 13.22 C
970 29-08-2004 23:50:02 17.7 C 76 % 13.42 C
971 30-08-2004 00:02:02 17.8 C 76 % 13.52 C
972 30-08-2004 00:14:02 17.9 C 75 % 13.41 C
973 30-08-2004 00:26:02 17.9 C 76 % 13.61 C
974 30-08-2004 00:38:01 17.9 C 76 % 13.61 C
975 30-08-2004 00:50:01 17.8 C 75 % 13.31 C
Sensor: Nr:Datum:Temp:Feuchte:Taupunkt:
Aussen-T/F 976 30-08-2004 01:02:01 17.9 C 76 % 13.61 C
977 30-08-2004 01:14:01 18 C 73 % 13.09 C
978 30-08-2004 01:26:02 18 C 73 % 13.09 C
979 30-08-2004 01:38:02 17.8 C 74 % 13.11 C
980 30-08-2004 01:50:02 17.7 C 75 % 13.22 C
981 30-08-2004 02:02:02 17.7 C 74 % 13.01 C
982 30-08-2004 02:14:02 17.7 C 74 % 13.01 C
983 30-08-2004 02:26:02 17.6 C 74 % 12.91 C
984 30-08-2004 02:38:01 17.6 C 75 % 13.12 C
985 30-08-2004 02:51:03 17.6 C 73 % 12.71 C
986 30-08-2004 03:03:03 17 C 78 % 13.14 C
987 30-08-2004 03:15:03 16.3 C 83 % 13.41 C
988 30-08-2004 03:27:03 16.1 C 85 % 13.58 C
989 30-08-2004 03:39:01 15.9 C 87 % 13.74 C
990 30-08-2004 03:51:01 15.8 C 88 % 13.82 C
991 30-08-2004 04:03:01 15.8 C 88 % 13.82 C
992 30-08-2004 04:15:01 16.1 C 87 % 13.94 C
993 30-08-2004 04:27:01 15.1 C 86 % 12.78 C
994 30-08-2004 04:39:00 14.7 C 88 % 12.73 C
995 30-08-2004 04:51:01 14.5 C 89 % 12.71 C
996 30-08-2004 05:03:02 14.2 C 88 % 12.24 C
997 30-08-2004 05:15:01 13.9 C 88 % 11.95 C
998 30-08-2004 05:27:01 13.9 C 89 % 12.12 C
999 30-08-2004 05:39:01 13.8 C 89 % 12.02 C
1000 30-08-2004 05:51:01 13.6 C 89 % 11.82 C
Sensor: Nr:Datum:Temp:Feuchte:Taupunkt:
Aussen-T/F 1001 30-08-2004 06:03:01 13.6 C 89 % 11.82 C
1002 30-08-2004 06:15:01 13.7 C 88 % 11.75 C
1003 30-08-2004 06:27:01 13.6 C 87 % 11.48 C
1004 30-08-2004 06:39:01 13.6 C 88 % 11.65 C
1005 30-08-2004 06:51:01 13.7 C 87 % 11.58 C
1006 30-08-2004 07:03:01 13.7 C 86 % 11.4 C
1007 30-08-2004 07:15:01 13.7 C 86 % 11.4 C
1008 30-08-2004 07:27:01 13.7 C 87 % 11.58 C
1009 30-08-2004 07:39:01 13.8 C 87 % 11.68 C
1010 30-08-2004 07:51:02 13.8 C 87 % 11.68 C
1011 30-08-2004 08:03:02 14 C 85 % 11.52 C
1012 30-08-2004 08:15:01 14.2 C 84 % 11.54 C
1013 30-08-2004 08:27:01 14.4 C 82 % 11.37 C
1014 30-08-2004 08:39:01 14.4 C 82 % 11.37 C
1015 30-08-2004 08:51:01 14.6 C 80 % 11.19 C
1016 30-08-2004 09:03:01 14.8 C 79 % 11.2 C
1017 30-08-2004 09:15:01 14.9 C 79 % 11.29 C
1018 30-08-2004 09:27:01 15 C 78 % 11.2 C
1019 30-08-2004 09:39:00 15.2 C 76 % 11 C
1020 30-08-2004 09:51:02 15.3 C 76 % 11.1 C
1021 30-08-2004 10:03:02 15.6 C 76 % 11.39 C
1022 30-08-2004 10:15:02 15.9 C 75 % 11.48 C
1023 30-08-2004 10:27:02 16 C 72 % 10.96 C
1024 30-08-2004 10:39:01 16 C 72 % 10.96 C
1025 30-08-2004 10:51:02 16.1 C 73 % 11.26 C
Sensor: Nr:Datum:Temp:Feuchte:Taupunkt:
Aussen-T/F 1026 30-08-2004 11:03:01 16.8 C 72 % 11.73 C
1027 30-08-2004 11:15:00 16.5 C 71 % 11.23 C
1028 30-08-2004 11:27:00 16.2 C 72 % 11.15 C
1029 30-08-2004 11:39:00 14.7 C 81 % 11.48 C
1030 30-08-2004 11:51:01 14.1 C 82 % 11.08 C
1031 30-08-2004 12:03:01 14.4 C 83 % 11.55 C
1032 30-08-2004 12:15:02 15 C 83 % 12.14 C
1033 30-08-2004 12:27:02 16.1 C 84 % 13.4 C
1034 30-08-2004 12:39:01 16.8 C 78 % 12.94 C
1035 30-08-2004 12:51:01 17.8 C 70 % 12.26 C
1036 30-08-2004 13:03:01 18.3 C 65 % 11.61 C
1037 30-08-2004 13:15:00 18.5 C 63 % 11.33 C
1038 30-08-2004 13:27:00 17.6 C 63 % 10.48 C
1039 30-08-2004 13:39:00 18.7 C 61 % 11.03 C
1040 30-08-2004 13:51:01 18.5 C 60 % 10.6 C
1041 30-08-2004 14:03:01 17.1 C 67 % 10.93 C
1042 30-08-2004 14:15:00 15.7 C 78 % 11.88 C
1043 30-08-2004 14:27:00 16.2 C 78 % 12.36 C
1044 30-08-2004 14:39:01 17.6 C 72 % 12.5 C
1045 30-08-2004 14:51:02 18.6 C 66 % 12.13 C
1046 30-08-2004 15:03:02 19.3 C 60 % 11.35 C
1047 30-08-2004 15:15:01 18.4 C 60 % 10.5 C
1048 30-08-2004 15:27:01 15.7 C 76 % 11.48 C
1049 30-08-2004 15:39:01 14.7 C 81 % 11.48 C
1050 30-08-2004 15:51:01 14 C 84 % 11.34 C
Sensor: Nr:Datum:Temp:Feuchte:Taupunkt:
Aussen-T/F 1051 30-08-2004 16:03:01 13.9 C 88 % 11.95 C
1052 30-08-2004 16:15:00 15.5 C 86 % 13.17 C
1053 30-08-2004 16:27:00 17.2 C 79 % 13.53 C
1054 30-08-2004 16:39:00 18.4 C 73 % 13.48 C
1055 30-08-2004 16:51:01 19.5 C 71 % 14.1 C
1056 30-08-2004 17:03:02 19.1 C 59 % 10.91 C
1057 30-08-2004 17:15:02 18.8 C 63 % 11.61 C
1058 30-08-2004 17:27:02 17.6 C 64 % 10.72 C
1059 30-08-2004 17:39:01 17.6 C 66 % 11.18 C
1060 30-08-2004 17:51:01 17.4 C 66 % 10.99 C
1061 30-08-2004 18:03:01 15.7 C 75 % 11.28 C
1062 30-08-2004 18:15:01 15.5 C 78 % 11.68 C
1063 30-08-2004 18:27:01 15.9 C 74 % 11.28 C
1064 30-08-2004 18:39:01 16.2 C 71 % 10.94 C
1065 30-08-2004 18:51:01 16 C 71 % 10.75 C
1066 30-08-2004 19:03:01 16.3 C 73 % 11.46 C
1067 30-08-2004 19:15:01 16.4 C 72 % 11.34 C
1068 30-08-2004 19:27:01 17.2 C 69 % 11.47 C
1069 30-08-2004 19:39:01 17 C 64 % 10.15 C
1070 30-08-2004 19:51:02 16.4 C 66 % 10.04 C
1071 30-08-2004 20:03:02 15.7 C 69 % 10.03 C
1072 30-08-2004 20:15:01 15.3 C 71 % 10.08 C
1073 30-08-2004 20:27:01 15 C 73 % 10.2 C
1074 30-08-2004 20:39:01 14.9 C 74 % 10.31 C
1075 30-08-2004 20:51:01 14.8 C 74 % 10.22 C
Sensor: Nr:Datum:Temp:Feuchte:Taupunkt:
Aussen-T/F 1076 30-08-2004 21:03:02 14.7 C 76 % 10.52 C
1077 30-08-2004 21:15:00 14.4 C 78 % 10.62 C
1078 30-08-2004 21:27:00 14.3 C 79 % 10.71 C
1079 30-08-2004 21:39:00 14.4 C 79 % 10.81 C
1080 30-08-2004 21:51:02 14.4 C 79 % 10.81 C
1081 30-08-2004 22:03:02 14.5 C 79 % 10.91 C
1082 30-08-2004 22:15:02 14.4 C 80 % 11 C
1083 30-08-2004 22:27:02 14.3 C 80 % 10.9 C
1084 30-08-2004 22:39:01 14.4 C 79 % 10.81 C
1085 30-08-2004 22:51:01 14.2 C 82 % 11.17 C
1086 30-08-2004 23:03:01 14.1 C 83 % 11.26 C
1087 30-08-2004 23:15:01 13.5 C 87 % 11.38 C
1088 30-08-2004 23:27:01 12.8 C 88 % 10.86 C
1089 30-08-2004 23:39:00 12.8 C 90 % 11.2 C
1090 30-08-2004 23:51:01 12.9 C 91 % 11.47 C
1091 31-08-2004 00:03:01 13 C 91 % 11.57 C
1092 31-08-2004 00:15:02 12.8 C 92 % 11.53 C
1093 31-08-2004 00:27:03 12.6 C 90 % 11 C
1094 31-08-2004 00:39:01 12.4 C 89 % 10.64 C
1095 31-08-2004 00:51:02 12.2 C 88 % 10.27 C
1096 31-08-2004 01:03:01 11.9 C 89 % 10.15 C
1097 31-08-2004 01:15:02 11.7 C 89 % 9.95 C
1098 31-08-2004 01:27:02 11.7 C 89 % 9.95 C
1099 31-08-2004 01:39:02 11.6 C 89 % 9.85 C
1100 31-08-2004 01:51:01 11.5 C 89 % 9.75 C
Sensor: Nr:Datum:Temp:Feuchte:Taupunkt:
Aussen-T/F 1101 31-08-2004 02:03:01 11.5 C 88 % 9.58 C
1102 31-08-2004 02:15:01 11.5 C 88 % 9.58 C
1103 31-08-2004 02:27:01 11.4 C 87 % 9.32 C
1104 31-08-2004 02:39:00 11.4 C 87 % 9.32 C
1105 31-08-2004 02:52:03 11.3 C 87 % 9.22 C
1106 31-08-2004 03:04:03 11.4 C 86 % 9.14 C
1107 31-08-2004 03:16:03 11.3 C 87 % 9.22 C
1108 31-08-2004 03:28:03 11.1 C 88 % 9.19 C
1109 31-08-2004 03:40:01 11.3 C 88 % 9.39 C
1110 31-08-2004 03:52:01 11.6 C 87 % 9.51 C
1111 31-08-2004 04:04:01 11.9 C 84 % 9.29 C
1112 31-08-2004 04:16:01 12.2 C 82 % 9.22 C
1113 31-08-2004 04:28:01 12 C 82 % 9.03 C
1114 31-08-2004 04:40:00 11.6 C 85 % 9.17 C
1115 31-08-2004 04:52:02 11.4 C 86 % 9.14 C
1116 31-08-2004 05:04:02 11.2 C 87 % 9.12 C
1117 31-08-2004 05:16:01 11.3 C 87 % 9.22 C
1118 31-08-2004 05:28:01 11.2 C 87 % 9.12 C
1119 31-08-2004 05:40:01 11.4 C 87 % 9.32 C
1120 31-08-2004 05:52:01 11.4 C 86 % 9.14 C
1121 31-08-2004 06:04:01 11.4 C 85 % 8.97 C
1122 31-08-2004 06:16:00 11.5 C 85 % 9.07 C
1123 31-08-2004 06:28:00 11.5 C 84 % 8.89 C
1124 31-08-2004 06:40:00 11.6 C 83 % 8.81 C
1125 31-08-2004 06:52:01 11.6 C 83 % 8.81 C
Sensor: Nr:Datum:Temp:Feuchte:Taupunkt:
Aussen-T/F 1126 31-08-2004 07:04:02 11.5 C 83 % 8.72 C
1127 31-08-2004 07:16:01 11.4 C 83 % 8.62 C
1128 31-08-2004 07:28:01 11.6 C 83 % 8.81 C
1129 31-08-2004 07:40:01 11.8 C 82 % 8.83 C
1130 31-08-2004 07:52:01 12 C 80 % 8.66 C
1131 31-08-2004 08:04:01 12.3 C 79 % 8.77 C
1132 31-08-2004 08:16:01 12.4 C 80 % 9.05 C
1133 31-08-2004 08:28:01 12.5 C 79 % 8.96 C
1134 31-08-2004 08:40:00 12.5 C 79 % 8.96 C
1135 31-08-2004 08:52:01 12.5 C 79 % 8.96 C
1136 31-08-2004 09:04:02 12.8 C 79 % 9.25 C
1137 31-08-2004 09:16:01 12.9 C 79 % 9.35 C
1138 31-08-2004 09:28:01 13.1 C 78 % 9.36 C
1139 31-08-2004 09:40:01 13.9 C 76 % 9.74 C
1140 31-08-2004 09:52:01 14.4 C 73 % 9.63 C
1141 31-08-2004 10:04:01 14.7 C 73 % 9.92 C
1142 31-08-2004 10:16:01 14.5 C 73 % 9.72 C
1143 31-08-2004 10:28:01 15 C 72 % 10 C
1144 31-08-2004 10:40:00 15.2 C 70 % 9.77 C
1145 31-08-2004 10:52:01 15.5 C 70 % 10.06 C
1146 31-08-2004 11:04:01 15.6 C 69 % 9.94 C
1147 31-08-2004 11:16:00 16.2 C 67 % 10.07 C
1148 31-08-2004 11:28:00 16.6 C 66 % 10.23 C
1149 31-08-2004 11:40:00 16.9 C 64 % 10.05 C
1150 31-08-2004 11:52:02 16.9 C 61 % 9.34 C
Sensor: Nr:Datum:Temp:Feuchte:Taupunkt:
Aussen-T/F 1151 31-08-2004 12:04:02 16.9 C 59 % 8.84 C
1152 31-08-2004 12:16:01 17.1 C 57 % 8.52 C
1153 31-08-2004 12:28:01 17.2 C 56 % 8.35 C
1154 31-08-2004 12:40:01 16.8 C 63 % 9.72 C
1155 31-08-2004 12:52:01 17.1 C 59 % 9.03 C
1156 31-08-2004 13:04:01 17.7 C 59 % 9.59 C
1157 31-08-2004 13:16:00 18.3 C 53 % 8.56 C
1158 31-08-2004 13:28:00 17.8 C 57 % 9.18 C
1159 31-08-2004 13:40:00 17.7 C 60 % 9.84 C
1160 31-08-2004 13:52:02 17.7 C 55 % 8.55 C
1161 31-08-2004 14:04:02 17.4 C 53 % 7.73 C
1162 31-08-2004 14:16:01 17.5 C 56 % 8.63 C
1163 31-08-2004 14:28:01 18.5 C 51 % 8.18 C
1164 31-08-2004 14:40:01 18.9 C 54 % 9.4 C
1165 31-08-2004 14:52:01 19.7 C 49 % 8.7 C
1166 31-08-2004 15:04:01 19.5 C 47 % 7.9 C
1167 31-08-2004 15:16:00 19 C 48 % 7.75 C
1168 31-08-2004 15:28:00 18.8 C 58 % 10.37 C
1169 31-08-2004 15:40:00 18.8 C 59 % 10.63 C
1170 31-08-2004 15:52:01 18.1 C 60 % 10.22 C
1171 31-08-2004 16:04:01 18.6 C 51 % 8.27 C
1172 31-08-2004 16:16:01 19.2 C 48 % 7.93 C
1173 31-08-2004 16:28:01 19.1 C 48 % 7.84 C
1174 31-08-2004 16:40:01 18.8 C 54 % 9.3 C
1175 31-08-2004 16:52:01 18.7 C 49 % 7.78 C
Sensor: Nr:Datum:Temp:Feuchte:Taupunkt:
Aussen-T/F 1176 31-08-2004 17:04:01 18.9 C 51 % 8.55 C
1177 31-08-2004 17:16:00 19.3 C 52 % 9.21 C
1178 31-08-2004 17:28:00 19.6 C 51 % 9.2 C
1179 31-08-2004 17:40:00 19.1 C 49 % 8.15 C
1180 31-08-2004 17:52:01 19.4 C 48 % 8.12 C
1181 31-08-2004 18:04:02 19.2 C 46 % 7.31 C
1182 31-08-2004 18:16:01 18.9 C 45 % 6.72 C
1183 31-08-2004 18:28:01 19.4 C 47 % 7.81 C
1184 31-08-2004 18:40:01 19.1 C 51 % 8.73 C
1185 31-08-2004 18:52:01 18.4 C 52 % 8.38 C
1186 31-08-2004 19:04:01 18 C 50 % 7.43 C
1187 31-08-2004 19:16:00 17.4 C 52 % 7.45 C
1188 31-08-2004 19:28:00 17.2 C 54 % 7.82 C
1189 31-08-2004 19:40:00 16.4 C 58 % 8.12 C
1190 31-08-2004 19:52:01 16.3 C 59 % 8.28 C
1191 31-08-2004 20:04:01 16.1 C 56 % 7.33 C
1192 31-08-2004 20:16:01 15.9 C 58 % 7.66 C
1193 31-08-2004 20:28:01 15.8 C 61 % 8.3 C
1194 31-08-2004 20:40:01 15.8 C 60 % 8.06 C
1195 31-08-2004 20:52:02 15.7 C 61 % 8.21 C
1196 31-08-2004 21:04:02 15.8 C 60 % 8.06 C
1197 31-08-2004 21:16:03 15.7 C 61 % 8.21 C
1198 31-08-2004 21:28:03 15.6 C 64 % 8.82 C
1199 31-08-2004 21:40:02 15.3 C 66 % 8.99 C
1200 31-08-2004 21:52:02 15.1 C 67 % 9.02 C
Sensor: Nr:Datum:Temp:Feuchte:Taupunkt:
Aussen-T/F 1201 31-08-2004 22:04:01 14.9 C 67 % 8.83 C
1202 31-08-2004 22:16:02 14.8 C 69 % 9.17 C
1203 31-08-2004 22:28:02 14.7 C 70 % 9.29 C
1204 31-08-2004 22:40:02 14.5 C 72 % 9.52 C
1205 31-08-2004 22:52:01 14.2 C 73 % 9.43 C
1206 31-08-2004 23:04:01 13.8 C 74 % 9.25 C
1207 31-08-2004 23:16:01 13.5 C 74 % 8.96 C
1208 31-08-2004 23:28:01 13.3 C 74 % 8.77 C
1209 31-08-2004 23:40:00 13.1 C 77 % 9.16 C
1210 31-08-2004 23:52:01 13 C 77 % 9.07 C
1211 01-09-2004 00:04:01 12.7 C 78 % 8.97 C
1212 01-09-2004 00:16:01 12.6 C 78 % 8.87 C
1213 01-09-2004 00:28:01 12.3 C 78 % 8.58 C
1214 01-09-2004 00:40:01 12.1 C 78 % 8.38 C
1215 01-09-2004 00:52:01 11.9 C 81 % 8.75 C
1216 01-09-2004 01:04:01 11.7 C 81 % 8.55 C
1217 01-09-2004 01:16:01 11.5 C 81 % 8.36 C
1218 01-09-2004 01:28:01 11.1 C 81 % 7.97 C
1219 01-09-2004 01:40:01 11 C 82 % 8.05 C
1220 01-09-2004 01:52:01 11 C 83 % 8.23 C
1221 01-09-2004 02:04:02 10.8 C 84 % 8.21 C
1222 01-09-2004 02:16:02 10.8 C 85 % 8.38 C
1223 01-09-2004 02:28:02 10.5 C 86 % 8.26 C
1224 01-09-2004 02:40:01 10.2 C 86 % 7.97 C
1225 01-09-2004 02:53:02 10.2 C 86 % 7.97 C
Sensor: Nr:Datum:Temp:Feuchte:Taupunkt:
Aussen-T/F 1226 01-09-2004 03:05:02 10.1 C 87 % 8.04 C
1227 01-09-2004 03:17:02 10 C 87 % 7.94 C
1228 01-09-2004 03:29:02 9.8 C 88 % 7.91 C
1229 01-09-2004 03:41:02 9.7 C 89 % 7.98 C
1230 01-09-2004 03:53:02 9.8 C 89 % 8.08 C
1231 01-09-2004 04:05:02 9.8 C 90 % 8.24 C
1232 01-09-2004 04:17:01 9.8 C 90 % 8.24 C
1233 01-09-2004 04:29:01 10 C 89 % 8.27 C
1234 01-09-2004 04:41:01 10 C 89 % 8.27 C
1235 01-09-2004 04:53:01 10 C 89 % 8.27 C
1236 01-09-2004 05:05:01 9.8 C 90 % 8.24 C
1237 01-09-2004 05:17:00 9.9 C 90 % 8.34 C
1238 01-09-2004 05:29:00 10 C 89 % 8.27 C
1239 01-09-2004 05:41:00 10 C 89 % 8.27 C
1240 01-09-2004 05:53:02 10 C 89 % 8.27 C
1241 01-09-2004 06:05:02 10 C 89 % 8.27 C
1242 01-09-2004 06:17:01 10 C 90 % 8.44 C
1243 01-09-2004 06:29:01 9.8 C 91 % 8.4 C
1244 01-09-2004 06:41:01 9.8 C 91 % 8.4 C
1245 01-09-2004 06:53:01 9.8 C 92 % 8.56 C
1246 01-09-2004 07:05:01 9.9 C 92 % 8.66 C
1247 01-09-2004 07:17:00 9.9 C 92 % 8.66 C
1248 01-09-2004 07:29:00 9.8 C 91 % 8.4 C
1249 01-09-2004 07:41:01 10 C 90 % 8.44 C
1250 01-09-2004 07:53:01 10.3 C 91 % 8.9 C
Sensor: Nr:Datum:Temp:Feuchte:Taupunkt:
Aussen-T/F 1251 01-09-2004 08:05:02 10.6 C 91 % 9.19 C
1252 01-09-2004 08:17:01 11 C 91 % 9.59 C
1253 01-09-2004 08:29:01 11.3 C 90 % 9.72 C
1254 01-09-2004 08:41:01 11.7 C 89 % 9.95 C
1255 01-09-2004 08:53:01 12.1 C 87 % 10 C
1256 01-09-2004 09:05:01 12.2 C 83 % 9.4 C
1257 01-09-2004 09:17:00 12.6 C 82 % 9.61 C
1258 01-09-2004 09:29:00 13 C 79 % 9.45 C
1259 01-09-2004 09:41:00 13.5 C 78 % 9.74 C
1260 01-09-2004 09:53:01 13.2 C 77 % 9.26 C
1261 01-09-2004 10:05:01 13.2 C 78 % 9.45 C
1262 01-09-2004 10:17:01 13.6 C 79 % 10.03 C
1263 01-09-2004 10:29:01 14.8 C 77 % 10.81 C
1264 01-09-2004 10:41:01 15.4 C 74 % 10.79 C
1265 01-09-2004 10:53:02 15.4 C 74 % 10.79 C
1266 01-09-2004 11:05:02 16 C 73 % 11.17 C
1267 01-09-2004 11:17:01 16.2 C 71 % 10.94 C
1268 01-09-2004 11:29:01 17 C 68 % 11.06 C
1269 01-09-2004 11:41:01 17.7 C 64 % 10.81 C
1270 01-09-2004 11:53:01 17.8 C 62 % 10.43 C
1271 01-09-2004 12:05:01 18.6 C 59 % 10.44 C
1272 01-09-2004 12:17:56 19.1 C 57 % 10.39 C
1273 01-09-2004 12:29:56 19.3 C 51 % 8.92 C
1274 01-09-2004 12:41:56 19.9 C 47 % 8.26 C
1275 01-09-2004 12:53:56 20.8 C 43 % 7.77 C
Sensor: Nr:Datum:Temp:Feuchte:Taupunkt:
Aussen-T/F 1276 01-09-2004 13:05:56 20.8 C 44 % 8.11 C
1277 01-09-2004 13:17:56 21.2 C 50 % 10.37 C
1278 01-09-2004 13:29:56 21.2 C 50 % 10.37 C
1279 01-09-2004 13:41:57 21 C 52 % 10.78 C
1280 01-09-2004 13:53:57 21.2 C 53 % 11.25 C
1281 01-09-2004 14:05:57 22.2 C 43 % 9.04 C
1282 01-09-2004 14:17:57 22 C 41 % 8.15 C
1283 01-09-2004 14:29:57 22.9 C 40 % 8.59 C
1284 01-09-2004 14:41:57 22.7 C 43 % 9.49 C
1285 01-09-2004 14:53:57 22.5 C 43 % 9.31 C
1286 01-09-2004 15:05:57 22.8 C 40 % 8.5 C
1287 01-09-2004 15:17:57 23.5 C 38 % 8.37 C
1288 01-09-2004 15:29:57 23.9 C 39 % 9.11 C
1289 01-09-2004 15:41:57 24.6 C 36 % 8.55 C
1290 01-09-2004 15:53:57 25.7 C 31 % 7.31 C
1291 01-09-2004 16:05:57 25.3 C 31 % 6.97 C
1292 01-09-2004 16:17:57 25.4 C 31 % 7.05 C
1293 01-09-2004 16:29:57 26 C 33 % 8.49 C
1294 01-09-2004 16:41:57 26.4 C 30 % 7.44 C
1295 01-09-2004 16:53:57 26.7 C 29 % 7.2 C
1296 01-09-2004 17:05:57 25.9 C 28 % 6.01 C
1297 01-09-2004 17:17:57 25.9 C 34 % 8.85 C
1298 01-09-2004 17:29:57 26 C 28 % 6.09 C
1299 01-09-2004 17:41:57 26.5 C 31 % 8.01 C
1300 01-09-2004 17:53:01 26.3 C 29 % 6.86 C
Sensor: Nr:Datum:Temp:Feuchte:Taupunkt:
Aussen-T/F 1301 01-09-2004 18:05:01 26.4 C 28 % 6.43 C
1302 01-09-2004 18:17:01 26 C 32 % 8.04 C
1303 01-09-2004 18:29:01 26.2 C 35 % 9.54 C
1304 01-09-2004 18:41:01 24.5 C 40 % 10.02 C
1305 01-09-2004 18:53:01 22.3 C 46 % 10.13 C
1306 01-09-2004 19:05:00 20.4 C 50 % 9.64 C
1307 01-09-2004 19:17:00 19.5 C 54 % 9.95 C
1308 01-09-2004 19:29:00 19.3 C 54 % 9.77 C
1309 01-09-2004 19:41:00 18.9 C 56 % 9.94 C
1310 01-09-2004 19:53:00 18.4 C 56 % 9.47 C
1311 01-09-2004 20:05:01 17.7 C 57 % 9.08 C
1312 01-09-2004 20:17:01 17 C 58 % 8.69 C
1313 01-09-2004 20:29:01 16.3 C 60 % 8.53 C
1314 01-09-2004 20:41:01 15.8 C 62 % 8.54 C
1315 01-09-2004 20:53:01 15.6 C 62 % 8.35 C
1316 01-09-2004 21:05:01 15.4 C 64 % 8.63 C
1317 01-09-2004 21:17:01 15.2 C 65 % 8.67 C
1318 01-09-2004 21:29:01 15.2 C 65 % 8.67 C
1319 01-09-2004 21:41:00 14.9 C 67 % 8.83 C
1320 01-09-2004 21:53:00 14.7 C 67 % 8.64 C
1321 01-09-2004 22:05:00 14.5 C 66 % 8.23 C
1322 01-09-2004 22:17:00 14.3 C 68 % 8.48 C
1323 01-09-2004 22:29:00 14.2 C 69 % 8.6 C
1324 01-09-2004 22:41:00 14 C 68 % 8.19 C
1325 01-09-2004 22:53:00 13.8 C 70 % 8.43 C
Sensor: Nr:Datum:Temp:Feuchte:Taupunkt:
Aussen-T/F 1326 01-09-2004 23:05:00 13.6 C 72 % 8.65 C
1327 01-09-2004 23:17:00 13.4 C 72 % 8.46 C
1328 01-09-2004 23:29:00 13.3 C 75 % 8.97 C
1329 01-09-2004 23:41:00 13.2 C 76 % 9.07 C
1330 01-09-2004 23:53:00 13 C 76 % 8.87 C
1331 02-09-2004 00:05:01 12.7 C 76 % 8.58 C
1332 02-09-2004 00:17:01 12.5 C 76 % 8.39 C
1333 02-09-2004 00:29:01 12.4 C 77 % 8.49 C
1334 02-09-2004 00:41:00 12.2 C 78 % 8.48 C
1335 02-09-2004 00:53:00 12.1 C 78 % 8.38 C
1336 02-09-2004 01:05:00 12 C 80 % 8.66 C
1337 02-09-2004 01:17:00 11.9 C 81 % 8.75 C
1338 02-09-2004 01:29:00 11.7 C 82 % 8.73 C
1339 02-09-2004 01:41:00 11.7 C 82 % 8.73 C
1340 02-09-2004 01:53:00 11.5 C 83 % 8.72 C
1341 02-09-2004 02:05:00 11.4 C 83 % 8.62 C
1342 02-09-2004 02:17:59 11.2 C 83 % 8.42 C
1343 02-09-2004 02:29:59 11 C 83 % 8.23 C
1344 02-09-2004 02:40:59 10.7 C 84 % 8.11 C
1345 02-09-2004 02:54:01 10.5 C 84 % 7.91 C
1346 02-09-2004 03:06:01 10.3 C 85 % 7.89 C
1347 02-09-2004 03:18:01 10.2 C 85 % 7.79 C
1348 02-09-2004 03:30:01 10.1 C 86 % 7.87 C
1349 02-09-2004 03:42:01 10 C 86 % 7.77 C
1350 02-09-2004 03:54:01 9.8 C 87 % 7.74 C
Sensor: Nr:Datum:Temp:Feuchte:Taupunkt:
Aussen-T/F 1351 02-09-2004 04:06:01 9.7 C 88 % 7.81 C
1352 02-09-2004 04:18:01 9.5 C 88 % 7.61 C
1353 02-09-2004 04:30:01 9.5 C 88 % 7.61 C
1354 02-09-2004 04:42:01 9.4 C 88 % 7.52 C
1355 02-09-2004 04:54:02 9.2 C 88 % 7.32 C
1356 02-09-2004 05:06:01 9.2 C 88 % 7.32 C
1357 02-09-2004 05:18:01 9.1 C 89 % 7.39 C
1358 02-09-2004 05:30:01 9.1 C 89 % 7.39 C
1359 02-09-2004 05:42:01 9.3 C 89 % 7.58 C
1360 02-09-2004 05:54:01 9.5 C 90 % 7.94 C
1361 02-09-2004 06:06:01 9.6 C 90 % 8.04 C
1362 02-09-2004 06:18:01 9.7 C 90 % 8.14 C
1363 02-09-2004 06:30:01 9.6 C 90 % 8.04 C
1364 02-09-2004 06:42:01 9.6 C 90 % 8.04 C
1365 02-09-2004 06:54:01 9.6 C 89 % 7.88 C
1366 02-09-2004 07:06:02 9.8 C 89 % 8.08 C
1367 02-09-2004 07:18:01 10 C 88 % 8.11 C
1368 02-09-2004 07:30:01 10.2 C 88 % 8.3 C
1369 02-09-2004 07:42:01 10.4 C 87 % 8.33 C
1370 02-09-2004 07:54:00 10.5 C 86 % 8.26 C
1371 02-09-2004 08:06:00 10.4 C 84 % 7.82 C
1372 02-09-2004 08:18:00 10.7 C 84 % 8.11 C
1373 02-09-2004 08:30:00 10.7 C 84 % 8.11 C
1374 02-09-2004 08:42:01 10.7 C 84 % 8.11 C
1375 02-09-2004 08:54:01 10.7 C 84 % 8.11 C
Sensor: Nr:Datum:Temp:Feuchte:Taupunkt:
Aussen-T/F 1376 02-09-2004 09:06:02 10.7 C 85 % 8.28 C
1377 02-09-2004 09:18:01 10.9 C 86 % 8.65 C
1378 02-09-2004 09:30:01 11.2 C 86 % 8.95 C
1379 02-09-2004 09:42:01 11.7 C 86 % 9.44 C
1380 02-09-2004 09:54:01 12.2 C 84 % 9.58 C
1381 02-09-2004 10:06:01 12.7 C 83 % 9.89 C
1382 02-09-2004 10:18:01 13.3 C 82 % 10.3 C
1383 02-09-2004 10:30:01 14 C 80 % 10.61 C
1384 02-09-2004 10:42:00 14.5 C 78 % 10.71 C
1385 02-09-2004 10:54:00 15.1 C 75 % 10.71 C
1386 02-09-2004 11:06:00 15.6 C 74 % 10.99 C
1387 02-09-2004 11:18:00 16.2 C 73 % 11.36 C
1388 02-09-2004 11:30:00 17 C 69 % 11.28 C
1389 02-09-2004 11:42:00 17.7 C 60 % 9.84 C
1390 02-09-2004 11:54:00 18.7 C 58 % 10.28 C
1391 02-09-2004 12:06:00 19.3 C 55 % 10.04 C
1392 02-09-2004 12:18:00 19.8 C 50 % 9.09 C
1393 02-09-2004 12:30:00 20.4 C 51 % 9.93 C
1394 02-09-2004 12:42:01 20.8 C 49 % 9.7 C
1395 02-09-2004 12:54:01 21.1 C 48 % 9.67 C
1396 02-09-2004 13:06:01 21.6 C 48 % 10.13 C
1397 02-09-2004 13:18:00 22.1 C 47 % 10.27 C
1398 02-09-2004 13:30:00 22.6 C 46 % 10.4 C
1399 02-09-2004 13:42:00 23.1 C 45 % 10.53 C
1400 02-09-2004 13:54:00 23.7 C 42 % 10.03 C
Sensor: Nr:Datum:Temp:Feuchte:Taupunkt:
Aussen-T/F 1401 02-09-2004 14:06:00 24.1 C 42 % 10.39 C
1402 02-09-2004 14:18:00 24.9 C 41 % 10.75 C
1403 02-09-2004 14:30:00 25.6 C 38 % 10.23 C
1404 02-09-2004 14:42:00 26.5 C 41 % 12.18 C
1405 02-09-2004 14:54:00 26.8 C 35 % 10.06 C
1406 02-09-2004 15:06:00 27.1 C 31 % 8.52 C
1407 02-09-2004 15:18:00 27.4 C 30 % 8.3 C
1408 02-09-2004 15:30:00 27.5 C 31 % 8.87 C
1409 02-09-2004 15:42:00 27.9 C 31 % 9.22 C
1410 02-09-2004 15:54:00 27.4 C 26 % 6.21 C
1411 02-09-2004 16:06:59 27.7 C 27 % 7.01 C
1412 02-09-2004 16:29:59 27.4 C 26 % 6.21 C
1413 02-09-2004 16:30:00 27.4 C 30 % 8.3 C
1414 02-09-2004 16:42:00 27.5 C 28 % 7.37 C
1415 02-09-2004 16:54:00 28.1 C 29 % 8.4 C
1416 02-09-2004 17:06:00 28.2 C 28 % 7.97 C
1417 02-09-2004 17:18:00 28.9 C 30 % 9.59 C
1418 02-09-2004 17:30:00 29.3 C 33 % 11.37 C
1419 02-09-2004 17:42:00 29.3 C 34 % 11.82 C
1420 02-09-2004 17:54:00 29.3 C 31 % 10.43 C
1421 02-09-2004 18:06:00 29.1 C 34 % 11.64 C
1422 02-09-2004 18:18:00 28.6 C 36 % 12.07 C
1423 02-09-2004 18:30:00 28.2 C 37 % 12.13 C
1424 02-09-2004 18:42:00 27.4 C 39 % 12.22 C
1425 02-09-2004 18:54:59 26.9 C 41 % 12.54 C
Sensor: Nr:Datum:Temp:Feuchte:Taupunkt:
Aussen-T/F 1426 02-09-2004 19:06:59 25.9 C 42 % 12.01 C
1427 02-09-2004 19:18:59 25.3 C 44 % 12.18 C
1428 02-09-2004 19:30:59 24.5 C 45 % 11.79 C
1429 02-09-2004 19:42:59 23.7 C 47 % 11.73 C
1430 02-09-2004 19:54:59 22 C 52 % 11.7 C
1431 02-09-2004 20:05:59 21 C 54 % 11.34 C
1432 02-09-2004 20:30:00 19.8 C 59 % 11.56 C
1433 02-09-2004 20:42:00 19.5 C 60 % 11.53 C
1434 02-09-2004 20:54:00 19.1 C 62 % 11.65 C
1435 02-09-2004 21:06:00 18.8 C 63 % 11.61 C
1436 02-09-2004 21:18:59 18.6 C 64 % 11.66 C
1437 02-09-2004 21:30:59 18.4 C 66 % 11.94 C
1438 02-09-2004 21:42:59 18.3 C 66 % 11.84 C
1439 02-09-2004 21:54:59 18 C 67 % 11.79 C
1440 02-09-2004 22:05:59 17.9 C 68 % 11.91 C
1441 02-09-2004 22:18:00 17.7 C 69 % 11.95 C
1442 02-09-2004 22:30:00 17.4 C 70 % 11.88 C
1443 02-09-2004 22:42:00 17.2 C 71 % 11.9 C
1444 02-09-2004 22:54:59 17.1 C 72 % 12.02 C
1445 02-09-2004 23:06:59 16.9 C 73 % 12.03 C
1446 02-09-2004 23:18:59 16.6 C 74 % 11.95 C
1447 02-09-2004 23:30:59 16.4 C 75 % 11.96 C
1448 02-09-2004 23:42:59 16.3 C 75 % 11.86 C
1449 02-09-2004 23:54:59 16 C 76 % 11.77 C
1450 03-09-2004 00:06:59 15.9 C 78 % 12.07 C
Sensor: Nr:Datum:Temp:Feuchte:Taupunkt:
Aussen-T/F 1451 03-09-2004 00:30:00 15.6 C 79 % 11.97 C
1452 03-09-2004 00:30:59 15.4 C 80 % 11.97 C
1453 03-09-2004 00:42:59 15.4 C 81 % 12.16 C
1454 03-09-2004 00:54:59 15.1 C 81 % 11.87 C
1455 03-09-2004 01:06:59 15.1 C 81 % 11.87 C
1456 03-09-2004 01:18:59 14.9 C 82 % 11.86 C
1457 03-09-2004 01:30:59 14.9 C 82 % 11.86 C
1458 03-09-2004 01:42:59 14.7 C 83 % 11.85 C
1459 03-09-2004 01:54:59 14.5 C 83 % 11.65 C
1460 03-09-2004 02:06:58 14.4 C 83 % 11.55 C
1461 03-09-2004 02:18:58 14.3 C 83 % 11.45 C
1462 03-09-2004 02:30:58 14.2 C 84 % 11.54 C
1463 03-09-2004 02:42:58 14 C 83 % 11.16 C
1464 03-09-2004 02:55:00 14 C 84 % 11.34 C
1465 03-09-2004 03:07:00 13.9 C 84 % 11.24 C
1466 03-09-2004 03:19:00 13.9 C 85 % 11.42 C
1467 03-09-2004 03:31:00 13.7 C 84 % 11.05 C
1468 03-09-2004 03:43:00 13.6 C 85 % 11.13 C
1469 03-09-2004 03:55:00 13.5 C 85 % 11.03 C
1470 03-09-2004 04:07:00 13.4 C 85 % 10.93 C
1471 03-09-2004 04:19:00 13.4 C 86 % 11.11 C
1472 03-09-2004 04:31:00 13.2 C 85 % 10.74 C
1473 03-09-2004 04:43:00 13.1 C 85 % 10.64 C
1474 03-09-2004 04:55:00 13.2 C 86 % 10.91 C
1475 03-09-2004 05:07:00 13 C 86 % 10.72 C
Sensor: Nr:Datum:Temp:Feuchte:Taupunkt:
Aussen-T/F 1476 03-09-2004 05:19:00 12.9 C 87 % 10.79 C
1477 03-09-2004 05:31:00 12.8 C 87 % 10.69 C
1478 03-09-2004 05:43:00 12.7 C 87 % 10.59 C
1479 03-09-2004 05:55:00 12.7 C 87 % 10.59 C
1480 03-09-2004 06:07:00 12.8 C 88 % 10.86 C
1481 03-09-2004 06:19:00 12.7 C 87 % 10.59 C
1482 03-09-2004 06:31:00 12.7 C 88 % 10.77 C
1483 03-09-2004 06:43:01 13 C 87 % 10.89 C
1484 03-09-2004 06:55:00 13 C 86 % 10.72 C
1485 03-09-2004 07:07:00 13 C 85 % 10.54 C
1486 03-09-2004 07:19:00 13 C 85 % 10.54 C
1487 03-09-2004 07:31:59 12.9 C 86 % 10.62 C
1488 03-09-2004 07:43:59 13.1 C 86 % 10.81 C
1489 03-09-2004 07:55:59 13.3 C 86 % 11.01 C
1490 03-09-2004 08:07:59 13.5 C 85 % 11.03 C
1491 03-09-2004 08:18:59 13.8 C 85 % 11.32 C
1492 03-09-2004 08:31:00 13.8 C 84 % 11.15 C
1493 03-09-2004 08:43:00 14.1 C 84 % 11.44 C
1494 03-09-2004 08:55:00 14.8 C 84 % 12.12 C
1495 03-09-2004 09:07:00 15.4 C 80 % 11.97 C
1496 03-09-2004 09:19:00 15.2 C 79 % 11.59 C
1497 03-09-2004 09:31:00 15.7 C 79 % 12.07 C
1498 03-09-2004 09:43:00 15.7 C 77 % 11.68 C
1499 03-09-2004 09:55:00 15.7 C 79 % 12.07 C
1500 03-09-2004 10:07:00 16.3 C 75 % 11.86 C
Sensor: Nr:Datum:Temp:Feuchte:Taupunkt:
Aussen-T/F 1501 03-09-2004 10:19:59 17.3 C 74 % 12.62 C
1502 03-09-2004 10:31:59 18.2 C 68 % 12.2 C
1503 03-09-2004 10:43:59 19.1 C 66 % 12.6 C
1504 03-09-2004 10:55:59 19.7 C 66 % 13.17 C
1505 03-09-2004 11:07:59 19.7 C 64 % 12.7 C
1506 03-09-2004 11:19:59 20 C 67 % 13.69 C
1507 03-09-2004 11:31:59 20.6 C 65 % 13.79 C
1508 03-09-2004 11:43:59 21.1 C 65 % 14.27 C
1509 03-09-2004 11:55:59 21.5 C 64 % 14.41 C
1510 03-09-2004 12:07:59 22 C 64 % 14.88 C
1511 03-09-2004 12:19:00 22.7 C 63 % 15.3 C
1512 03-09-2004 12:31:00 22.9 C 61 % 14.98 C
1513 03-09-2004 12:43:00 23.1 C 61 % 15.17 C
1514 03-09-2004 12:55:00 23.4 C 63 % 15.96 C
1515 03-09-2004 13:07:59 23.8 C 61 % 15.83 C
1516 03-09-2004 13:19:59 24.3 C 60 % 16.04 C
1517 03-09-2004 13:31:59 24.9 C 58 % 16.07 C
1518 03-09-2004 13:43:59 25.5 C 50 % 14.32 C
1519 03-09-2004 13:55:59 26.1 C 46 % 13.58 C
1520 03-09-2004 14:07:59 26.5 C 48 % 14.6 C
1521 03-09-2004 14:19:59 26.9 C 44 % 13.62 C
1522 03-09-2004 14:31:59 27.6 C 40 % 12.79 C
1523 03-09-2004 14:43:59 28.3 C 40 % 13.41 C
1524 03-09-2004 14:55:59 28.6 C 40 % 13.68 C
1525 03-09-2004 15:07:59 29.1 C 38 % 13.34 C
Sensor: Nr:Datum:Temp:Feuchte:Taupunkt:
Aussen-T/F 1526 03-09-2004 15:19:59 29.6 C 38 % 13.78 C
1527 03-09-2004 15:31:59 30 C 40 % 14.93 C
1528 03-09-2004 15:43:59 30.2 C 39 % 14.71 C
1529 03-09-2004 15:55:59 30.6 C 32 % 12.03 C
1530 03-09-2004 16:07:58 30.6 C 34 % 12.95 C
1531 03-09-2004 16:19:59 30.7 C 38 % 14.75 C
1532 03-09-2004 16:31:59 30.4 C 40 % 15.28 C
1533 03-09-2004 16:43:59 30.4 C 39 % 14.89 C
1534 03-09-2004 16:55:59 28.9 C 45 % 15.77 C
1535 03-09-2004 17:07:59 27.6 C 49 % 15.92 C
1536 03-09-2004 17:19:59 27.5 C 48 % 15.51 C
1537 03-09-2004 17:31:59 28.6 C 46 % 15.85 C
1538 03-09-2004 17:43:59 29.3 C 44 % 15.78 C
1539 03-09-2004 17:55:59 29.5 C 43 % 15.6 C
1540 03-09-2004 18:07:59 29.4 C 43 % 15.51 C
1541 03-09-2004 18:19:58 28.9 C 46 % 16.12 C
1542 03-09-2004 18:31:58 28.6 C 45 % 15.5 C
1543 03-09-2004 18:43:58 28.5 C 43 % 14.71 C
1544 03-09-2004 18:55:58 28.6 C 45 % 15.5 C
1545 03-09-2004 19:07:58 28.3 C 43 % 14.53 C
1546 03-09-2004 19:19:58 27.5 C 48 % 15.51 C
1547 03-09-2004 19:31:58 26.6 C 50 % 15.32 C
1548 03-09-2004 19:43:58 25.6 C 55 % 15.89 C
1549 03-09-2004 19:55:59 24 C 59 % 15.5 C
1550 03-09-2004 20:07:59 23.5 C 62 % 15.8 C
Sensor: Nr:Datum:Temp:Feuchte:Taupunkt:
Aussen-T/F 1551 03-09-2004 20:19:59 23.1 C 61 % 15.17 C
1552 03-09-2004 20:31:59 22.7 C 63 % 15.3 C
1553 03-09-2004 20:43:59 22.1 C 64 % 14.97 C
1554 03-09-2004 20:55:59 21.9 C 67 % 15.5 C
1555 03-09-2004 21:07:58 21.5 C 68 % 15.35 C
1556 03-09-2004 21:19:58 21.3 C 68 % 15.16 C
1557 03-09-2004 21:31:58 21.1 C 69 % 15.19 C
1558 03-09-2004 21:43:58 21.1 C 68 % 14.97 C
1559 03-09-2004 21:55:58 20.8 C 69 % 14.91 C
1560 03-09-2004 22:07:58 20.7 C 71 % 15.25 C
1561 03-09-2004 22:19:58 20.3 C 71 % 14.87 C
1562 03-09-2004 22:31:58 20 C 72 % 14.8 C
1563 03-09-2004 22:43:58 20 C 73 % 15.01 C
1564 03-09-2004 22:55:58 19.7 C 74 % 14.94 C
1565 03-09-2004 23:07:58 19.6 C 75 % 15.05 C
1566 03-09-2004 23:19:58 19.4 C 75 % 14.86 C
1567 03-09-2004 23:31:58 19.1 C 76 % 14.77 C
1568 03-09-2004 23:43:58 18.9 C 78 % 14.98 C
1569 03-09-2004 23:55:57 18.8 C 78 % 14.88 C
1570 04-09-2004 00:07:58 18.6 C 79 % 14.89 C
1571 04-09-2004 00:19:58 18.3 C 79 % 14.6 C
1572 04-09-2004 00:31:57 18.2 C 80 % 14.69 C
1573 04-09-2004 00:43:57 18.1 C 80 % 14.6 C
1574 04-09-2004 00:55:58 18 C 81 % 14.69 C
1575 04-09-2004 01:07:58 17.8 C 83 % 14.88 C
Sensor: Nr:Datum:Temp:Feuchte:Taupunkt:
Aussen-T/F 1576 04-09-2004 01:19:58 17.7 C 83 % 14.78 C
1577 04-09-2004 01:31:58 17.5 C 83 % 14.58 C
1578 04-09-2004 01:43:58 17.5 C 83 % 14.58 C
1579 04-09-2004 01:55:58 17.2 C 84 % 14.47 C
1580 04-09-2004 02:07:58 17.1 C 84 % 14.38 C
1581 04-09-2004 02:19:58 16.9 C 85 % 14.36 C
1582 04-09-2004 02:31:58 16.8 C 85 % 14.26 C
1583 04-09-2004 02:43:58 16.5 C 86 % 14.15 C
1584 04-09-2004 02:56:00 16.5 C 86 % 14.15 C
1585 04-09-2004 03:08:00 16.4 C 86 % 14.05 C
1586 04-09-2004 03:20:59 16.3 C 86 % 13.95 C
1587 04-09-2004 03:32:59 16.2 C 86 % 13.86 C
1588 04-09-2004 03:44:59 16 C 86 % 13.66 C
1589 04-09-2004 03:56:59 16 C 86 % 13.66 C
1590 04-09-2004 04:08:59 15.9 C 87 % 13.74 C
1591 04-09-2004 04:20:59 15.8 C 87 % 13.64 C
1592 04-09-2004 04:32:59 15.6 C 86 % 13.27 C
1593 04-09-2004 04:44:59 15.6 C 87 % 13.45 C
1594 04-09-2004 04:57:00 15.4 C 87 % 13.25 C
1595 04-09-2004 05:08:59 15.2 C 87 % 13.05 C
1596 04-09-2004 05:20:59 15.2 C 87 % 13.05 C
1597 04-09-2004 05:32:59 15.2 C 87 % 13.05 C
1598 04-09-2004 05:44:58 15 C 88 % 13.03 C
1599 04-09-2004 05:56:58 14.9 C 88 % 12.93 C
1600 04-09-2004 06:08:58 14.7 C 89 % 12.91 C
Sensor: Nr:Datum:Temp:Feuchte:Taupunkt:
Aussen-T/F 1601 04-09-2004 06:20:58 14.6 C 89 % 12.81 C
1602 04-09-2004 06:32:59 14.7 C 89 % 12.91 C
1603 04-09-2004 06:44:59 14.5 C 89 % 12.71 C
1604 04-09-2004 06:56:59 14.2 C 90 % 12.58 C
1605 04-09-2004 07:08:59 14.3 C 90 % 12.68 C
1606 04-09-2004 07:20:59 14.3 C 90 % 12.68 C
1607 04-09-2004 07:32:59 14.2 C 91 % 12.75 C
1608 04-09-2004 07:44:59 14.5 C 91 % 13.05 C
1609 04-09-2004 07:56:59 14.6 C 90 % 12.98 C
1610 04-09-2004 08:08:59 15 C 89 % 13.2 C
1611 04-09-2004 08:20:59 14.9 C 88 % 12.93 C
1612 04-09-2004 08:32:58 15.4 C 87 % 13.25 C
1613 04-09-2004 08:43:59 15.5 C 85 % 12.99 C
1614 04-09-2004 08:55:59 15.4 C 84 % 12.71 C
1615 04-09-2004 09:08:58 15.6 C 84 % 12.91 C
1616 04-09-2004 09:20:58 16 C 83 % 13.12 C
1617 04-09-2004 09:32:58 16.4 C 82 % 13.32 C
1618 04-09-2004 09:44:58 16.7 C 80 % 13.23 C
1619 04-09-2004 09:56:58 17.2 C 79 % 13.53 C
1620 04-09-2004 10:08:58 17 C 79 % 13.33 C
1621 04-09-2004 10:20:59 17.3 C 80 % 13.82 C
1622 04-09-2004 10:32:59 17.8 C 79 % 14.11 C
1623 04-09-2004 10:44:59 18.2 C 78 % 14.3 C
1624 04-09-2004 10:56:59 18.7 C 77 % 14.59 C
1625 04-09-2004 11:08:59 19.2 C 75 % 14.66 C
Sensor: Nr:Datum:Temp:Feuchte:Taupunkt:
Aussen-T/F 1626 04-09-2004 11:20:59 19.8 C 73 % 14.82 C
1627 04-09-2004 11:32:00 20.5 C 71 % 15.06 C
1628 04-09-2004 11:44:00 21.3 C 65 % 14.46 C
1629 04-09-2004 11:56:58 21.9 C 68 % 15.73 C
1630 04-09-2004 12:08:58 22.6 C 64 % 15.45 C
1631 04-09-2004 12:20:58 23.2 C 63 % 15.77 C
1632 04-09-2004 12:32:58 23.6 C 63 % 16.14 C
1633 04-09-2004 12:44:58 24 C 60 % 15.76 C
1634 04-09-2004 12:56:58 24.6 C 62 % 16.84 C
1635 04-09-2004 13:08:58 24.8 C 57 % 15.7 C
1636 04-09-2004 13:20:58 25.4 C 56 % 15.99 C
1637 04-09-2004 13:32:58 25.8 C 52 % 15.2 C
1638 04-09-2004 13:44:58 26 C 50 % 14.77 C
1639 04-09-2004 13:56:58 26.6 C 51 % 15.63 C
1640 04-09-2004 14:08:58 27.2 C 48 % 15.24 C
1641 04-09-2004 14:20:58 27.8 C 51 % 16.73 C
1642 04-09-2004 14:32:58 28.2 C 46 % 15.48 C
1643 04-09-2004 14:44:58 28.6 C 45 % 15.5 C
1644 04-09-2004 14:56:58 29.4 C 45 % 16.23 C
1645 04-09-2004 15:08:58 29.4 C 42 % 15.15 C
1646 04-09-2004 15:20:58 30 C 40 % 14.93 C
1647 04-09-2004 15:32:58 30.1 C 39 % 14.62 C
1648 04-09-2004 15:44:58 30.2 C 39 % 14.71 C
1649 04-09-2004 15:56:58 30.6 C 35 % 13.39 C
1650 04-09-2004 16:08:57 30.6 C 34 % 12.95 C
Sensor: Nr:Datum:Temp:Feuchte:Taupunkt:
Aussen-T/F 1651 04-09-2004 16:20:57 30.6 C 34 % 12.95 C
1652 04-09-2004 16:32:57 30.7 C 36 % 13.92 C
1653 04-09-2004 16:44:57 30.7 C 33 % 12.58 C
1654 04-09-2004 16:56:57 30.8 C 32 % 12.2 C
1655 04-09-2004 17:08:58 31 C 36 % 14.18 C
1656 04-09-2004 17:20:58 31.2 C 35 % 13.92 C
1657 04-09-2004 17:32:58 30.9 C 32 % 12.29 C
1658 04-09-2004 17:44:58 30.9 C 34 % 13.21 C
1659 04-09-2004 17:56:58 30 C 32 % 11.51 C
1660 04-09-2004 18:08:58 30.1 C 35 % 12.96 C
1661 04-09-2004 18:20:58 30.2 C 35 % 13.04 C
1662 04-09-2004 18:32:58 30 C 37 % 13.72 C
1663 04-09-2004 18:44:57 29.8 C 39 % 14.36 C
1664 04-09-2004 18:56:57 29 C 40 % 14.03 C
1665 04-09-2004 19:08:57 27.6 C 45 % 14.6 C
1666 04-09-2004 19:20:57 26.9 C 48 % 14.96 C
1667 04-09-2004 19:32:57 25.7 C 52 % 15.11 C
1668 04-09-2004 19:44:57 24.8 C 55 % 15.15 C
1669 04-09-2004 19:56:57 24.1 C 56 % 14.78 C
1670 04-09-2004 20:08:57 23.3 C 57 % 14.31 C
1671 04-09-2004 20:20:57 23.1 C 59 % 14.65 C
1672 04-09-2004 20:32:57 22.6 C 61 % 14.7 C
1673 04-09-2004 20:44:58 22.2 C 62 % 14.58 C
1674 04-09-2004 20:56:58 22 C 64 % 14.88 C
1675 04-09-2004 21:08:58 22.1 C 64 % 14.97 C
Sensor: Nr:Datum:Temp:Feuchte:Taupunkt:
Aussen-T/F 1676 04-09-2004 21:20:58 21.7 C 67 % 15.31 C
1677 04-09-2004 21:32:57 21.7 C 68 % 15.54 C
1678 04-09-2004 21:44:57 21.4 C 69 % 15.48 C
1679 04-09-2004 21:56:57 21.3 C 70 % 15.61 C
1680 04-09-2004 22:08:57 20.9 C 71 % 15.45 C
1681 04-09-2004 22:20:57 20.8 C 72 % 15.57 C
1682 04-09-2004 22:32:57 20.6 C 73 % 15.59 C
1683 04-09-2004 22:44:57 20.4 C 73 % 15.4 C
1684 04-09-2004 22:56:57 20.3 C 74 % 15.51 C
1685 04-09-2004 23:08:57 20 C 75 % 15.43 C
1686 04-09-2004 23:20:57 19.8 C 77 % 15.65 C
1687 04-09-2004 23:32:57 19.7 C 77 % 15.56 C
1688 04-09-2004 23:44:57 19.4 C 77 % 15.27 C
1689 04-09-2004 23:56:57 19.3 C 78 % 15.37 C
1690 05-09-2004 00:08:57 19.1 C 79 % 15.37 C
1691 05-09-2004 00:20:58 18.9 C 80 % 15.38 C
1692 05-09-2004 00:32:57 18.8 C 81 % 15.47 C
1693 05-09-2004 00:44:57 18.6 C 81 % 15.28 C
1694 05-09-2004 00:56:57 18.5 C 81 % 15.18 C
1695 05-09-2004 01:08:57 18.3 C 81 % 14.98 C
1696 05-09-2004 01:20:56 18.2 C 81 % 14.89 C
1697 05-09-2004 01:32:56 18.1 C 81 % 14.79 C
1698 05-09-2004 01:44:56 17.9 C 83 % 14.97 C
1699 05-09-2004 01:56:56 17.7 C 83 % 14.78 C
1700 05-09-2004 02:08:56 17.6 C 83 % 14.68 C
Sensor: Nr:Datum:Temp:Feuchte:Taupunkt:
Aussen-T/F 1701 05-09-2004 02:20:57 17.5 C 83 % 14.58 C
1702 05-09-2004 02:32:57 17.3 C 83 % 14.39 C
1703 05-09-2004 02:45:58 17.2 C 84 % 14.47 C
1704 05-09-2004 02:57:58 17.1 C 83 % 14.19 C
1705 05-09-2004 03:09:58 17 C 84 % 14.28 C
1706 05-09-2004 03:21:58 16.7 C 86 % 14.35 C
1707 05-09-2004 03:33:58 16.6 C 86 % 14.25 C
1708 05-09-2004 03:45:58 16.6 C 85 % 14.07 C
1709 05-09-2004 03:57:58 16.5 C 86 % 14.15 C
1710 05-09-2004 04:09:58 16.4 C 86 % 14.05 C
1711 05-09-2004 04:21:58 16.4 C 86 % 14.05 C
1712 05-09-2004 04:33:58 16.2 C 86 % 13.86 C
1713 05-09-2004 04:45:58 16 C 86 % 13.66 C
1714 05-09-2004 04:57:58 15.9 C 87 % 13.74 C
1715 05-09-2004 05:09:58 15.8 C 88 % 13.82 C
1716 05-09-2004 05:21:58 15.8 C 88 % 13.82 C
1717 05-09-2004 05:33:58 15.6 C 88 % 13.62 C
1718 05-09-2004 05:45:58 15.5 C 88 % 13.52 C
1719 05-09-2004 05:57:58 15.5 C 88 % 13.52 C
1720 05-09-2004 06:09:58 15.3 C 87 % 13.15 C
1721 05-09-2004 06:21:58 15.2 C 87 % 13.05 C
1722 05-09-2004 06:33:58 15.1 C 88 % 13.13 C
1723 05-09-2004 06:45:57 15.1 C 89 % 13.3 C
1724 05-09-2004 06:57:57 15.2 C 89 % 13.4 C
1725 05-09-2004 07:09:57 15.4 C 89 % 13.6 C
Sensor: Nr:Datum:Temp:Feuchte:Taupunkt:
Aussen-T/F 1726 05-09-2004 07:21:58 15.6 C 88 % 13.62 C
1727 05-09-2004 07:33:58 15.8 C 88 % 13.82 C
1728 05-09-2004 07:45:58 15.9 C 89 % 14.09 C
1729 05-09-2004 07:57:59 15.8 C 89 % 13.99 C
1730 05-09-2004 08:09:58 16.1 C 89 % 14.29 C
1731 05-09-2004 08:21:58 16.5 C 89 % 14.68 C
1732 05-09-2004 08:33:58 16.8 C 87 % 14.62 C
1733 05-09-2004 08:45:58 16.9 C 86 % 14.54 C
1734 05-09-2004 08:57:58 17.1 C 85 % 14.56 C
1735 05-09-2004 09:09:58 17.2 C 84 % 14.47 C
1736 05-09-2004 09:21:57 17.4 C 84 % 14.67 C
1737 05-09-2004 09:33:57 17.6 C 84 % 14.87 C
1738 05-09-2004 09:45:57 17.7 C 83 % 14.78 C
1739 05-09-2004 09:57:57 18.1 C 82 % 14.98 C
1740 05-09-2004 10:09:57 18.3 C 81 % 14.98 C
1741 05-09-2004 10:21:57 18.2 C 80 % 14.69 C
1742 05-09-2004 10:33:57 18.1 C 84 % 15.35 C
1743 05-09-2004 10:45:57 18.7 C 83 % 15.75 C
1744 05-09-2004 10:57:57 19.6 C 80 % 16.06 C
1745 05-09-2004 11:09:57 20.3 C 76 % 15.93 C
1746 05-09-2004 11:21:58 21.2 C 73 % 16.17 C
1747 05-09-2004 11:33:58 21.8 C 70 % 16.09 C
1748 05-09-2004 11:45:57 22.3 C 69 % 16.34 C
1749 05-09-2004 11:57:57 22.9 C 69 % 16.91 C
1750 05-09-2004 12:09:57 23.5 C 68 % 17.25 C
Sensor: Nr:Datum:Temp:Feuchte:Taupunkt:
Aussen-T/F 1751 05-09-2004 12:21:57 24.2 C 63 % 16.71 C
1752 05-09-2004 12:33:57 24.6 C 63 % 17.09 C
1753 05-09-2004 12:45:57 24.9 C 63 % 17.37 C
1754 05-09-2004 12:57:57 25.1 C 61 % 17.05 C
1755 05-09-2004 13:09:57 25.8 C 58 % 16.91 C
1756 05-09-2004 13:21:57 26.6 C 55 % 16.82 C
1757 05-09-2004 13:33:57 26.8 C 54 % 16.71 C
1758 05-09-2004 13:45:57 27.5 C 46 % 14.85 C
1759 05-09-2004 13:57:57 27.9 C 43 % 14.17 C
1760 05-09-2004 14:09:57 28.2 C 41 % 13.7 C
1761 05-09-2004 14:21:57 28.8 C 37 % 12.66 C
1762 05-09-2004 14:33:56 29.4 C 36 % 12.77 C
1763 05-09-2004 14:45:56 29.4 C 36 % 12.77 C
1764 05-09-2004 14:57:56 29.9 C 38 % 14.04 C
1765 05-09-2004 15:09:56 30.1 C 36 % 13.39 C
1766 05-09-2004 15:21:57 30.3 C 33 % 12.23 C
1767 05-09-2004 15:33:57 30.4 C 34 % 12.78 C
1768 05-09-2004 15:45:57 30.3 C 34 % 12.69 C
1769 05-09-2004 15:57:57 30 C 39 % 14.53 C
1770 05-09-2004 16:09:57 30.4 C 32 % 11.85 C
1771 05-09-2004 16:21:57 31 C 30 % 11.4 C
1772 05-09-2004 16:33:57 31.3 C 30 % 11.65 C
1773 05-09-2004 16:45:57 31.2 C 28 % 10.53 C
1774 05-09-2004 16:57:57 31 C 31 % 11.89 C
1775 05-09-2004 17:09:57 31 C 31 % 11.89 C
Sensor: Nr:Datum:Temp:Feuchte:Taupunkt:
Aussen-T/F 1776 05-09-2004 17:21:56 31 C 31 % 11.89 C
1777 05-09-2004 17:33:56 30.7 C 31 % 11.63 C
1778 05-09-2004 17:45:56 30.8 C 31 % 11.72 C
1779 05-09-2004 17:57:56 30.8 C 32 % 12.2 C
1780 05-09-2004 18:09:56 30.7 C 33 % 12.58 C
1781 05-09-2004 18:21:56 30.4 C 37 % 14.07 C
1782 05-09-2004 18:33:56 30.1 C 38 % 14.22 C
1783 05-09-2004 18:45:56 29.7 C 40 % 14.66 C
1784 05-09-2004 18:57:57 29.3 C 40 % 14.3 C
1785 05-09-2004 19:09:57 28.6 C 41 % 14.06 C
1786 05-09-2004 19:21:57 27.6 C 42 % 13.53 C
1787 05-09-2004 19:33:57 26.6 C 45 % 13.69 C
1788 05-09-2004 19:45:56 25.6 C 46 % 13.12 C
1789 05-09-2004 19:57:56 24.8 C 48 % 13.05 C
1790 05-09-2004 20:09:56 24.2 C 49 % 12.81 C
1791 05-09-2004 20:21:56 23.5 C 52 % 13.08 C
1792 05-09-2004 20:33:56 22.9 C 54 % 13.1 C
1793 05-09-2004 20:45:56 22.1 C 55 % 12.64 C
1794 05-09-2004 20:57:56 22 C 56 % 12.82 C
1795 05-09-2004 21:09:56 21.5 C 59 % 13.15 C
1796 05-09-2004 21:21:56 21.3 C 59 % 12.97 C
1797 05-09-2004 21:33:56 21 C 59 % 12.69 C
1798 05-09-2004 21:45:56 20.9 C 62 % 13.35 C
1799 05-09-2004 21:57:56 20.4 C 62 % 12.88 C
1800 05-09-2004 22:09:56 20 C 66 % 13.46 C
Sensor: Nr:Datum:Temp:Feuchte:Taupunkt:
Aussen-T/F 1801 05-09-2004 22:21:56 19.7 C 68 % 13.63 C
1802 05-09-2004 22:33:55 19.5 C 68 % 13.44 C
1803 05-09-2004 22:45:56 19.3 C 70 % 13.69 C
1804 05-09-2004 22:57:56 19.1 C 71 % 13.72 C
1805 05-09-2004 23:09:56 18.9 C 72 % 13.74 C
1806 05-09-2004 23:21:56 18.6 C 72 % 13.46 C
1807 05-09-2004 23:33:56 18.5 C 72 % 13.36 C
1808 05-09-2004 23:45:56 18.3 C 73 % 13.38 C
1809 05-09-2004 23:57:56 18.1 C 74 % 13.4 C
1810 06-09-2004 00:09:56 18.2 C 73 % 13.28 C
1811 06-09-2004 00:21:56 17.8 C 72 % 12.69 C
1812 06-09-2004 00:33:55 17.5 C 74 % 12.82 C
1813 06-09-2004 00:45:56 17.2 C 75 % 12.73 C
1814 06-09-2004 00:57:56 17 C 74 % 12.34 C
1815 06-09-2004 01:09:56 16.8 C 76 % 12.55 C
1816 06-09-2004 01:21:56 16.5 C 77 % 12.46 C
1817 06-09-2004 01:33:56 16.3 C 78 % 12.46 C
1818 06-09-2004 01:45:56 16.1 C 78 % 12.27 C
1819 06-09-2004 01:57:56 16 C 78 % 12.17 C
1820 06-09-2004 02:09:56 15.9 C 79 % 12.27 C
1821 06-09-2004 02:21:56 15.8 C 78 % 11.97 C
1822 06-09-2004 02:33:55 15.7 C 79 % 12.07 C
1823 06-09-2004 02:46:57 15.6 C 79 % 11.97 C
1824 06-09-2004 02:58:57 15.4 C 79 % 11.78 C
1825 06-09-2004 03:10:57 15.1 C 78 % 11.3 C
Sensor: Nr:Datum:Temp:Feuchte:Taupunkt:
Aussen-T/F 1826 06-09-2004 03:22:57 14.9 C 80 % 11.48 C
1827 06-09-2004 03:34:57 14.8 C 80 % 11.39 C
1828 06-09-2004 03:46:57 14.6 C 80 % 11.19 C
1829 06-09-2004 03:58:57 14.4 C 79 % 10.81 C
1830 06-09-2004 04:10:57 14.4 C 80 % 11 C
1831 06-09-2004 04:22:57 14.3 C 80 % 10.9 C
1832 06-09-2004 04:34:57 14.1 C 80 % 10.71 C
1833 06-09-2004 04:46:57 14.1 C 81 % 10.89 C
1834 06-09-2004 04:58:57 13.8 C 81 % 10.6 C
1835 06-09-2004 05:10:57 13.8 C 82 % 10.78 C
1836 06-09-2004 05:22:56 13.8 C 82 % 10.78 C
1837 06-09-2004 05:34:56 13.6 C 82 % 10.59 C
1838 06-09-2004 05:46:56 13.6 C 82 % 10.59 C
1839 06-09-2004 05:58:56 13.5 C 83 % 10.67 C
1840 06-09-2004 06:10:56 13.4 C 83 % 10.57 C
1841 06-09-2004 06:22:56 13.4 C 84 % 10.75 C
1842 06-09-2004 06:34:57 13.1 C 84 % 10.46 C
1843 06-09-2004 06:46:57 13.2 C 84 % 10.56 C
1844 06-09-2004 06:58:57 13 C 85 % 10.54 C
1845 06-09-2004 07:10:57 13 C 85 % 10.54 C
1846 06-09-2004 07:22:57 12.9 C 87 % 10.79 C
1847 06-09-2004 07:34:57 12.9 C 87 % 10.79 C
1848 06-09-2004 07:46:57 12.9 C 87 % 10.79 C
1849 06-09-2004 07:58:57 12.9 C 88 % 10.96 C
1850 06-09-2004 08:10:56 13 C 87 % 10.89 C
Sensor: Nr:Datum:Temp:Feuchte:Taupunkt:
Aussen-T/F 1851 06-09-2004 08:22:56 13.3 C 87 % 11.18 C
1852 06-09-2004 08:34:56 13.3 C 87 % 11.18 C
1853 06-09-2004 08:46:56 13.3 C 87 % 11.18 C
1854 06-09-2004 08:58:56 13.7 C 87 % 11.58 C
1855 06-09-2004 09:10:56 13.9 C 87 % 11.77 C
1856 06-09-2004 09:22:56 14.2 C 86 % 11.89 C
1857 06-09-2004 09:34:56 14.6 C 86 % 12.29 C
1858 06-09-2004 09:46:56 15.2 C 84 % 12.52 C
1859 06-09-2004 09:58:56 15.9 C 81 % 12.65 C
1860 06-09-2004 10:10:56 16.5 C 79 % 12.85 C
1861 06-09-2004 10:22:57 17 C 78 % 13.14 C
1862 06-09-2004 10:34:57 17.5 C 77 % 13.43 C
1863 06-09-2004 10:46:56 18.3 C 74 % 13.59 C
1864 06-09-2004 10:58:56 18.8 C 73 % 13.86 C
1865 06-09-2004 11:10:56 19.3 C 70 % 13.69 C
1866 06-09-2004 11:22:56 19.8 C 69 % 13.95 C
1867 06-09-2004 11:34:56 20.4 C 66 % 13.84 C
1868 06-09-2004 11:46:56 21.4 C 62 % 13.82 C
1869 06-09-2004 11:58:56 22.1 C 59 % 13.72 C
1870 06-09-2004 12:10:56 22.7 C 57 % 13.75 C
1871 06-09-2004 12:22:56 23 C 60 % 14.82 C
1872 06-09-2004 12:34:56 23.2 C 54 % 13.38 C
1873 06-09-2004 12:46:56 23.8 C 51 % 13.06 C
1874 06-09-2004 12:58:56 24 C 46 % 11.67 C
1875 06-09-2004 13:10:56 24.5 C 42 % 10.75 C
Sensor: Nr:Datum:Temp:Feuchte:Taupunkt:
Aussen-T/F 1876 06-09-2004 13:22:56 24.8 C 41 % 10.66 C
1877 06-09-2004 13:34:55 25.2 C 39 % 10.27 C
1878 06-09-2004 13:46:55 25.8 C 40 % 11.18 C
1879 06-09-2004 13:58:55 26.4 C 37 % 10.54 C
1880 06-09-2004 14:10:55 26.5 C 36 % 10.22 C
1881 06-09-2004 14:22:56 27.2 C 36 % 10.84 C
1882 06-09-2004 14:34:56 27.4 C 32 % 9.25 C
1883 06-09-2004 14:46:56 27.8 C 31 % 9.13 C
1884 06-09-2004 14:58:56 28.4 C 32 % 10.12 C
1885 06-09-2004 15:10:56 28.9 C 30 % 9.59 C
1886 06-09-2004 15:22:56 29.4 C 29 % 9.52 C
1887 06-09-2004 15:34:56 29.4 C 30 % 10.02 C
1888 06-09-2004 15:46:56 29.5 C 29 % 9.6 C
1889 06-09-2004 15:58:56 30 C 29 % 10.03 C
1890 06-09-2004 16:10:56 30.3 C 28 % 9.76 C
1891 06-09-2004 16:22:55 30.6 C 26 % 8.92 C
1892 06-09-2004 16:34:55 30.3 C 28 % 9.76 C
1893 06-09-2004 16:46:55 30.4 C 27 % 9.31 C
1894 06-09-2004 16:58:55 30.6 C 27 % 9.48 C
1895 06-09-2004 17:10:56 30.9 C 27 % 9.73 C
1896 06-09-2004 17:22:55 30.7 C 26 % 9 C
1897 06-09-2004 17:34:55 30.9 C 27 % 9.73 C
1898 06-09-2004 17:46:55 30.6 C 27 % 9.48 C
1899 06-09-2004 17:58:55 30.7 C 27 % 9.56 C
1900 06-09-2004 18:10:56 30.7 C 30 % 11.14 C
Sensor: Nr:Datum:Temp:Feuchte:Taupunkt:
Aussen-T/F 1901 06-09-2004 18:22:56 30.3 C 29 % 10.29 C
1902 06-09-2004 18:34:56 30.1 C 31 % 11.12 C
1903 06-09-2004 18:46:56 29.6 C 30 % 10.19 C
1904 06-09-2004 18:58:56 29.1 C 35 % 12.08 C
1905 06-09-2004 19:10:55 28.2 C 37 % 12.13 C
1906 06-09-2004 19:22:55 27.3 C 39 % 12.13 C
1907 06-09-2004 19:34:56 26.4 C 41 % 12.09 C
1908 06-09-2004 19:46:55 25.2 C 44 % 12.09 C
1909 06-09-2004 19:58:55 24.3 C 47 % 12.27 C
1910 06-09-2004 20:10:55 23.7 C 51 % 12.97 C
1911 06-09-2004 20:22:55 22.6 C 53 % 12.54 C
1912 06-09-2004 20:34:55 22.1 C 54 % 12.36 C
1913 06-09-2004 20:46:55 21.5 C 58 % 12.89 C
1914 06-09-2004 20:58:55 21.3 C 58 % 12.71 C
1915 06-09-2004 21:10:55 21.2 C 59 % 12.87 C
1916 06-09-2004 21:22:55 20.9 C 61 % 13.1 C
1917 06-09-2004 21:34:55 20.7 C 61 % 12.91 C
1918 06-09-2004 21:46:55 20.4 C 60 % 12.38 C
1919 06-09-2004 21:58:55 20 C 60 % 12 C
1920 06-09-2004 22:10:55 20 C 62 % 12.5 C
1921 06-09-2004 22:22:55 19.7 C 63 % 12.46 C
1922 06-09-2004 22:34:55 19.5 C 64 % 12.51 C
1923 06-09-2004 22:46:55 19.2 C 65 % 12.47 C
1924 06-09-2004 22:58:55 19.1 C 65 % 12.37 C
1925 06-09-2004 23:10:55 18.9 C 67 % 12.64 C
Sensor: Nr:Datum:Temp:Feuchte:Taupunkt:
Aussen-T/F 1926 06-09-2004 23:22:55 18.6 C 68 % 12.58 C
1927 06-09-2004 23:34:55 18.4 C 67 % 12.17 C
1928 06-09-2004 23:46:55 18.1 C 71 % 12.76 C
1929 06-09-2004 23:58:55 18.2 C 69 % 12.42 C
1930 07-09-2004 00:10:55 18.3 C 71 % 12.95 C
1931 07-09-2004 00:22:55 17.9 C 71 % 12.57 C
1932 07-09-2004 00:34:55 17.6 C 71 % 12.28 C
1933 07-09-2004 00:46:55 17.6 C 72 % 12.5 C
1934 07-09-2004 00:58:56 17.5 C 72 % 12.4 C
1935 07-09-2004 01:10:55 17.4 C 74 % 12.72 C
1936 07-09-2004 01:22:55 17.3 C 74 % 12.62 C
1937 07-09-2004 01:34:55 17.3 C 73 % 12.42 C
1938 07-09-2004 01:46:55 17 C 73 % 12.13 C
1939 07-09-2004 01:58:55 16.8 C 75 % 12.35 C
1940 07-09-2004 02:10:55 16.5 C 75 % 12.06 C
1941 07-09-2004 02:22:54 16.4 C 76 % 12.16 C
1942 07-09-2004 02:34:54 16.1 C 76 % 11.87 C
1943 07-09-2004 02:47:56 15.9 C 78 % 12.07 C
1944 07-09-2004 02:59:56 15.8 C 78 % 11.97 C
1945 07-09-2004 03:11:56 15.8 C 79 % 12.17 C
1946 07-09-2004 03:23:56 15.6 C 80 % 12.16 C
1947 07-09-2004 03:35:56 15.3 C 80 % 11.87 C
1948 07-09-2004 03:47:56 15.2 C 82 % 12.15 C
1949 07-09-2004 03:59:57 15.1 C 81 % 11.87 C
1950 07-09-2004 04:11:56 14.9 C 82 % 11.86 C
Sensor: Nr:Datum:Temp:Feuchte:Taupunkt:
Aussen-T/F 1951 07-09-2004 04:23:56 14.8 C 83 % 11.94 C
1952 07-09-2004 04:35:56 14.7 C 83 % 11.85 C
1953 07-09-2004 04:47:56 14.6 C 83 % 11.75 C
1954 07-09-2004 04:59:56 14.5 C 84 % 11.83 C
1955 07-09-2004 05:11:55 14.4 C 84 % 11.73 C
1956 07-09-2004 05:23:55 14.3 C 84 % 11.64 C
1957 07-09-2004 05:35:55 14.2 C 84 % 11.54 C
1958 07-09-2004 05:47:55 14.2 C 84 % 11.54 C
1959 07-09-2004 05:59:55 14.1 C 85 % 11.62 C
1960 07-09-2004 06:11:55 14 C 85 % 11.52 C
1961 07-09-2004 06:23:56 14 C 84 % 11.34 C
1962 07-09-2004 06:35:56 14 C 85 % 11.52 C
1963 07-09-2004 06:47:57 13.8 C 86 % 11.5 C
1964 07-09-2004 06:59:58 13.8 C 86 % 11.5 C
1965 07-09-2004 07:11:56 13.8 C 86 % 11.5 C
1966 07-09-2004 07:23:55 13.7 C 86 % 11.4 C
1967 07-09-2004 07:35:55 13.7 C 87 % 11.58 C
1968 07-09-2004 07:47:55 14 C 86 % 11.7 C
1969 07-09-2004 07:59:55 14 C 86 % 11.7 C
1970 07-09-2004 08:11:55 14.1 C 85 % 11.62 C
1971 07-09-2004 08:23:55 14.2 C 86 % 11.89 C
1972 07-09-2004 08:35:55 14.3 C 86 % 11.99 C
1973 07-09-2004 08:47:55 14.7 C 86 % 12.38 C
1974 07-09-2004 08:59:55 15 C 84 % 12.32 C
1975 07-09-2004 09:11:55 15.3 C 83 % 12.43 C
Sensor: Nr:Datum:Temp:Feuchte:Taupunkt:
Aussen-T/F 1976 07-09-2004 09:23:55 15.6 C 83 % 12.72 C
1977 07-09-2004 09:35:55 15.9 C 81 % 12.65 C
1978 07-09-2004 09:47:56 16.3 C 78 % 12.46 C
1979 07-09-2004 09:59:56 17.1 C 77 % 13.04 C
1980 07-09-2004 10:11:56 17.8 C 75 % 13.31 C
1981 07-09-2004 10:23:55 18.9 C 72 % 13.74 C
1982 07-09-2004 10:35:55 20 C 65 % 13.22 C
1983 07-09-2004 10:47:55 20.6 C 63 % 13.31 C
1984 07-09-2004 10:59:55 21 C 65 % 14.17 C
1985 07-09-2004 11:11:55 21.3 C 65 % 14.46 C
1986 07-09-2004 11:23:55 21.4 C 65 % 14.55 C
1987 07-09-2004 11:35:55 21.8 C 58 % 13.17 C
1988 07-09-2004 11:47:55 22.1 C 56 % 12.92 C
1989 07-09-2004 11:59:56 22.7 C 55 % 13.2 C
1990 07-09-2004 12:11:55 23.3 C 53 % 13.19 C
1991 07-09-2004 12:23:55 23.8 C 50 % 12.76 C
1992 07-09-2004 12:35:55 24.2 C 47 % 12.18 C
1993 07-09-2004 12:47:55 24.7 C 47 % 12.64 C
1994 07-09-2004 12:59:55 25 C 46 % 12.58 C
1995 07-09-2004 13:11:54 25.3 C 44 % 12.18 C
1996 07-09-2004 13:23:54 25.6 C 39 % 10.62 C
1997 07-09-2004 13:35:55 26.1 C 39 % 11.07 C
1998 07-09-2004 13:47:55 26.6 C 39 % 11.51 C
1999 07-09-2004 13:59:55 26.9 C 36 % 10.57 C
2000 07-09-2004 14:11:55 27.3 C 35 % 10.5 C
Sensor: Nr:Datum:Temp:Feuchte:Taupunkt:
Aussen-T/F 2001 07-09-2004 14:23:55 27.7 C 35 % 10.85 C
2002 07-09-2004 14:35:55 28.2 C 31 % 9.48 C
2003 07-09-2004 14:47:55 28.7 C 33 % 10.84 C
2004 07-09-2004 14:59:55 28.9 C 32 % 10.55 C
2005 07-09-2004 15:11:55 29.3 C 31 % 10.43 C
2006 07-09-2004 15:23:55 29.6 C 30 % 10.19 C
2007 07-09-2004 15:35:55 29.9 C 29 % 9.94 C
2008 07-09-2004 15:47:54 30.3 C 28 % 9.76 C
2009 07-09-2004 15:59:54 30.4 C 28 % 9.85 C
2010 07-09-2004 16:11:54 30.4 C 27 % 9.31 C
2011 07-09-2004 16:23:54 30.3 C 26 % 8.66 C
2012 07-09-2004 16:35:54 30.2 C 27 % 9.14 C
2013 07-09-2004 16:47:54 30.4 C 27 % 9.31 C
2014 07-09-2004 16:59:54 30.6 C 27 % 9.48 C
2015 07-09-2004 17:11:54 30.7 C 26 % 9 C
2016 07-09-2004 17:23:54 30.7 C 25 % 8.42 C
2017 07-09-2004 17:35:55 30.6 C 25 % 8.34 C
2018 07-09-2004 17:47:55 30.3 C 26 % 8.66 C
2019 07-09-2004 17:59:55 30.4 C 27 % 9.31 C
2020 07-09-2004 18:11:55 30.4 C 28 % 9.85 C
2021 07-09-2004 18:23:55 30.3 C 27 % 9.22 C
2022 07-09-2004 18:35:54 30.2 C 30 % 10.71 C
2023 07-09-2004 18:47:54 29.8 C 32 % 11.33 C
2024 07-09-2004 18:59:54 29.6 C 33 % 11.63 C
2025 07-09-2004 19:11:54 28.8 C 35 % 11.82 C
Sensor: Nr:Datum:Temp:Feuchte:Taupunkt:
Aussen-T/F 2026 07-09-2004 19:23:54 28.1 C 35 % 11.2 C
2027 07-09-2004 19:35:54 26.7 C 39 % 11.6 C
2028 07-09-2004 19:47:54 25.7 C 42 % 11.83 C
2029 07-09-2004 19:59:54 24.7 C 44 % 11.63 C
2030 07-09-2004 20:11:54 24 C 48 % 12.32 C
2031 07-09-2004 20:23:54 23.4 C 51 % 12.69 C
2032 07-09-2004 20:35:54 22.9 C 54 % 13.1 C
2033 07-09-2004 20:47:54 22.5 C 54 % 12.73 C
2034 07-09-2004 20:59:54 22.1 C 56 % 12.92 C
2035 07-09-2004 21:11:54 21.8 C 58 % 13.17 C
2036 07-09-2004 21:23:53 21.4 C 57 % 12.53 C
2037 07-09-2004 21:35:54 21.1 C 59 % 12.78 C
2038 07-09-2004 21:47:54 20.8 C 59 % 12.5 C
2039 07-09-2004 21:59:54 20.5 C 60 % 12.47 C
2040 07-09-2004 22:11:54 20.3 C 61 % 12.54 C
2041 07-09-2004 22:23:54 20 C 62 % 12.5 C
2042 07-09-2004 22:35:54 19.6 C 64 % 12.61 C
2043 07-09-2004 22:47:54 19.4 C 66 % 12.89 C
2044 07-09-2004 22:59:54 19.3 C 66 % 12.79 C
2045 07-09-2004 23:11:54 19.3 C 67 % 13.02 C
2046 07-09-2004 23:23:54 18.9 C 67 % 12.64 C
2047 07-09-2004 23:35:54 18.8 C 69 % 13 C
2048 07-09-2004 23:47:54 18.8 C 69 % 13 C
2049 07-09-2004 23:59:54 18.6 C 70 % 13.02 C
2050 08-09-2004 00:11:53 18.5 C 70 % 12.93 C
Sensor: Nr:Datum:Temp:Feuchte:Taupunkt:
Aussen-T/F 2051 08-09-2004 00:23:54 18.4 C 71 % 13.05 C
2052 08-09-2004 00:35:54 18.2 C 71 % 12.86 C
2053 08-09-2004 00:47:54 18.1 C 71 % 12.76 C
2054 08-09-2004 00:59:54 17.8 C 74 % 13.11 C
2055 08-09-2004 01:11:54 17.7 C 74 % 13.01 C
2056 08-09-2004 01:23:53 17.5 C 74 % 12.82 C
2057 08-09-2004 01:35:53 17.4 C 75 % 12.93 C
2058 08-09-2004 01:47:53 17.2 C 75 % 12.73 C
2059 08-09-2004 01:59:53 17.1 C 76 % 12.84 C
2060 08-09-2004 02:11:53 16.9 C 77 % 12.84 C
2061 08-09-2004 02:23:53 16.9 C 78 % 13.04 C
2062 08-09-2004 02:35:53 16.8 C 78 % 12.94 C
2063 08-09-2004 02:48:55 16.5 C 79 % 12.85 C
2064 08-09-2004 03:00:56 16.4 C 79 % 12.75 C
2065 08-09-2004 03:12:56 16.2 C 80 % 12.75 C
2066 08-09-2004 03:24:56 16 C 81 % 12.74 C
2067 08-09-2004 03:36:56 15.8 C 82 % 12.74 C
2068 08-09-2004 03:48:56 15.9 C 82 % 12.83 C
2069 08-09-2004 04:00:55 15.5 C 83 % 12.63 C
2070 08-09-2004 04:12:55 15.7 C 82 % 12.64 C
2071 08-09-2004 04:24:55 15.3 C 82 % 12.25 C
2072 08-09-2004 04:36:55 15.3 C 83 % 12.43 C
2073 08-09-2004 04:48:55 15.2 C 83 % 12.33 C
2074 08-09-2004 05:00:55 15.1 C 83 % 12.24 C
2075 08-09-2004 05:12:55 15.1 C 83 % 12.24 C
Sensor: Nr:Datum:Temp:Feuchte:Taupunkt:
Aussen-T/F 2076 08-09-2004 05:24:55 14.9 C 84 % 12.22 C
2077 08-09-2004 05:36:55 14.8 C 84 % 12.12 C
2078 08-09-2004 05:48:55 14.7 C 84 % 12.03 C
2079 08-09-2004 06:00:55 14.7 C 85 % 12.21 C
2080 08-09-2004 06:12:55 14.6 C 86 % 12.29 C
2081 08-09-2004 06:24:55 14.4 C 86 % 12.09 C
2082 08-09-2004 06:36:55 14.3 C 86 % 11.99 C
2083 08-09-2004 06:48:54 14.2 C 86 % 11.89 C
2084 08-09-2004 07:00:55 14.2 C 86 % 11.89 C
2085 08-09-2004 07:12:55 14.1 C 86 % 11.8 C
2086 08-09-2004 07:24:55 14.2 C 86 % 11.89 C
2087 08-09-2004 07:36:55 14 C 87 % 11.87 C
2088 08-09-2004 07:48:55 14.3 C 87 % 12.17 C
2089 08-09-2004 08:00:55 14.5 C 86 % 12.19 C
2090 08-09-2004 08:12:55 14.7 C 86 % 12.38 C
2091 08-09-2004 08:24:55 14.9 C 86 % 12.58 C
2092 08-09-2004 08:36:55 15 C 84 % 12.32 C
2093 08-09-2004 08:48:55 15.2 C 83 % 12.33 C
2094 08-09-2004 09:00:55 15.4 C 83 % 12.53 C
2095 08-09-2004 09:12:55 15.8 C 83 % 12.92 C
2096 08-09-2004 09:24:54 16.3 C 82 % 13.22 C
2097 08-09-2004 09:36:54 16.8 C 81 % 13.52 C
2098 08-09-2004 09:48:54 17.1 C 79 % 13.43 C
2099 08-09-2004 10:00:55 17.6 C 78 % 13.72 C
2100 08-09-2004 10:12:55 18 C 75 % 13.51 C
Sensor: Nr:Datum:Temp:Feuchte:Taupunkt:
Aussen-T/F 2101 08-09-2004 10:24:54 18.3 C 75 % 13.79 C
2102 08-09-2004 10:36:54 18.7 C 74 % 13.97 C
2103 08-09-2004 10:48:54 19.2 C 71 % 13.82 C
2104 08-09-2004 11:00:54 19.5 C 68 % 13.44 C
2105 08-09-2004 11:12:54 20 C 66 % 13.46 C
2106 08-09-2004 11:24:55 20.5 C 64 % 13.46 C
2107 08-09-2004 11:36:55 20.8 C 63 % 13.5 C
2108 08-09-2004 11:48:55 21.1 C 59 % 12.78 C
2109 08-09-2004 12:00:55 21.5 C 59 % 13.15 C
2110 08-09-2004 12:12:55 21.8 C 59 % 13.44 C
2111 08-09-2004 12:24:55 21.9 C 58 % 13.27 C
2112 08-09-2004 12:36:54 22 C 60 % 13.88 C
2113 08-09-2004 12:48:54 22.2 C 57 % 13.28 C
2114 08-09-2004 13:00:54 22.5 C 55 % 13.01 C
2115 08-09-2004 13:12:54 22.9 C 55 % 13.38 C
2116 08-09-2004 13:24:54 23.3 C 54 % 13.47 C
2117 08-09-2004 13:36:54 23.7 C 48 % 12.04 C
2118 08-09-2004 13:48:54 24.3 C 49 % 12.91 C
2119 08-09-2004 14:00:54 24.8 C 46 % 12.4 C
2120 08-09-2004 14:12:54 25.2 C 39 % 10.27 C
2121 08-09-2004 14:24:54 25.2 C 38 % 9.88 C
2122 08-09-2004 14:36:54 25.5 C 36 % 9.34 C
2123 08-09-2004 14:48:54 26.1 C 33 % 8.58 C
2124 08-09-2004 15:00:54 26.5 C 31 % 8.01 C
2125 08-09-2004 15:12:54 27.9 C 30 % 8.73 C
Sensor: Nr:Datum:Temp:Feuchte:Taupunkt:
Aussen-T/F 2126 08-09-2004 15:24:54 28.4 C 25 % 6.49 C
2127 08-09-2004 15:36:54 28.6 C 27 % 7.78 C
2128 08-09-2004 15:48:54 28.8 C 24 % 6.23 C
2129 08-09-2004 16:00:54 28.8 C 26 % 7.4 C
2130 08-09-2004 16:12:54 29.2 C 27 % 8.29 C
2131 08-09-2004 16:24:54 29.3 C 26 % 7.82 C
2132 08-09-2004 16:36:54 29 C 25 % 6.99 C
2133 08-09-2004 16:48:54 28.9 C 26 % 7.48 C
2134 08-09-2004 17:00:54 29.3 C 24 % 6.65 C
2135 08-09-2004 17:12:54 29.4 C 23 % 6.12 C
2136 08-09-2004 17:24:54 29.6 C 22 % 5.64 C
2137 08-09-2004 17:36:54 29.7 C 23 % 6.37 C
2138 08-09-2004 17:48:54 29.8 C 23 % 6.45 C
2139 08-09-2004 18:00:53 29.6 C 24 % 6.9 C
2140 08-09-2004 18:12:53 29 C 25 % 6.99 C
2141 08-09-2004 18:24:53 28.1 C 24 % 5.65 C
2142 08-09-2004 18:36:53 28.2 C 26 % 6.89 C
2143 08-09-2004 18:48:53 27.8 C 26 % 6.55 C
2144 08-09-2004 19:00:53 27.4 C 28 % 7.29 C
2145 08-09-2004 19:12:53 27 C 28 % 6.95 C
2146 08-09-2004 19:24:54 25.6 C 29 % 6.26 C
2147 08-09-2004 19:36:54 24.5 C 35 % 8.05 C
2148 08-09-2004 19:48:54 23.8 C 35 % 7.43 C
2149 08-09-2004 20:00:54 22.8 C 39 % 8.13 C
2150 08-09-2004 20:12:54 22 C 40 % 7.79 C
Sensor: Nr:Datum:Temp:Feuchte:Taupunkt:
Aussen-T/F 2151 08-09-2004 20:24:54 21.2 C 43 % 8.13 C
2152 08-09-2004 20:36:54 20.7 C 46 % 8.67 C
2153 08-09-2004 20:48:53 19.7 C 49 % 8.7 C
2154 08-09-2004 21:00:53 19.5 C 49 % 8.51 C
2155 08-09-2004 21:12:53 19.3 C 50 % 8.63 C
2156 08-09-2004 21:24:53 18.9 C 51 % 8.55 C
2157 08-09-2004 21:36:53 18.5 C 52 % 8.47 C
2158 08-09-2004 21:48:53 18.2 C 53 % 8.47 C
2159 08-09-2004 22:00:53 17.9 C 56 % 9.01 C
2160 08-09-2004 22:12:53 17.8 C 57 % 9.18 C
2161 08-09-2004 22:24:53 17.6 C 57 % 8.99 C
2162 08-09-2004 22:36:53 17.6 C 58 % 9.25 C
2163 08-09-2004 22:48:53 17.3 C 56 % 8.45 C
2164 08-09-2004 23:00:54 17.2 C 58 % 8.87 C
2165 08-09-2004 23:12:54 16.9 C 61 % 9.34 C
2166 08-09-2004 23:24:54 16.5 C 62 % 9.2 C
2167 08-09-2004 23:36:53 16.3 C 62 % 9.01 C
2168 08-09-2004 23:48:53 15.9 C 64 % 9.11 C
2169 09-09-2004 00:00:53 15.7 C 65 % 9.15 C
2170 09-09-2004 00:12:53 15.8 C 63 % 8.78 C
2171 09-09-2004 00:24:53 15.7 C 62 % 8.45 C
2172 09-09-2004 00:36:53 16.1 C 60 % 8.34 C
2173 09-09-2004 00:48:53 16 C 57 % 7.49 C
2174 09-09-2004 01:00:53 16 C 55 % 6.97 C
2175 09-09-2004 01:12:53 15.9 C 57 % 7.4 C
Sensor: Nr:Datum:Temp:Feuchte:Taupunkt:
Aussen-T/F 2176 09-09-2004 01:24:53 15.8 C 57 % 7.31 C
2177 09-09-2004 01:36:53 15.7 C 59 % 7.72 C
2178 09-09-2004 01:48:53 15.4 C 60 % 7.68 C
2179 09-09-2004 02:00:53 15.1 C 61 % 7.64 C
2180 09-09-2004 02:12:53 14.8 C 63 % 7.83 C
2181 09-09-2004 02:24:53 14.4 C 64 % 7.68 C
2182 09-09-2004 02:36:53 14.3 C 64 % 7.59 C
2183 09-09-2004 02:49:54 14 C 65 % 7.53 C
2184 09-09-2004 03:01:54 13.7 C 66 % 7.47 C
2185 09-09-2004 03:13:54 13.6 C 67 % 7.6 C
2186 09-09-2004 03:25:54 13.5 C 68 % 7.72 C
2187 09-09-2004 03:37:54 13.5 C 68 % 7.72 C
2188 09-09-2004 03:49:54 13.4 C 68 % 7.62 C
2189 09-09-2004 04:01:54 13.4 C 68 % 7.62 C
2190 09-09-2004 04:13:54 13.3 C 68 % 7.53 C
2191 09-09-2004 04:25:54 13.1 C 69 % 7.55 C
2192 09-09-2004 04:37:54 13 C 69 % 7.45 C
2193 09-09-2004 04:49:54 12.7 C 71 % 7.58 C
2194 09-09-2004 05:01:54 12.6 C 72 % 7.69 C
2195 09-09-2004 05:13:54 12.4 C 72 % 7.5 C
2196 09-09-2004 05:25:54 12.1 C 72 % 7.21 C
2197 09-09-2004 05:37:54 12 C 73 % 7.32 C
2198 09-09-2004 05:49:54 11.8 C 74 % 7.32 C
2199 09-09-2004 06:01:54 11.8 C 75 % 7.52 C
2200 09-09-2004 06:13:54 11.5 C 76 % 7.42 C
Sensor: Nr:Datum:Temp:Feuchte:Taupunkt:
Aussen-T/F 2201 09-09-2004 06:25:54 11.4 C 78 % 7.71 C
2202 09-09-2004 06:37:54 11.2 C 79 % 7.7 C
2203 09-09-2004 06:49:54 11 C 80 % 7.69 C
2204 09-09-2004 07:01:54 11 C 80 % 7.69 C
2205 09-09-2004 07:13:55 11 C 80 % 7.69 C
2206 09-09-2004 07:25:54 11 C 81 % 7.87 C
2207 09-09-2004 07:37:54 11 C 80 % 7.69 C
2208 09-09-2004 07:49:54 11 C 80 % 7.69 C
2209 09-09-2004 08:01:54 11 C 80 % 7.69 C
2210 09-09-2004 08:13:54 11.1 C 80 % 7.79 C
2211 09-09-2004 08:25:53 11.2 C 80 % 7.88 C
2212 09-09-2004 08:37:53 11.2 C 80 % 7.88 C
2213 09-09-2004 08:49:53 11.4 C 80 % 8.08 C
2214 09-09-2004 09:01:53 11.6 C 79 % 8.09 C
2215 09-09-2004 09:13:53 11.8 C 79 % 8.28 C
2216 09-09-2004 09:25:53 12.1 C 77 % 8.2 C
2217 09-09-2004 09:37:54 12.5 C 77 % 8.58 C
2218 09-09-2004 09:49:54 13.2 C 75 % 8.87 C
2219 09-09-2004 10:01:54 13.8 C 73 % 9.05 C
2220 09-09-2004 10:13:54 14.7 C 68 % 8.86 C
2221 09-09-2004 10:25:54 15.4 C 65 % 8.86 C
2222 09-09-2004 10:37:54 16.1 C 61 % 8.58 C
2223 09-09-2004 10:49:54 16.8 C 58 % 8.5 C
2224 09-09-2004 11:01:53 17.5 C 55 % 8.37 C
2225 09-09-2004 11:13:53 18 C 56 % 9.1 C
Sensor: Nr:Datum:Temp:Feuchte:Taupunkt:
Aussen-T/F 2226 09-09-2004 11:25:53 18.7 C 55 % 9.48 C
2227 09-09-2004 11:37:53 19.1 C 49 % 8.15 C
2228 09-09-2004 11:49:53 19.7 C 48 % 8.39 C
2229 09-09-2004 12:01:53 20.2 C 44 % 7.57 C
2230 09-09-2004 12:13:53 20.7 C 41 % 6.99 C
2231 09-09-2004 12:25:53 21.2 C 36 % 5.55 C
2232 09-09-2004 12:37:53 21.4 C 37 % 6.12 C
2233 09-09-2004 12:49:53 21.6 C 34 % 5.08 C
2234 09-09-2004 13:01:53 21.9 C 33 % 4.92 C
2235 09-09-2004 13:13:53 22.4 C 33 % 5.35 C
2236 09-09-2004 13:25:53 22.7 C 31 % 4.72 C
2237 09-09-2004 13:37:54 23.1 C 31 % 5.06 C
2238 09-09-2004 13:49:53 23.6 C 30 % 5.03 C
2239 09-09-2004 14:01:53 24 C 27 % 3.87 C
2240 09-09-2004 14:13:53 24.3 C 29 % 5.14 C
2241 09-09-2004 14:25:53 25 C 26 % 4.18 C
2242 09-09-2004 14:37:53 25.6 C 27 % 5.23 C
2243 09-09-2004 14:49:53 25.9 C 26 % 4.94 C
2244 09-09-2004 15:01:53 26.6 C 25 % 4.97 C
2245 09-09-2004 15:13:53 27.1 C 26 % 5.96 C
2246 09-09-2004 15:25:53 27.7 C 24 % 5.31 C
2247 09-09-2004 15:37:53 28.4 C 24 % 5.9 C
2248 09-09-2004 15:49:53 28.5 C 23 % 5.37 C
2249 09-09-2004 16:01:53 28.5 C 22 % 4.73 C
2250 09-09-2004 16:13:53 28.8 C 25 % 6.82 C
Sensor: Nr:Datum:Temp:Feuchte:Taupunkt:
Aussen-T/F 2251 09-09-2004 16:25:53 29 C 21 % 4.48 C
2252 09-09-2004 16:37:52 29.2 C 21 % 4.64 C
2253 09-09-2004 16:49:52 29.4 C 21 % 4.81 C
2254 09-09-2004 17:01:52 29.7 C 22 % 5.73 C
2255 09-09-2004 17:13:52 29.4 C 21 % 4.81 C
2256 09-09-2004 17:25:52 30.1 C 21 % 5.39 C
2257 09-09-2004 17:37:53 29.8 C 20 % 4.44 C
2258 09-09-2004 17:49:53 29.8 C 20 % 4.44 C
2259 09-09-2004 18:01:53 30 C 20 % 4.61 C
2260 09-09-2004 18:13:53 29.3 C 20 % 4.03 C
2261 09-09-2004 18:25:53 28.2 C 20 % 3.13 C
2262 09-09-2004 18:37:53 27.9 C 22 % 4.23 C
2263 09-09-2004 18:49:53 27.9 C 27 % 7.18 C
2264 09-09-2004 19:01:53 27 C 29 % 7.46 C
2265 09-09-2004 19:13:53 26.3 C 28 % 6.35 C
2266 09-09-2004 19:25:52 25.3 C 31 % 6.97 C
2267 09-09-2004 19:37:52 23.9 C 35 % 7.52 C
2268 09-09-2004 19:49:52 22.2 C 39 % 7.6 C
2269 09-09-2004 20:01:52 20.8 C 40 % 6.72 C
2270 09-09-2004 20:13:52 19.8 C 42 % 6.53 C
2271 09-09-2004 20:25:52 19.3 C 43 % 6.42 C
2272 09-09-2004 20:37:52 19 C 44 % 6.48 C
2273 09-09-2004 20:49:52 18.8 C 45 % 6.63 C
2274 09-09-2004 21:01:52 18.6 C 44 % 6.12 C
2275 09-09-2004 21:13:52 18.4 C 43 % 5.61 C
Sensor: Nr:Datum:Temp:Feuchte:Taupunkt:
Aussen-T/F 2276 09-09-2004 21:25:53 18.2 C 44 % 5.76 C
2277 09-09-2004 21:37:53 17.9 C 44 % 5.49 C
2278 09-09-2004 21:49:53 17.6 C 45 % 5.54 C
2279 09-09-2004 22:01:52 17.4 C 45 % 5.36 C
2280 09-09-2004 22:13:52 17.2 C 46 % 5.49 C
2281 09-09-2004 22:25:52 16.9 C 47 % 5.53 C
2282 09-09-2004 22:37:52 16.7 C 47 % 5.34 C
2283 09-09-2004 22:49:52 16.2 C 48 % 5.19 C
2284 09-09-2004 23:01:52 15.9 C 50 % 5.5 C
2285 09-09-2004 23:13:52 15.8 C 51 % 5.69 C
2286 09-09-2004 23:25:52 15.6 C 50 % 5.23 C
2287 09-09-2004 23:37:52 15.3 C 51 % 5.23 C
2288 09-09-2004 23:49:52 15.2 C 53 % 5.69 C
2289 10-09-2004 00:01:52 14.9 C 53 % 5.42 C
2290 10-09-2004 00:13:52 14.6 C 53 % 5.14 C
2291 10-09-2004 00:25:53 14.4 C 52 % 4.68 C
2292 10-09-2004 00:37:52 14.4 C 52 % 4.68 C
2293 10-09-2004 00:49:52 14.2 C 52 % 4.5 C
2294 10-09-2004 01:01:52 14.1 C 51 % 4.13 C
2295 10-09-2004 01:13:52 13.8 C 55 % 4.93 C
2296 10-09-2004 01:25:51 13.6 C 55 % 4.74 C
2297 10-09-2004 01:37:51 13.2 C 56 % 4.63 C
2298 10-09-2004 01:49:52 13.2 C 54 % 4.11 C
2299 10-09-2004 02:01:52 13 C 56 % 4.44 C
2300 10-09-2004 02:13:52 12.8 C 57 % 4.5 C
Sensor: Nr:Datum:Temp:Feuchte:Taupunkt:
Aussen-T/F 2301 10-09-2004 02:25:52 12.5 C 58 % 4.47 C
2302 10-09-2004 02:37:52 12.3 C 58 % 4.28 C
2303 10-09-2004 02:50:53 12.1 C 62 % 5.05 C
2304 10-09-2004 03:02:53 12.1 C 61 % 4.82 C
2305 10-09-2004 03:14:53 11.7 C 61 % 4.44 C
2306 10-09-2004 03:26:53 11.4 C 61 % 4.16 C
2307 10-09-2004 03:38:53 11.2 C 62 % 4.2 C
2308 10-09-2004 03:50:53 11.2 C 63 % 4.43 C
2309 10-09-2004 04:02:53 11.1 C 64 % 4.56 C
2310 10-09-2004 04:14:53 10.9 C 66 % 4.81 C
2311 10-09-2004 04:26:53 10.7 C 68 % 5.04 C
2312 10-09-2004 04:38:53 10.6 C 67 % 4.74 C
2313 10-09-2004 04:50:53 10.3 C 70 % 5.08 C
2314 10-09-2004 05:02:53 10.2 C 71 % 5.18 C
2315 10-09-2004 05:14:53 10 C 73 % 5.39 C
2316 10-09-2004 05:26:53 9.7 C 74 % 5.3 C
2317 10-09-2004 05:38:53 9.5 C 75 % 5.3 C
2318 10-09-2004 05:50:53 9.4 C 77 % 5.58 C
2319 10-09-2004 06:02:53 9.2 C 74 % 4.81 C
2320 10-09-2004 06:14:53 9.1 C 78 % 5.47 C
2321 10-09-2004 06:26:53 8.9 C 81 % 5.82 C
2322 10-09-2004 06:38:53 8.9 C 78 % 5.28 C
2323 10-09-2004 06:50:53 8.8 C 76 % 4.81 C
2324 10-09-2004 07:02:52 8.7 C 81 % 5.63 C
2325 10-09-2004 07:14:53 8.6 C 79 % 5.17 C
Sensor: Nr:Datum:Temp:Feuchte:Taupunkt:
Aussen-T/F 2326 10-09-2004 07:26:53 8.6 C 78 % 4.99 C
2327 10-09-2004 07:38:53 8.9 C 78 % 5.28 C
2328 10-09-2004 07:50:53 8.7 C 77 % 4.9 C
2329 10-09-2004 08:02:53 8.8 C 78 % 5.18 C
2330 10-09-2004 08:14:53 8.8 C 79 % 5.36 C
2331 10-09-2004 08:26:53 9 C 79 % 5.56 C
2332 10-09-2004 08:38:53 9.3 C 78 % 5.67 C
2333 10-09-2004 08:50:53 9.5 C 78 % 5.86 C
2334 10-09-2004 09:02:53 9.9 C 77 % 6.06 C
2335 10-09-2004 09:14:52 10.2 C 76 % 6.16 C
2336 10-09-2004 09:26:52 10.6 C 75 % 6.36 C
2337 10-09-2004 09:38:52 11.3 C 72 % 6.44 C
2338 10-09-2004 09:50:52 12 C 69 % 6.5 C
2339 10-09-2004 10:02:52 12.9 C 66 % 6.71 C
2340 10-09-2004 10:14:52 13.6 C 65 % 7.15 C
2341 10-09-2004 10:26:52 14.1 C 62 % 6.94 C
2342 10-09-2004 10:38:52 15 C 60 % 7.31 C
2343 10-09-2004 10:50:52 16.2 C 51 % 6.06 C
2344 10-09-2004 11:02:52 17 C 45 % 4.99 C
2345 10-09-2004 11:14:52 17.8 C 44 % 5.4 C
2346 10-09-2004 11:26:52 18.3 C 39 % 4.12 C
2347 10-09-2004 11:38:53 19 C 40 % 5.11 C
2348 10-09-2004 11:50:53 19.5 C 39 % 5.19 C
2349 10-09-2004 12:02:53 20.2 C 36 % 4.67 C
2350 10-09-2004 12:14:52 20.6 C 36 % 5.02 C
Sensor: Nr:Datum:Temp:Feuchte:Taupunkt:
Aussen-T/F 2351 10-09-2004 12:26:52 21 C 35 % 4.97 C
2352 10-09-2004 12:38:52 21.6 C 35 % 5.5 C
2353 10-09-2004 12:50:52 21.8 C 35 % 5.67 C
2354 10-09-2004 13:02:52 22.2 C 35 % 6.02 C
2355 10-09-2004 13:14:52 22.7 C 36 % 6.87 C
2356 10-09-2004 13:26:52 23.2 C 32 % 5.61 C
2357 10-09-2004 13:38:52 23.6 C 32 % 5.95 C
2358 10-09-2004 13:50:52 24.3 C 31 % 6.1 C
2359 10-09-2004 14:02:52 24.5 C 30 % 5.8 C
2360 10-09-2004 14:14:52 25 C 30 % 6.23 C
2361 10-09-2004 14:26:52 24.9 C 30 % 6.15 C
2362 10-09-2004 14:38:52 25.3 C 30 % 6.49 C
2363 10-09-2004 14:50:52 25.7 C 28 % 5.84 C
2364 10-09-2004 15:02:52 26.4 C 30 % 7.44 C
2365 10-09-2004 15:14:52 27.2 C 30 % 8.13 C
2366 10-09-2004 15:26:52 27.2 C 28 % 7.12 C
2367 10-09-2004 15:38:52 26.1 C 34 % 9.02 C
2368 10-09-2004 15:50:52 27 C 31 % 8.44 C
2369 10-09-2004 16:02:52 28.5 C 30 % 9.25 C
2370 10-09-2004 16:14:52 29.2 C 27 % 8.29 C
2371 10-09-2004 16:26:52 29.5 C 26 % 7.99 C
2372 10-09-2004 16:38:52 29.9 C 27 % 8.88 C
2373 10-09-2004 16:50:52 29.3 C 27 % 8.37 C
2374 10-09-2004 17:02:52 28.8 C 28 % 8.48 C
2375 10-09-2004 17:14:52 28.8 C 31 % 9.99 C
Sensor: Nr:Datum:Temp:Feuchte:Taupunkt:
Aussen-T/F 2376 10-09-2004 17:26:52 30.1 C 28 % 9.59 C
2377 10-09-2004 17:38:52 29.8 C 32 % 11.33 C
2378 10-09-2004 17:50:51 29.8 C 33 % 11.8 C
2379 10-09-2004 18:02:51 28.1 C 36 % 11.63 C
2380 10-09-2004 18:14:51 26.2 C 41 % 11.91 C
2381 10-09-2004 18:26:51 25.8 C 42 % 11.92 C
2382 10-09-2004 18:38:51 27.1 C 39 % 11.96 C
2383 10-09-2004 18:50:51 27.3 C 40 % 12.52 C
2384 10-09-2004 19:02:52 26.7 C 40 % 11.99 C
2385 10-09-2004 19:14:52 25.6 C 44 % 12.45 C
2386 10-09-2004 19:26:52 24.5 C 48 % 12.77 C
2387 10-09-2004 19:38:52 23.3 C 50 % 12.3 C
2388 10-09-2004 19:50:52 22.6 C 52 % 12.25 C
2389 10-09-2004 20:02:52 22.2 C 53 % 12.17 C
2390 10-09-2004 20:14:51 21.8 C 54 % 12.08 C
2391 10-09-2004 20:26:51 21.7 C 54 % 11.99 C
2392 10-09-2004 20:38:51 21.6 C 54 % 11.9 C
2393 10-09-2004 20:50:51 21.6 C 54 % 11.9 C
2394 10-09-2004 21:02:51 21.3 C 54 % 11.62 C
2395 10-09-2004 21:14:51 20.9 C 56 % 11.8 C
2396 10-09-2004 21:26:51 20.8 C 58 % 12.24 C
2397 10-09-2004 21:38:51 20.5 C 59 % 12.22 C
2398 10-09-2004 21:50:51 20.3 C 60 % 12.29 C
2399 10-09-2004 22:02:51 20.3 C 61 % 12.54 C
2400 10-09-2004 22:14:51 20.4 C 62 % 12.88 C
Sensor: Nr:Datum:Temp:Feuchte:Taupunkt:
Aussen-T/F 2401 10-09-2004 22:26:51 20.3 C 62 % 12.79 C
2402 10-09-2004 22:38:51 20.2 C 63 % 12.94 C
2403 10-09-2004 22:50:51 20.3 C 63 % 13.03 C
2404 10-09-2004 23:02:50 20 C 64 % 12.99 C
2405 10-09-2004 23:14:51 19.7 C 66 % 13.17 C
2406 10-09-2004 23:26:51 19.6 C 68 % 13.54 C
2407 10-09-2004 23:38:51 19.4 C 69 % 13.57 C
2408 10-09-2004 23:50:51 19.3 C 70 % 13.69 C
2409 11-09-2004 00:02:51 19.2 C 70 % 13.6 C
2410 11-09-2004 00:14:53 19.1 C 70 % 13.5 C
2411 11-09-2004 00:26:54 19.1 C 72 % 13.94 C
2412 11-09-2004 00:38:51 19.2 C 71 % 13.82 C
2413 11-09-2004 00:50:51 19.1 C 71 % 13.72 C
2414 11-09-2004 01:02:51 18.9 C 72 % 13.74 C
2415 11-09-2004 01:14:50 18.9 C 73 % 13.96 C
2416 11-09-2004 01:26:50 18.8 C 73 % 13.86 C
2417 11-09-2004 01:38:50 18.5 C 74 % 13.78 C
2418 11-09-2004 01:50:50 18.7 C 74 % 13.97 C
2419 11-09-2004 02:02:51 18.8 C 74 % 14.07 C
2420 11-09-2004 02:14:51 18.9 C 74 % 14.17 C
2421 11-09-2004 02:26:51 18.8 C 74 % 14.07 C
2422 11-09-2004 02:38:51 18.5 C 76 % 14.19 C
2423 11-09-2004 02:51:52 18.4 C 84 % 15.65 C
2424 11-09-2004 03:03:52 18.4 C 86 % 16.02 C
2425 11-09-2004 03:15:52 18.1 C 89 % 16.26 C
Sensor: Nr:Datum:Temp:Feuchte:Taupunkt:
Aussen-T/F 2426 11-09-2004 03:27:52 18 C 90 % 16.34 C
2427 11-09-2004 03:39:52 17.9 C 92 % 16.58 C
2428 11-09-2004 03:51:52 17.9 C 92 % 16.58 C
2429 11-09-2004 04:03:52 17.9 C 91 % 16.41 C
2430 11-09-2004 04:15:52 17.9 C 91 % 16.41 C
2431 11-09-2004 04:27:52 17.8 C 92 % 16.48 C
2432 11-09-2004 04:39:52 17.5 C 92 % 16.19 C
2433 11-09-2004 04:51:52 17.3 C 92 % 15.99 C
2434 11-09-2004 05:03:52 17.2 C 92 % 15.89 C
2435 11-09-2004 05:15:52 17.1 C 92 % 15.79 C
2436 11-09-2004 05:27:52 17.2 C 93 % 16.06 C
2437 11-09-2004 05:39:52 16.9 C 93 % 15.76 C
2438 11-09-2004 05:51:52 16.8 C 93 % 15.66 C
2439 11-09-2004 06:03:52 16.9 C 94 % 15.93 C
2440 11-09-2004 06:15:52 16.9 C 94 % 15.93 C
2441 11-09-2004 06:27:52 16.8 C 94 % 15.83 C
2442 11-09-2004 06:39:52 16.8 C 94 % 15.83 C
2443 11-09-2004 06:51:51 16.7 C 94 % 15.73 C
2444 11-09-2004 07:03:51 16.6 C 94 % 15.63 C
2445 11-09-2004 07:15:51 16.9 C 94 % 15.93 C
2446 11-09-2004 07:27:51 17 C 94 % 16.03 C
2447 11-09-2004 07:39:51 17.1 C 94 % 16.13 C
2448 11-09-2004 07:51:52 17.1 C 93 % 15.96 C
2449 11-09-2004 08:03:52 17.1 C 93 % 15.96 C
2450 11-09-2004 08:15:01 17.5 C 92 % 16.19 C
Sensor: Nr:Datum:Temp:Feuchte:Taupunkt:
Aussen-T/F 2451 11-09-2004 08:27:01 17.9 C 91 % 16.41 C
2452 11-09-2004 08:39:01 18.7 C 85 % 16.13 C
2453 11-09-2004 08:51:01 18.9 C 83 % 15.95 C
2454 11-09-2004 09:03:01 19.1 C 81 % 15.76 C
2455 11-09-2004 09:15:01 19.1 C 81 % 15.76 C
2456 11-09-2004 09:27:01 19.4 C 81 % 16.06 C
2457 11-09-2004 09:39:01 19.5 C 80 % 15.96 C
2458 11-09-2004 09:51:01 19.9 C 79 % 16.15 C
2459 11-09-2004 10:03:00 20.3 C 78 % 16.34 C
2460 11-09-2004 10:15:00 20.4 C 76 % 16.03 C
2461 11-09-2004 10:27:00 20.4 C 75 % 15.82 C
2462 11-09-2004 10:39:00 20.7 C 73 % 15.69 C
2463 11-09-2004 10:51:00 20.5 C 74 % 15.71 C
2464 11-09-2004 11:03:00 20.8 C 72 % 15.57 C
2465 11-09-2004 11:15:00 21.1 C 70 % 15.42 C
2466 11-09-2004 11:27:00 21.5 C 68 % 15.35 C
2467 11-09-2004 11:39:00 21.8 C 67 % 15.4 C
2468 11-09-2004 11:51:00 21.9 C 65 % 15.02 C
2469 11-09-2004 12:03:00 22.2 C 64 % 15.07 C
2470 11-09-2004 12:15:00 22.5 C 62 % 14.86 C
2471 11-09-2004 12:27:00 22.8 C 62 % 15.14 C
2472 11-09-2004 12:39:01 23.1 C 59 % 14.65 C
2473 11-09-2004 12:51:00 23.4 C 57 % 14.4 C
2474 11-09-2004 13:03:00 23.3 C 55 % 13.76 C
2475 11-09-2004 13:15:00 23.5 C 55 % 13.94 C
Sensor: Nr:Datum:Temp:Feuchte:Taupunkt:
Aussen-T/F 2476 11-09-2004 13:27:00 23.3 C 54 % 13.47 C
2477 11-09-2004 13:39:00 23.7 C 53 % 13.56 C
2478 11-09-2004 13:51:00 24.1 C 51 % 13.34 C
2479 11-09-2004 14:03:00 24.2 C 51 % 13.43 C
2480 11-09-2004 14:15:00 24.5 C 50 % 13.4 C
2481 11-09-2004 14:27:00 24.8 C 46 % 12.4 C
2482 11-09-2004 14:39:00 25.2 C 46 % 12.76 C
2483 11-09-2004 14:51:00 25.2 C 46 % 12.76 C
2484 11-09-2004 15:03:00 24.5 C 48 % 12.77 C
2485 11-09-2004 15:15:59 24.4 C 48 % 12.68 C
2486 11-09-2004 15:27:59 24.8 C 47 % 12.73 C
2487 11-09-2004 15:39:59 24.3 C 48 % 12.59 C
2488 11-09-2004 15:50:59 24.6 C 49 % 13.18 C
2489 11-09-2004 16:03:00 24.1 C 49 % 12.72 C
2490 11-09-2004 16:15:00 24.3 C 48 % 12.59 C
2491 11-09-2004 16:27:00 24.7 C 48 % 12.96 C
2492 11-09-2004 16:39:00 24.6 C 46 % 12.22 C
2493 11-09-2004 16:51:00 24.6 C 45 % 11.88 C
2494 11-09-2004 17:03:00 24.7 C 45 % 11.97 C
2495 11-09-2004 17:15:00 24.1 C 46 % 11.76 C
2496 11-09-2004 17:27:00 24.1 C 46 % 11.76 C
2497 11-09-2004 17:39:00 23.9 C 46 % 11.58 C
2498 11-09-2004 17:51:59 23.7 C 47 % 11.73 C
2499 11-09-2004 18:03:59 23.5 C 48 % 11.86 C
2500 11-09-2004 18:15:59 23.8 C 48 % 12.14 C
Sensor: Nr:Datum:Temp:Feuchte:Taupunkt:
Aussen-T/F 2501 11-09-2004 18:27:59 23.6 C 48 % 11.95 C
2502 11-09-2004 18:39:00 23.8 C 46 % 11.49 C
2503 11-09-2004 18:51:59 23.9 C 47 % 11.91 C
2504 11-09-2004 19:03:59 23.7 C 47 % 11.73 C
2505 11-09-2004 19:15:00 23.2 C 53 % 13.09 C
2506 11-09-2004 19:27:00 22.3 C 57 % 13.37 C
2507 11-09-2004 19:39:01 21.7 C 61 % 13.85 C
2508 11-09-2004 19:51:00 21.3 C 63 % 13.97 C
2509 11-09-2004 20:03:00 20.9 C 62 % 13.35 C
2510 11-09-2004 20:15:00 20.7 C 63 % 13.41 C
2511 11-09-2004 20:27:00 20.4 C 62 % 12.88 C
2512 11-09-2004 20:39:00 20.5 C 61 % 12.73 C
2513 11-09-2004 20:51:00 20.5 C 61 % 12.73 C
2514 11-09-2004 21:03:01 20.3 C 62 % 12.79 C
2515 11-09-2004 21:15:00 20.1 C 63 % 12.84 C
2516 11-09-2004 21:27:00 20.1 C 63 % 12.84 C
2517 11-09-2004 21:39:59 20.1 C 63 % 12.84 C
2518 11-09-2004 21:51:59 20.3 C 62 % 12.79 C
2519 11-09-2004 22:03:59 20.4 C 63 % 13.12 C
2520 11-09-2004 22:15:59 20 C 65 % 13.22 C
2521 11-09-2004 22:27:59 19.8 C 67 % 13.5 C
2522 11-09-2004 22:39:59 19.7 C 67 % 13.4 C
2523 11-09-2004 22:51:59 19.8 C 67 % 13.5 C
2524 11-09-2004 23:03:59 19.7 C 68 % 13.63 C
2525 11-09-2004 23:15:59 19.6 C 69 % 13.76 C
Sensor: Nr:Datum:Temp:Feuchte:Taupunkt:
Aussen-T/F 2526 11-09-2004 23:27:59 19.5 C 69 % 13.66 C
2527 11-09-2004 23:39:59 19.5 C 70 % 13.89 C
2528 11-09-2004 23:51:59 19.5 C 69 % 13.66 C
2529 12-09-2004 00:03:59 19.8 C 67 % 13.5 C
2530 12-09-2004 00:15:59 20.2 C 62 % 12.69 C
2531 12-09-2004 00:27:59 20.1 C 64 % 13.08 C
2532 12-09-2004 00:39:59 20 C 64 % 12.99 C
2533 12-09-2004 00:51:59 19.8 C 66 % 13.27 C
2534 12-09-2004 01:03:59 19.7 C 68 % 13.63 C
2535 12-09-2004 01:15:59 19.2 C 72 % 14.03 C
2536 12-09-2004 01:28:00 19 C 73 % 14.05 C
2537 12-09-2004 01:39:59 18.9 C 74 % 14.17 C
2538 12-09-2004 01:51:59 18.9 C 74 % 14.17 C
2539 12-09-2004 02:03:59 18.8 C 74 % 14.07 C
2540 12-09-2004 02:15:58 18.8 C 74 % 14.07 C
2541 12-09-2004 02:27:58 18.8 C 75 % 14.28 C
2542 12-09-2004 02:39:58 18.7 C 74 % 13.97 C
2543 12-09-2004 02:52:00 18.9 C 74 % 14.17 C
2544 12-09-2004 03:04:00 18.9 C 73 % 13.96 C
2545 12-09-2004 03:16:00 18.2 C 78 % 14.3 C
2546 12-09-2004 03:28:00 17.9 C 82 % 14.78 C
2547 12-09-2004 03:40:00 17.9 C 81 % 14.59 C
2548 12-09-2004 03:52:01 17.3 C 84 % 14.57 C
2549 12-09-2004 04:04:00 16.9 C 87 % 14.72 C
2550 12-09-2004 04:16:00 16.8 C 87 % 14.62 C
Sensor: Nr:Datum:Temp:Feuchte:Taupunkt:
Aussen-T/F 2551 12-09-2004 04:28:00 17 C 86 % 14.64 C
2552 12-09-2004 04:40:00 17 C 87 % 14.82 C
2553 12-09-2004 04:52:59 17 C 86 % 14.64 C
2554 12-09-2004 05:04:59 16.9 C 82 % 13.81 C
2555 12-09-2004 05:15:59 16.6 C 79 % 12.95 C
2556 12-09-2004 05:27:59 16 C 77 % 11.97 C
2557 12-09-2004 05:40:00 15.9 C 80 % 12.46 C
2558 12-09-2004 05:52:00 15.6 C 79 % 11.97 C
2559 12-09-2004 06:04:00 15.2 C 80 % 11.78 C
2560 12-09-2004 06:16:00 14.8 C 82 % 11.76 C
2561 12-09-2004 06:28:01 14.6 C 83 % 11.75 C
2562 12-09-2004 06:40:00 14.5 C 84 % 11.83 C
2563 12-09-2004 06:52:00 14.3 C 85 % 11.81 C
2564 12-09-2004 07:04:00 14.1 C 86 % 11.8 C
2565 12-09-2004 07:16:59 13.9 C 88 % 11.95 C
2566 12-09-2004 07:28:59 14 C 88 % 12.05 C
2567 12-09-2004 07:40:59 14 C 88 % 12.05 C
2568 12-09-2004 07:52:59 14.1 C 88 % 12.14 C
2569 12-09-2004 08:04:59 14.1 C 87 % 11.97 C
2570 12-09-2004 08:16:00 14.2 C 86 % 11.89 C
2571 12-09-2004 08:28:00 14.3 C 84 % 11.64 C
2572 12-09-2004 08:40:59 14.7 C 84 % 12.03 C
2573 12-09-2004 08:51:59 14.7 C 83 % 11.85 C
2574 12-09-2004 09:04:00 14.8 C 81 % 11.57 C
2575 12-09-2004 09:16:00 15.4 C 76 % 11.19 C
Sensor: Nr:Datum:Temp:Feuchte:Taupunkt:
Aussen-T/F 2576 12-09-2004 09:28:00 15.7 C 74 % 11.08 C
2577 12-09-2004 09:40:00 15.8 C 72 % 10.77 C
2578 12-09-2004 09:52:00 15.5 C 74 % 10.89 C
2579 12-09-2004 10:04:59 15.6 C 73 % 10.78 C
2580 12-09-2004 10:16:59 16.3 C 70 % 10.82 C
2581 12-09-2004 10:28:59 16.6 C 57 % 8.06 C
2582 12-09-2004 10:40:59 16.5 C 52 % 6.62 C
2583 12-09-2004 10:52:59 16 C 54 % 6.71 C
2584 12-09-2004 11:04:59 16.8 C 54 % 7.45 C
2585 12-09-2004 11:16:01 16.5 C 51 % 6.34 C
2586 12-09-2004 11:28:01 17.2 C 47 % 5.8 C
2587 12-09-2004 11:40:01 16.8 C 49 % 6.04 C
2588 12-09-2004 11:52:01 18 C 46 % 6.22 C
2589 12-09-2004 12:04:01 17.9 C 45 % 5.81 C
2590 12-09-2004 12:16:01 17.4 C 46 % 5.67 C
2591 12-09-2004 12:28:01 17.7 C 46 % 5.95 C
2592 12-09-2004 12:40:00 18 C 44 % 5.58 C
2593 12-09-2004 12:52:00 18.3 C 41 % 4.83 C
2594 12-09-2004 13:04:00 17.9 C 43 % 5.16 C
2595 12-09-2004 13:16:00 18.3 C 44 % 5.85 C
2596 12-09-2004 13:28:00 18.7 C 41 % 5.19 C
2597 12-09-2004 13:40:00 18.9 C 42 % 5.72 C
2598 12-09-2004 13:52:00 18.9 C 41 % 5.37 C
2599 12-09-2004 14:04:01 18.4 C 42 % 5.27 C
2600 12-09-2004 14:16:01 19.2 C 38 % 4.55 C
Sensor: Nr:Datum:Temp:Feuchte:Taupunkt:
Aussen-T/F 2601 12-09-2004 14:28:01 19 C 37 % 4 C
2602 12-09-2004 14:40:01 20.4 C 35 % 4.44 C
2603 12-09-2004 14:52:00 21 C 32 % 3.69 C
2604 12-09-2004 15:04:00 21.2 C 33 % 4.3 C
2605 12-09-2004 15:16:00 20.8 C 34 % 4.38 C
2606 12-09-2004 15:28:00 20.5 C 35 % 4.53 C
2607 12-09-2004 15:40:01 20.7 C 31 % 2.98 C
2608 12-09-2004 15:52:01 19.7 C 36 % 4.23 C
2609 12-09-2004 16:04:01 19.7 C 36 % 4.23 C
2610 12-09-2004 16:16:01 19.4 C 37 % 4.35 C
2611 12-09-2004 16:28:01 18.8 C 40 % 4.93 C
2612 12-09-2004 16:40:00 18.2 C 41 % 4.75 C
2613 12-09-2004 16:52:00 18 C 42 % 4.91 C
2614 12-09-2004 17:04:00 18.9 C 44 % 6.39 C
2615 12-09-2004 17:16:00 19.8 C 38 % 5.09 C
2616 12-09-2004 17:28:00 20 C 38 % 5.26 C
2617 12-09-2004 17:40:00 19.7 C 38 % 5 C
2618 12-09-2004 17:52:00 19.9 C 39 % 5.55 C
2619 12-09-2004 18:04:00 19.1 C 41 % 5.55 C
2620 12-09-2004 18:16:00 18.7 C 41 % 5.19 C
2621 12-09-2004 18:28:00 18.4 C 43 % 5.61 C
2622 12-09-2004 18:40:00 18.3 C 45 % 6.17 C
2623 12-09-2004 18:52:00 18.9 C 45 % 6.72 C
2624 12-09-2004 19:04:59 19.2 C 45 % 6.99 C
2625 12-09-2004 19:16:00 18.2 C 46 % 6.4 C
Sensor: Nr:Datum:Temp:Feuchte:Taupunkt:
Aussen-T/F 2626 12-09-2004 19:28:00 17.5 C 48 % 6.38 C
2627 12-09-2004 19:40:00 17 C 50 % 6.51 C
2628 12-09-2004 19:52:00 16.6 C 52 % 6.71 C
2629 12-09-2004 20:04:00 16.3 C 54 % 6.98 C
2630 12-09-2004 20:16:00 15.8 C 58 % 7.56 C
2631 12-09-2004 20:28:00 15.5 C 59 % 7.53 C
2632 12-09-2004 20:40:00 15.2 C 60 % 7.5 C
2633 12-09-2004 20:52:00 15.1 C 62 % 7.88 C
2634 12-09-2004 21:04:00 15.1 C 62 % 7.88 C
2635 12-09-2004 21:16:00 15 C 63 % 8.02 C
2636 12-09-2004 21:28:00 14.8 C 65 % 8.29 C
2637 12-09-2004 21:40:00 14.8 C 65 % 8.29 C
2638 12-09-2004 21:52:59 14.8 C 66 % 8.52 C
2639 12-09-2004 22:04:59 14.5 C 67 % 8.45 C
2640 12-09-2004 22:16:59 14.4 C 68 % 8.58 C
2641 12-09-2004 22:28:59 14.5 C 68 % 8.67 C
2642 12-09-2004 22:40:59 14.6 C 69 % 8.98 C
2643 12-09-2004 22:51:59 14.6 C 69 % 8.98 C
2644 12-09-2004 23:04:00 14.5 C 69 % 8.89 C
2645 12-09-2004 23:16:00 14.4 C 69 % 8.79 C
2646 12-09-2004 23:28:00 14.2 C 70 % 8.81 C
2647 12-09-2004 23:40:00 14 C 70 % 8.62 C
2648 12-09-2004 23:52:00 13.9 C 71 % 8.73 C
2649 13-09-2004 00:04:00 13.9 C 71 % 8.73 C
2650 13-09-2004 00:16:00 13.7 C 72 % 8.75 C
Sensor: Nr:Datum:Temp:Feuchte:Taupunkt:
Aussen-T/F 2651 13-09-2004 00:28:00 13.5 C 72 % 8.56 C
2652 13-09-2004 00:40:00 13.3 C 71 % 8.16 C
2653 13-09-2004 00:52:00 13.1 C 72 % 8.17 C
2654 13-09-2004 01:04:59 13 C 72 % 8.08 C
2655 13-09-2004 01:16:59 13 C 72 % 8.08 C
2656 13-09-2004 01:28:59 13.1 C 72 % 8.17 C
2657 13-09-2004 01:40:59 13.2 C 72 % 8.27 C
2658 13-09-2004 01:52:59 13.1 C 72 % 8.17 C
2659 13-09-2004 02:04:59 13.1 C 72 % 8.17 C
2660 13-09-2004 02:16:59 13.1 C 72 % 8.17 C
2661 13-09-2004 02:28:59 13.2 C 73 % 8.47 C
2662 13-09-2004 02:40:59 13.2 C 72 % 8.27 C
2663 13-09-2004 02:53:01 13.4 C 72 % 8.46 C
2664 13-09-2004 03:05:01 13.4 C 72 % 8.46 C
2665 13-09-2004 03:17:01 13.2 C 72 % 8.27 C
2666 13-09-2004 03:29:01 13.1 C 71 % 7.97 C
2667 13-09-2004 03:41:00 13 C 71 % 7.87 C
2668 13-09-2004 03:53:00 12.9 C 72 % 7.98 C
2669 13-09-2004 04:05:00 13 C 71 % 7.87 C
2670 13-09-2004 04:17:00 13 C 71 % 7.87 C
2671 13-09-2004 04:29:00 13 C 70 % 7.66 C
2672 13-09-2004 04:41:00 12.9 C 72 % 7.98 C
2673 13-09-2004 04:53:00 12.9 C 71 % 7.78 C
2674 13-09-2004 05:05:01 13 C 71 % 7.87 C
2675 13-09-2004 05:17:01 13 C 71 % 7.87 C
Sensor: Nr:Datum:Temp:Feuchte:Taupunkt:
Aussen-T/F 2676 13-09-2004 05:29:01 13 C 70 % 7.66 C
2677 13-09-2004 05:41:01 13.1 C 71 % 7.97 C
2678 13-09-2004 05:53:01 13.1 C 71 % 7.97 C
2679 13-09-2004 06:05:00 13.1 C 71 % 7.97 C
2680 13-09-2004 06:17:00 13.1 C 71 % 7.97 C
2681 13-09-2004 06:29:00 13.1 C 71 % 7.97 C
2682 13-09-2004 06:41:00 13.1 C 72 % 8.17 C
2683 13-09-2004 06:53:00 13.1 C 71 % 7.97 C
2684 13-09-2004 07:05:00 13 C 72 % 8.08 C
2685 13-09-2004 07:17:00 13 C 73 % 8.28 C
2686 13-09-2004 07:29:00 13.1 C 73 % 8.38 C
2687 13-09-2004 07:41:00 13.2 C 73 % 8.47 C
2688 13-09-2004 07:53:00 13.3 C 72 % 8.36 C
2689 13-09-2004 08:05:00 13.6 C 72 % 8.65 C
2690 13-09-2004 08:17:00 13.5 C 72 % 8.56 C
2691 13-09-2004 08:29:00 13.7 C 72 % 8.75 C
2692 13-09-2004 08:41:00 14 C 72 % 9.04 C
2693 13-09-2004 08:53:00 14.5 C 73 % 9.72 C
2694 13-09-2004 09:05:00 14.9 C 70 % 9.48 C
2695 13-09-2004 09:17:00 15.1 C 68 % 9.24 C
2696 13-09-2004 09:29:00 15.2 C 69 % 9.56 C
2697 13-09-2004 09:41:00 15.2 C 72 % 10.19 C
2698 13-09-2004 09:53:00 15.1 C 71 % 9.89 C
2699 13-09-2004 10:05:00 15.1 C 70 % 9.67 C
2700 13-09-2004 10:17:00 15.2 C 70 % 9.77 C
Sensor: Nr:Datum:Temp:Feuchte:Taupunkt:
Aussen-T/F 2701 13-09-2004 10:29:00 15.5 C 70 % 10.06 C
2702 13-09-2004 10:41:00 15.9 C 71 % 10.65 C
2703 13-09-2004 10:53:00 16.2 C 66 % 9.85 C
2704 13-09-2004 11:05:59 17 C 61 % 9.43 C
2705 13-09-2004 11:17:59 17.4 C 60 % 9.56 C
2706 13-09-2004 11:29:59 18.2 C 57 % 9.55 C
2707 13-09-2004 11:41:59 18.9 C 54 % 9.4 C
2708 13-09-2004 11:53:00 18.9 C 54 % 9.4 C
2709 13-09-2004 12:05:00 19.1 C 53 % 9.3 C
2710 13-09-2004 12:17:00 19.3 C 53 % 9.49 C
2711 13-09-2004 12:29:00 19.5 C 54 % 9.95 C
2712 13-09-2004 12:41:00 19.2 C 52 % 9.11 C
2713 13-09-2004 12:53:00 18.9 C 55 % 9.67 C
2714 13-09-2004 13:05:00 18.6 C 56 % 9.66 C
2715 13-09-2004 13:17:00 18.6 C 54 % 9.12 C
2716 13-09-2004 13:29:00 18.5 C 55 % 9.3 C
2717 13-09-2004 13:41:59 18.5 C 55 % 9.3 C
2718 13-09-2004 13:53:59 18.8 C 55 % 9.58 C
2719 13-09-2004 14:05:59 19.2 C 55 % 9.95 C
2720 13-09-2004 14:17:59 19.3 C 55 % 10.04 C
2721 13-09-2004 14:29:59 19.5 C 51 % 9.1 C
2722 13-09-2004 14:41:59 20.1 C 49 % 9.06 C
2723 13-09-2004 14:53:59 20.9 C 47 % 9.17 C
2724 13-09-2004 15:04:59 21.6 C 45 % 9.17 C
2725 13-09-2004 15:17:00 22.2 C 44 % 9.38 C
Sensor: Nr:Datum:Temp:Feuchte:Taupunkt:
Aussen-T/F 2726 13-09-2004 15:29:00 22.1 C 44 % 9.29 C
2727 13-09-2004 15:41:00 22.2 C 45 % 9.71 C
2728 13-09-2004 15:53:00 21.7 C 45 % 9.26 C
2729 13-09-2004 16:05:59 22.3 C 45 % 9.8 C
2730 13-09-2004 16:17:59 23 C 41 % 9.05 C
2731 13-09-2004 16:29:59 22.6 C 40 % 8.33 C
2732 13-09-2004 16:41:59 22.6 C 40 % 8.33 C
2733 13-09-2004 16:53:59 22.4 C 39 % 7.78 C
2734 13-09-2004 17:05:59 22.9 C 40 % 8.59 C
2735 13-09-2004 17:17:59 22.8 C 41 % 8.87 C
2736 13-09-2004 17:29:59 22.1 C 42 % 8.6 C
2737 13-09-2004 17:41:59 21.6 C 45 % 9.17 C
2738 13-09-2004 17:53:59 21.6 C 46 % 9.49 C
2739 13-09-2004 18:05:59 22.5 C 46 % 10.31 C
2740 13-09-2004 18:17:59 23.1 C 42 % 9.5 C
2741 13-09-2004 18:28:59 22.8 C 45 % 10.25 C
2742 13-09-2004 18:41:59 22.8 C 46 % 10.58 C
2743 13-09-2004 18:53:59 22.2 C 47 % 10.36 C
2744 13-09-2004 19:05:00 21.9 C 51 % 11.31 C
2745 13-09-2004 19:17:59 21.6 C 51 % 11.04 C
2746 13-09-2004 19:29:59 21.1 C 51 % 10.58 C
2747 13-09-2004 19:41:59 20.7 C 53 % 10.78 C
2748 13-09-2004 19:53:59 20.3 C 55 % 10.97 C
2749 13-09-2004 20:05:59 20 C 55 % 10.69 C
2750 13-09-2004 20:17:59 19.7 C 56 % 10.68 C
Sensor: Nr:Datum:Temp:Feuchte:Taupunkt:
Aussen-T/F 2751 13-09-2004 20:29:59 19.4 C 56 % 10.4 C
2752 13-09-2004 20:41:59 19.1 C 58 % 10.65 C
2753 13-09-2004 20:53:59 18.9 C 60 % 10.97 C
2754 13-09-2004 21:04:59 18.8 C 61 % 11.13 C
2755 13-09-2004 21:17:58 18.8 C 60 % 10.88 C
2756 13-09-2004 21:29:58 18.7 C 61 % 11.03 C
2757 13-09-2004 21:41:58 18.5 C 63 % 11.33 C
2758 13-09-2004 21:53:58 18.5 C 64 % 11.57 C
2759 13-09-2004 22:05:58 18.5 C 64 % 11.57 C
2760 13-09-2004 22:17:59 18.5 C 64 % 11.57 C
2761 13-09-2004 22:29:59 18.5 C 64 % 11.57 C
2762 13-09-2004 22:41:59 18.4 C 64 % 11.47 C
2763 13-09-2004 22:53:59 18.3 C 66 % 11.84 C
2764 13-09-2004 23:05:59 17.8 C 57 % 9.18 C
2765 13-09-2004 23:17:59 17.4 C 55 % 8.28 C
2766 13-09-2004 23:29:59 17.2 C 55 % 8.09 C
2767 13-09-2004 23:41:59 17.1 C 57 % 8.52 C
2768 13-09-2004 23:53:58 16.9 C 58 % 8.59 C
2769 14-09-2004 00:05:58 16.8 C 60 % 9 C
2770 14-09-2004 00:17:59 16.6 C 59 % 8.56 C
2771 14-09-2004 00:29:59 16.5 C 60 % 8.72 C
2772 14-09-2004 00:41:58 16.4 C 60 % 8.62 C
2773 14-09-2004 00:53:58 16.2 C 60 % 8.43 C
2774 14-09-2004 01:05:58 16.1 C 61 % 8.58 C
2775 14-09-2004 01:17:59 16.1 C 62 % 8.82 C
Sensor: Nr:Datum:Temp:Feuchte:Taupunkt:
Aussen-T/F 2776 14-09-2004 01:29:59 16.1 C 61 % 8.58 C
2777 14-09-2004 01:41:59 16.2 C 63 % 9.16 C
2778 14-09-2004 01:53:59 16.1 C 64 % 9.29 C
2779 14-09-2004 02:05:58 16 C 64 % 9.2 C
2780 14-09-2004 02:17:58 16 C 67 % 9.88 C
2781 14-09-2004 02:29:58 15.9 C 70 % 10.44 C
2782 14-09-2004 02:41:58 15.8 C 68 % 9.91 C
2783 14-09-2004 02:54:00 15.7 C 69 % 10.03 C
2784 14-09-2004 03:06:00 15.6 C 70 % 10.15 C
2785 14-09-2004 03:18:00 15.3 C 71 % 10.08 C
2786 14-09-2004 03:30:00 15.2 C 71 % 9.98 C
2787 14-09-2004 03:42:00 15.2 C 71 % 9.98 C
2788 14-09-2004 03:54:00 15.1 C 71 % 9.89 C
2789 14-09-2004 04:06:00 15.2 C 73 % 10.4 C
2790 14-09-2004 04:18:00 15.9 C 70 % 10.44 C
2791 14-09-2004 04:30:00 16 C 68 % 10.1 C
2792 14-09-2004 04:42:59 16 C 67 % 9.88 C
2793 14-09-2004 04:54:59 16 C 67 % 9.88 C
2794 14-09-2004 05:06:59 15.6 C 69 % 9.94 C
2795 14-09-2004 05:18:59 15.3 C 70 % 9.87 C
2796 14-09-2004 05:30:59 15 C 71 % 9.79 C
2797 14-09-2004 05:42:59 14.8 C 72 % 9.81 C
2798 14-09-2004 05:54:59 14.4 C 73 % 9.63 C
2799 14-09-2004 06:05:59 14.1 C 74 % 9.54 C
2800 14-09-2004 06:30:00 13.8 C 76 % 9.65 C
Sensor: Nr:Datum:Temp:Feuchte:Taupunkt:
Aussen-T/F 2801 14-09-2004 06:42:00 13.7 C 76 % 9.55 C
2802 14-09-2004 06:54:59 13.7 C 77 % 9.75 C
2803 14-09-2004 07:06:59 14 C 76 % 9.84 C
2804 14-09-2004 07:18:59 13.9 C 77 % 9.94 C
2805 14-09-2004 07:30:59 14 C 77 % 10.04 C
2806 14-09-2004 07:42:59 14 C 76 % 9.84 C
2807 14-09-2004 07:54:01 14.1 C 77 % 10.13 C
2808 14-09-2004 08:06:02 14 C 77 % 10.04 C
2809 14-09-2004 08:18:04 14.2 C 78 % 10.42 C
2810 14-09-2004 08:30:04 14.1 C 77 % 10.13 C
2811 14-09-2004 08:42:05 14.4 C 77 % 10.42 C
2812 14-09-2004 08:54:01 15 C 72 % 10 C
2813 14-09-2004 09:06:01 15.2 C 70 % 9.77 C
2814 14-09-2004 09:18:01 15.4 C 69 % 9.75 C
2815 14-09-2004 09:30:01 15.6 C 67 % 9.5 C
2816 14-09-2004 09:42:01 15.9 C 66 % 9.56 C
2817 14-09-2004 09:54:02 16 C 64 % 9.2 C
2818 14-09-2004 10:06:02 16.2 C 62 % 8.92 C
2819 14-09-2004 10:18:02 16.4 C 57 % 7.87 C
2820 14-09-2004 10:30:02 16.6 C 59 % 8.56 C
2821 14-09-2004 10:42:02 16.5 C 58 % 8.22 C
2822 14-09-2004 10:54:01 16.8 C 56 % 7.98 C
2823 14-09-2004 11:06:01 16.2 C 56 % 7.42 C
2824 14-09-2004 11:18:01 16.9 C 55 % 7.81 C
2825 14-09-2004 11:30:01 17 C 54 % 7.63 C
Sensor: Nr:Datum:Temp:Feuchte:Taupunkt:
Aussen-T/F 2826 14-09-2004 11:42:01 17.6 C 52 % 7.64 C
2827 14-09-2004 11:54:01 18.4 C 48 % 7.2 C
2828 14-09-2004 12:06:01 18.1 C 48 % 6.93 C
2829 14-09-2004 12:18:01 18.4 C 47 % 6.9 C
2830 14-09-2004 12:30:01 18.7 C 45 % 6.54 C
2831 14-09-2004 12:42:01 19.2 C 45 % 6.99 C
2832 14-09-2004 12:54:01 19.7 C 43 % 6.78 C
2833 14-09-2004 13:06:02 20.1 C 40 % 6.09 C
2834 14-09-2004 13:18:02 20.6 C 38 % 5.8 C
2835 14-09-2004 13:30:02 21.1 C 36 % 5.46 C
2836 14-09-2004 13:42:02 21.2 C 38 % 6.33 C
2837 14-09-2004 13:54:01 21.1 C 37 % 5.86 C
2838 14-09-2004 14:06:01 21.5 C 36 % 5.81 C
2839 14-09-2004 14:18:01 21.4 C 35 % 5.32 C
2840 14-09-2004 14:30:01 21.5 C 37 % 6.21 C
2841 14-09-2004 14:42:01 20.9 C 38 % 6.06 C
2842 14-09-2004 14:54:01 21.1 C 37 % 5.86 C
2843 14-09-2004 15:06:01 20.8 C 39 % 6.35 C
2844 14-09-2004 15:18:01 21.2 C 39 % 6.71 C
2845 14-09-2004 15:30:01 21.6 C 39 % 7.06 C
2846 14-09-2004 15:42:01 22.2 C 36 % 6.43 C
2847 14-09-2004 15:54:01 21.5 C 37 % 6.21 C
2848 14-09-2004 16:06:01 22 C 35 % 5.85 C
2849 14-09-2004 16:18:02 21.8 C 36 % 6.08 C
2850 14-09-2004 16:30:02 21.8 C 37 % 6.48 C
Sensor: Nr:Datum:Temp:Feuchte:Taupunkt:
Aussen-T/F 2851 14-09-2004 16:42:02 21.3 C 37 % 6.03 C
2852 14-09-2004 16:54:01 21 C 37 % 5.77 C
2853 14-09-2004 17:06:01 21.7 C 37 % 6.39 C
2854 14-09-2004 17:18:01 22 C 36 % 6.26 C
2855 14-09-2004 17:30:01 21.9 C 37 % 6.56 C
2856 14-09-2004 17:42:01 20.8 C 38 % 5.97 C
2857 14-09-2004 17:54:01 20.5 C 40 % 6.45 C
2858 14-09-2004 18:06:01 20.2 C 40 % 6.18 C
2859 14-09-2004 18:18:01 20.1 C 41 % 6.45 C
2860 14-09-2004 18:30:01 20.1 C 42 % 6.8 C
2861 14-09-2004 18:42:00 20 C 42 % 6.71 C
2862 14-09-2004 18:54:01 19.9 C 43 % 6.96 C
2863 14-09-2004 19:06:01 20.4 C 42 % 7.07 C
2864 14-09-2004 19:18:02 20.8 C 42 % 7.43 C
2865 14-09-2004 19:30:02 20.2 C 43 % 7.23 C
2866 14-09-2004 19:42:02 19.5 C 45 % 7.26 C
2867 14-09-2004 19:54:02 19.1 C 45 % 6.9 C
2868 14-09-2004 20:06:03 18.7 C 48 % 7.48 C
2869 14-09-2004 20:18:02 18.6 C 49 % 7.69 C
2870 14-09-2004 20:30:02 18.1 C 51 % 7.81 C
2871 14-09-2004 20:42:02 18.3 C 53 % 8.56 C
2872 14-09-2004 20:54:01 18.1 C 52 % 8.1 C
2873 14-09-2004 21:06:01 17.7 C 55 % 8.55 C
2874 14-09-2004 21:18:01 17.5 C 55 % 8.37 C
2875 14-09-2004 21:30:01 17.2 C 58 % 8.87 C
Sensor: Nr:Datum:Temp:Feuchte:Taupunkt:
Aussen-T/F 2876 14-09-2004 21:42:01 16.9 C 60 % 9.09 C
2877 14-09-2004 21:54:01 16.7 C 61 % 9.15 C
2878 14-09-2004 22:06:01 16.5 C 62 % 9.2 C
2879 14-09-2004 22:18:01 16.4 C 62 % 9.11 C
2880 14-09-2004 22:30:01 16.2 C 62 % 8.92 C
2881 14-09-2004 22:42:01 15.9 C 64 % 9.11 C
2882 14-09-2004 22:54:01 15.8 C 65 % 9.24 C
2883 14-09-2004 23:06:01 15.5 C 66 % 9.18 C
2884 14-09-2004 23:18:01 15.2 C 68 % 9.34 C
2885 14-09-2004 23:30:01 14.9 C 70 % 9.48 C
2886 14-09-2004 23:42:02 14.6 C 71 % 9.41 C
2887 14-09-2004 23:54:01 14.5 C 72 % 9.52 C
2888 15-09-2004 00:06:01 14.4 C 73 % 9.63 C
2889 15-09-2004 00:18:00 14.3 C 73 % 9.53 C
2890 15-09-2004 00:30:00 14.4 C 73 % 9.63 C
2891 15-09-2004 00:42:00 14 C 74 % 9.44 C
2892 15-09-2004 00:54:01 13.9 C 76 % 9.74 C
2893 15-09-2004 01:06:01 13.9 C 76 % 9.74 C
2894 15-09-2004 01:18:01 13.6 C 76 % 9.45 C
2895 15-09-2004 01:30:01 13.4 C 77 % 9.45 C
2896 15-09-2004 01:42:01 13.3 C 78 % 9.55 C
2897 15-09-2004 01:54:01 13.2 C 79 % 9.64 C
2898 15-09-2004 02:06:02 13 C 79 % 9.45 C
2899 15-09-2004 02:18:02 13.2 C 79 % 9.64 C
2900 15-09-2004 02:30:02 13.3 C 79 % 9.74 C
Sensor: Nr:Datum:Temp:Feuchte:Taupunkt:
Aussen-T/F 2901 15-09-2004 02:42:02 12.8 C 80 % 9.44 C
2902 15-09-2004 02:54:01 12.7 C 81 % 9.53 C
2903 15-09-2004 03:06:01 12.7 C 82 % 9.71 C
2904 15-09-2004 03:18:01 12.6 C 82 % 9.61 C
2905 15-09-2004 03:30:01 12.5 C 82 % 9.51 C
2906 15-09-2004 03:42:00 12.5 C 83 % 9.69 C
2907 15-09-2004 03:54:00 12.3 C 83 % 9.5 C
2908 15-09-2004 04:06:00 12.1 C 83 % 9.3 C
2909 15-09-2004 04:18:00 12 C 83 % 9.21 C
2910 15-09-2004 04:30:00 11.8 C 85 % 9.36 C
2911 15-09-2004 04:42:00 11.7 C 85 % 9.27 C
2912 15-09-2004 04:54:00 11.7 C 86 % 9.44 C
2913 15-09-2004 05:06:00 11.8 C 85 % 9.36 C
2914 15-09-2004 05:18:00 11.9 C 85 % 9.46 C
2915 15-09-2004 05:30:00 11.7 C 85 % 9.27 C
2916 15-09-2004 05:42:01 11.5 C 86 % 9.24 C
2917 15-09-2004 05:54:01 11.5 C 87 % 9.41 C
2918 15-09-2004 06:06:01 11.5 C 87 % 9.41 C
2919 15-09-2004 06:18:01 11.6 C 86 % 9.34 C
2920 15-09-2004 06:30:01 11.6 C 85 % 9.17 C
2921 15-09-2004 06:42:01 11.5 C 85 % 9.07 C
2922 15-09-2004 06:54:01 11.7 C 85 % 9.27 C
2923 15-09-2004 07:06:00 11.8 C 84 % 9.19 C
2924 15-09-2004 07:18:00 12 C 82 % 9.03 C
2925 15-09-2004 07:30:00 12.2 C 80 % 8.86 C
Sensor: Nr:Datum:Temp:Feuchte:Taupunkt:
Aussen-T/F 2926 15-09-2004 07:42:00 12.4 C 79 % 8.86 C
2927 15-09-2004 07:54:00 12.4 C 79 % 8.86 C
2928 15-09-2004 08:06:00 12.4 C 79 % 8.86 C
2929 15-09-2004 08:18:00 12.6 C 78 % 8.87 C
2930 15-09-2004 08:30:00 12.8 C 76 % 8.68 C
2931 15-09-2004 08:42:00 13 C 74 % 8.48 C
2932 15-09-2004 08:54:00 13.5 C 73 % 8.76 C
2933 15-09-2004 09:06:00 13.5 C 72 % 8.56 C
2934 15-09-2004 09:18:01 13.5 C 73 % 8.76 C
2935 15-09-2004 09:30:01 13.8 C 73 % 9.05 C
2936 15-09-2004 09:42:01 14.2 C 70 % 8.81 C
2937 15-09-2004 09:54:01 14.2 C 69 % 8.6 C
2938 15-09-2004 10:06:01 14.4 C 67 % 8.36 C
2939 15-09-2004 10:18:00 14.6 C 67 % 8.55 C
2940 15-09-2004 10:30:00 14.5 C 67 % 8.45 C
2941 15-09-2004 10:42:00 14.7 C 66 % 8.42 C
2942 15-09-2004 10:54:00 15.2 C 64 % 8.44 C
2943 15-09-2004 11:06:00 15.8 C 60 % 8.06 C
2944 15-09-2004 11:18:00 16.2 C 59 % 8.19 C
2945 15-09-2004 11:30:00 16.4 C 58 % 8.12 C
2946 15-09-2004 11:42:00 16.7 C 57 % 8.15 C
2947 15-09-2004 11:54:00 16.8 C 57 % 8.24 C
2948 15-09-2004 12:06:00 15.4 C 68 % 9.53 C
2949 15-09-2004 12:18:00 14.6 C 76 % 10.42 C
2950 15-09-2004 12:30:00 14.9 C 77 % 10.91 C
Sensor: Nr:Datum:Temp:Feuchte:Taupunkt:
Aussen-T/F 2951 15-09-2004 12:42:01 15.6 C 72 % 10.57 C
2952 15-09-2004 12:54:01 16.2 C 67 % 10.07 C
2953 15-09-2004 13:06:01 16.6 C 64 % 9.77 C
2954 15-09-2004 13:18:01 16.8 C 61 % 9.24 C
2955 15-09-2004 13:30:01 16.8 C 58 % 8.5 C
2956 15-09-2004 13:42:01 16.8 C 58 % 8.5 C
2957 15-09-2004 13:54:00 17 C 55 % 7.9 C
2958 15-09-2004 14:06:00 17.2 C 55 % 8.09 C
2959 15-09-2004 14:18:00 17.5 C 56 % 8.63 C
2960 15-09-2004 14:30:00 17.5 C 55 % 8.37 C
2961 15-09-2004 14:42:00 17.5 C 45 % 5.45 C
2962 15-09-2004 14:54:00 17 C 46 % 5.31 C
2963 15-09-2004 15:06:00 18 C 43 % 5.25 C
2964 15-09-2004 15:18:00 19.1 C 37 % 4.08 C
2965 15-09-2004 15:30:00 19.6 C 34 % 3.33 C
2966 15-09-2004 15:42:00 19.8 C 30 % 1.74 C
2967 15-09-2004 15:54:01 19.3 C 31 % 1.77 C
2968 15-09-2004 16:06:01 19.9 C 31 % 2.29 C
2969 15-09-2004 16:18:01 19.8 C 31 % 2.2 C
2970 15-09-2004 16:30:01 19.4 C 32 % 2.3 C
2971 15-09-2004 16:42:01 19.7 C 32 % 2.56 C
2972 15-09-2004 16:54:00 20.3 C 32 % 3.08 C
2973 15-09-2004 17:06:00 20 C 33 % 3.26 C
2974 15-09-2004 17:18:00 20.3 C 33 % 3.52 C
2975 15-09-2004 17:30:00 19.2 C 37 % 4.17 C
Sensor: Nr:Datum:Temp:Feuchte:Taupunkt:
Aussen-T/F 2976 15-09-2004 17:42:00 17.9 C 45 % 5.81 C
2977 15-09-2004 17:54:00 18.2 C 45 % 6.08 C
2978 15-09-2004 18:06:00 18.6 C 41 % 5.1 C
2979 15-09-2004 18:18:00 18.5 C 41 % 5.01 C
2980 15-09-2004 18:30:00 18.6 C 42 % 5.45 C
2981 15-09-2004 18:42:00 17.4 C 45 % 5.36 C
2982 15-09-2004 18:54:00 16.6 C 47 % 5.25 C
2983 15-09-2004 19:06:01 16.8 C 47 % 5.44 C
2984 15-09-2004 19:18:01 17.1 C 47 % 5.71 C
2985 15-09-2004 19:30:01 16.3 C 49 % 5.58 C
2986 15-09-2004 19:42:01 15.5 C 51 % 5.42 C
2987 15-09-2004 19:54:01 15.1 C 51 % 5.05 C
2988 15-09-2004 20:06:01 14.7 C 55 % 5.76 C
2989 15-09-2004 20:18:00 14.1 C 57 % 5.72 C
2990 15-09-2004 20:30:00 13.8 C 59 % 5.94 C
2991 15-09-2004 20:42:00 13.7 C 60 % 6.09 C
2992 15-09-2004 20:54:00 13.5 C 61 % 6.14 C
2993 15-09-2004 21:06:00 13.2 C 63 % 6.32 C
2994 15-09-2004 21:18:00 13 C 63 % 6.13 C
2995 15-09-2004 21:30:00 12.7 C 66 % 6.52 C
2996 15-09-2004 21:42:00 12.5 C 67 % 6.55 C
2997 15-09-2004 21:54:00 12.3 C 68 % 6.57 C
2998 15-09-2004 22:06:00 12 C 69 % 6.5 C
2999 15-09-2004 22:18:00 11.9 C 71 % 6.82 C
3000 15-09-2004 22:30:01 11.7 C 73 % 7.03 C
Sensor: Nr:Datum:Temp:Feuchte:Taupunkt:
Aussen-T/F 3001 15-09-2004 22:42:01 11.4 C 71 % 6.34 C
3002 15-09-2004 22:54:01 11.2 C 73 % 6.55 C
3003 15-09-2004 23:06:01 11.1 C 73 % 6.45 C
3004 15-09-2004 23:18:01 10.9 C 74 % 6.45 C
3005 15-09-2004 23:30:01 10.8 C 75 % 6.55 C
3006 15-09-2004 23:42:00 10.6 C 76 % 6.55 C
3007 15-09-2004 23:54:00 10.5 C 76 % 6.45 C
3008 16-09-2004 00:06:00 10.3 C 77 % 6.45 C
3009 16-09-2004 00:18:01 10.2 C 78 % 6.54 C
3010 16-09-2004 00:30:01 9.8 C 80 % 6.52 C
3011 16-09-2004 00:42:01 9.8 C 81 % 6.7 C
3012 16-09-2004 00:54:01 9.5 C 81 % 6.41 C
3013 16-09-2004 01:06:00 9.5 C 82 % 6.59 C
3014 16-09-2004 01:18:00 9.5 C 82 % 6.59 C
3015 16-09-2004 01:30:00 9.7 C 81 % 6.6 C
3016 16-09-2004 01:42:00 10 C 79 % 6.53 C
3017 16-09-2004 01:54:00 9.8 C 80 % 6.52 C
3018 16-09-2004 02:06:00 9.6 C 81 % 6.5 C
3019 16-09-2004 02:18:00 9.5 C 81 % 6.41 C
3020 16-09-2004 02:30:00 9.5 C 81 % 6.41 C
3021 16-09-2004 02:42:00 9.1 C 82 % 6.19 C
3022 16-09-2004 02:55:03 8.8 C 84 % 6.25 C
3023 16-09-2004 03:07:03 8.6 C 85 % 6.23 C
3024 16-09-2004 03:19:04 8.5 C 86 % 6.3 C
3025 16-09-2004 03:31:01 8.4 C 86 % 6.2 C
Sensor: Nr:Datum:Temp:Feuchte:Taupunkt:
Aussen-T/F 3026 16-09-2004 03:43:01 8.2 C 87 % 6.17 C
3027 16-09-2004 03:55:01 8.1 C 87 % 6.07 C
3028 16-09-2004 04:07:01 8 C 87 % 5.97 C
3029 16-09-2004 04:19:01 8 C 88 % 6.14 C
3030 16-09-2004 04:31:00 7.9 C 89 % 6.2 C
3031 16-09-2004 04:43:00 7.7 C 89 % 6 C
3032 16-09-2004 04:55:01 7.6 C 89 % 5.91 C
3033 16-09-2004 05:07:01 7.6 C 90 % 6.07 C
3034 16-09-2004 05:19:01 7.4 C 90 % 5.87 C
3035 16-09-2004 05:31:00 7.2 C 90 % 5.67 C
3036 16-09-2004 05:43:00 7.1 C 90 % 5.57 C
3037 16-09-2004 05:55:01 7.2 C 90 % 5.67 C
3038 16-09-2004 06:07:01 7 C 91 % 5.63 C
3039 16-09-2004 06:19:00 6.9 C 91 % 5.54 C
3040 16-09-2004 06:31:00 6.9 C 91 % 5.54 C
3041 16-09-2004 06:43:00 6.8 C 91 % 5.44 C
3042 16-09-2004 06:55:02 6.8 C 91 % 5.44 C
3043 16-09-2004 07:07:02 6.7 C 91 % 5.34 C
3044 16-09-2004 07:19:02 6.4 C 92 % 5.2 C
3045 16-09-2004 07:31:01 6.4 C 92 % 5.2 C
3046 16-09-2004 07:43:01 6.4 C 92 % 5.2 C
3047 16-09-2004 07:55:01 6.5 C 92 % 5.3 C
3048 16-09-2004 08:07:01 6.7 C 93 % 5.65 C
3049 16-09-2004 08:19:01 6.8 C 93 % 5.75 C
3050 16-09-2004 08:31:00 7 C 92 % 5.79 C
Sensor: Nr:Datum:Temp:Feuchte:Taupunkt:
Aussen-T/F 3051 16-09-2004 08:43:00 7.4 C 91 % 6.03 C
3052 16-09-2004 08:55:01 7.5 C 90 % 5.97 C
3053 16-09-2004 09:07:01 7.8 C 89 % 6.1 C
3054 16-09-2004 09:19:00 8.1 C 87 % 6.07 C
3055 16-09-2004 09:31:00 8.4 C 86 % 6.2 C
3056 16-09-2004 09:43:00 8.8 C 85 % 6.42 C
3057 16-09-2004 09:55:01 9.3 C 83 % 6.57 C
3058 16-09-2004 10:07:01 9.5 C 82 % 6.59 C
3059 16-09-2004 10:19:01 9.8 C 81 % 6.7 C
3060 16-09-2004 10:31:01 10.4 C 81 % 7.28 C
3061 16-09-2004 10:43:01 10.9 C 80 % 7.59 C
3062 16-09-2004 10:55:01 11.5 C 78 % 7.8 C
3063 16-09-2004 11:07:01 12.1 C 77 % 8.2 C
3064 16-09-2004 11:19:00 12.5 C 75 % 8.19 C
3065 16-09-2004 11:31:00 13.1 C 73 % 8.38 C
3066 16-09-2004 11:43:00 13.6 C 70 % 8.24 C
3067 16-09-2004 11:55:01 14.2 C 68 % 8.39 C
3068 16-09-2004 12:07:01 14.6 C 65 % 8.1 C
3069 16-09-2004 12:19:01 15 C 62 % 7.79 C
3070 16-09-2004 12:31:00 15.5 C 58 % 7.28 C
3071 16-09-2004 12:43:00 15.6 C 55 % 6.6 C
3072 16-09-2004 12:55:01 15.8 C 54 % 6.52 C
3073 16-09-2004 13:07:01 16.1 C 54 % 6.8 C
3074 16-09-2004 13:19:00 16.7 C 49 % 5.95 C
3075 16-09-2004 13:31:01 17.5 C 41 % 4.12 C
Sensor: Nr:Datum:Temp:Feuchte:Taupunkt:
Aussen-T/F 3076 16-09-2004 13:43:01 17.9 C 41 % 4.48 C
3077 16-09-2004 13:55:01 18.3 C 41 % 4.83 C
3078 16-09-2004 14:07:01 18.7 C 37 % 3.73 C
3079 16-09-2004 14:19:00 19.2 C 33 % 2.56 C
3080 16-09-2004 14:31:00 19.7 C 35 % 3.82 C
3081 16-09-2004 14:43:00 20.5 C 32 % 3.26 C
3082 16-09-2004 14:55:01 21.4 C 30 % 3.13 C
3083 16-09-2004 15:07:01 21.8 C 30 % 3.47 C
3084 16-09-2004 15:19:01 21 C 29 % 2.31 C
3085 16-09-2004 15:31:00 19.7 C 33 % 2.99 C
3086 16-09-2004 15:43:00 20.5 C 31 % 2.81 C
3087 16-09-2004 15:55:01 21.2 C 27 % 1.48 C
3088 16-09-2004 16:07:01 21.3 C 26 % 1.04 C
3089 16-09-2004 16:19:00 21.6 C 25 % 0.75 C
3090 16-09-2004 16:31:00 21.9 C 25 % 1 C
3091 16-09-2004 16:43:00 22 C 30 % 3.64 C
3092 16-09-2004 16:55:02 22 C 26 % 1.63 C
3093 16-09-2004 17:07:02 22 C 31 % 4.11 C
3094 16-09-2004 17:19:02 21.2 C 33 % 4.3 C
3095 16-09-2004 17:31:01 22.3 C 33 % 5.26 C
3096 16-09-2004 17:43:01 22.9 C 32 % 5.35 C
3097 16-09-2004 17:55:01 22.7 C 31 % 4.72 C
3098 16-09-2004 18:07:01 21.6 C 33 % 4.65 C
3099 16-09-2004 18:19:01 21.1 C 32 % 3.78 C
3100 16-09-2004 18:31:01 20 C 36 % 4.49 C
Sensor: Nr:Datum:Temp:Feuchte:Taupunkt:
Aussen-T/F 3101 16-09-2004 18:43:01 18.4 C 40 % 4.57 C
3102 16-09-2004 18:55:01 17.4 C 41 % 4.03 C
3103 16-09-2004 19:07:01 16.9 C 43 % 4.25 C
3104 16-09-2004 19:19:01 16.2 C 43 % 3.62 C
3105 16-09-2004 19:31:01 16.1 C 42 % 3.2 C
3106 16-09-2004 19:43:01 15.3 C 46 % 3.76 C
3107 16-09-2004 19:55:01 14.8 C 48 % 3.91 C
3108 16-09-2004 20:07:02 14.3 C 49 % 3.74 C
3109 16-09-2004 20:19:02 13.7 C 51 % 3.76 C
3110 16-09-2004 20:31:02 13.1 C 51 % 3.2 C
3111 16-09-2004 20:43:02 12.8 C 55 % 4 C
3112 16-09-2004 20:55:01 12.5 C 57 % 4.22 C
3113 16-09-2004 21:07:01 12.4 C 57 % 4.13 C
3114 16-09-2004 21:19:01 12.1 C 59 % 4.34 C
3115 16-09-2004 21:31:01 11.9 C 60 % 4.39 C
3116 16-09-2004 21:43:01 11.6 C 61 % 4.35 C
3117 16-09-2004 21:55:01 11.2 C 62 % 4.2 C
3118 16-09-2004 22:07:01 11.1 C 62 % 4.11 C
3119 16-09-2004 22:19:01 11 C 63 % 4.24 C
3120 16-09-2004 22:31:01 10.8 C 64 % 4.27 C
3121 16-09-2004 22:43:01 10.7 C 65 % 4.4 C
3122 16-09-2004 22:55:01 10.4 C 65 % 4.11 C
3123 16-09-2004 23:07:01 10.1 C 66 % 4.05 C
3124 16-09-2004 23:19:01 9.8 C 69 % 4.39 C
3125 16-09-2004 23:31:00 9.7 C 69 % 4.3 C
Sensor: Nr:Datum:Temp:Feuchte:Taupunkt:
Aussen-T/F 3126 16-09-2004 23:43:00 9.5 C 70 % 4.31 C
3127 16-09-2004 23:55:01 9.4 C 72 % 4.62 C
3128 17-09-2004 00:07:02 9.2 C 71 % 4.22 C
3129 17-09-2004 00:19:01 9 C 72 % 4.23 C
3130 17-09-2004 00:31:01 8.9 C 74 % 4.53 C
3131 17-09-2004 00:43:01 8.6 C 73 % 4.04 C
3132 17-09-2004 00:55:01 8.7 C 74 % 4.33 C
3133 17-09-2004 01:07:01 8.3 C 75 % 4.14 C
3134 17-09-2004 01:19:01 8.1 C 77 % 4.32 C
3135 17-09-2004 01:31:01 8 C 78 % 4.41 C
3136 17-09-2004 01:43:01 8 C 77 % 4.22 C
3137 17-09-2004 01:55:01 7.9 C 79 % 4.49 C
3138 17-09-2004 02:07:01 7.7 C 81 % 4.65 C
3139 17-09-2004 02:19:01 7.6 C 80 % 4.38 C
3140 17-09-2004 02:31:01 7.5 C 80 % 4.28 C
3141 17-09-2004 02:43:01 7.4 C 81 % 4.36 C
3142 17-09-2004 02:55:01 7.1 C 81 % 4.07 C
3143 17-09-2004 03:07:01 7 C 82 % 4.14 C
3144 17-09-2004 03:19:01 7 C 82 % 4.14 C
3145 17-09-2004 03:31:00 6.9 C 83 % 4.22 C
3146 17-09-2004 03:43:00 6.9 C 83 % 4.22 C
3147 17-09-2004 03:55:00 6.9 C 83 % 4.22 C
3148 17-09-2004 04:07:00 6.7 C 84 % 4.19 C
3149 17-09-2004 04:19:00 6.6 C 85 % 4.26 C
3150 17-09-2004 04:31:00 6.4 C 85 % 4.07 C
Sensor: Nr:Datum:Temp:Feuchte:Taupunkt:
Aussen-T/F 3151 17-09-2004 04:43:00 6.2 C 85 % 3.87 C
3152 17-09-2004 04:55:00 6 C 85 % 3.67 C
3153 17-09-2004 05:07:00 6 C 86 % 3.84 C
3154 17-09-2004 05:19:00 5.9 C 87 % 3.91 C
3155 17-09-2004 05:31:00 5.8 C 87 % 3.81 C
3156 17-09-2004 05:43:00 5.7 C 87 % 3.71 C
3157 17-09-2004 05:55:00 5.5 C 88 % 3.67 C
3158 17-09-2004 06:07:01 5.4 C 88 % 3.58 C
3159 17-09-2004 06:19:01 5.3 C 88 % 3.48 C
3160 17-09-2004 06:31:01 5.2 C 89 % 3.54 C
3161 17-09-2004 06:43:01 5.2 C 89 % 3.54 C
3162 17-09-2004 06:55:01 5.1 C 89 % 3.44 C
3163 17-09-2004 07:07:01 5.1 C 90 % 3.6 C
3164 17-09-2004 07:19:00 5 C 90 % 3.5 C
3165 17-09-2004 07:31:01 5 C 90 % 3.5 C
3166 17-09-2004 07:43:01 4.9 C 92 % 3.71 C
3167 17-09-2004 07:55:00 4.9 C 92 % 3.71 C
3168 17-09-2004 08:07:00 5.3 C 92 % 4.11 C
3169 17-09-2004 08:19:00 5.5 C 91 % 4.15 C
3170 17-09-2004 08:31:00 5.7 C 91 % 4.35 C
3171 17-09-2004 08:43:00 5.9 C 90 % 4.39 C
3172 17-09-2004 08:55:00 6.3 C 88 % 4.46 C
3173 17-09-2004 09:07:00 6.5 C 88 % 4.66 C
3174 17-09-2004 09:19:00 6.7 C 87 % 4.69 C
3175 17-09-2004 09:31:00 6.6 C 88 % 4.76 C
Sensor: Nr:Datum:Temp:Feuchte:Taupunkt:
Aussen-T/F 3176 17-09-2004 09:43:01 6.8 C 89 % 5.12 C
3177 17-09-2004 09:55:01 7.2 C 88 % 5.35 C
3178 17-09-2004 10:07:01 7.7 C 88 % 5.84 C
3179 17-09-2004 10:19:01 8 C 84 % 5.47 C
3180 17-09-2004 10:31:01 8.6 C 84 % 6.05 C
3181 17-09-2004 10:43:01 9.2 C 83 % 6.47 C
3182 17-09-2004 10:55:00 10.2 C 79 % 6.73 C
3183 17-09-2004 11:07:00 11.1 C 75 % 6.84 C
3184 17-09-2004 11:19:00 12 C 72 % 7.12 C
3185 17-09-2004 11:31:00 12.4 C 70 % 7.09 C
3186 17-09-2004 11:43:00 13.1 C 67 % 7.12 C
3187 17-09-2004 11:55:00 13.8 C 66 % 7.57 C
3188 17-09-2004 12:07:00 14.5 C 64 % 7.78 C
3189 17-09-2004 12:19:00 15.2 C 63 % 8.21 C
3190 17-09-2004 12:31:00 15.6 C 63 % 8.59 C
3191 17-09-2004 12:43:00 16 C 62 % 8.73 C
3192 17-09-2004 12:55:00 16.4 C 60 % 8.62 C
3193 17-09-2004 13:07:00 17 C 59 % 8.94 C
3194 17-09-2004 13:19:01 17.7 C 57 % 9.08 C
3195 17-09-2004 13:31:01 18.6 C 55 % 9.39 C
3196 17-09-2004 13:43:01 19.2 C 43 % 6.33 C
3197 17-09-2004 13:55:01 20.1 C 46 % 8.13 C
3198 17-09-2004 14:07:01 21 C 45 % 8.62 C
3199 17-09-2004 14:19:01 21.3 C 36 % 5.64 C
3200 17-09-2004 14:31:00 21.9 C 35 % 5.76 C
Sensor: Nr:Datum:Temp:Feuchte:Taupunkt:
Aussen-T/F 3201 17-09-2004 14:43:00 22.3 C 33 % 5.26 C
3202 17-09-2004 14:55:00 22 C 34 % 5.43 C
3203 17-09-2004 15:07:00 22.7 C 31 % 4.72 C
3204 17-09-2004 15:19:00 22.7 C 30 % 4.25 C
3205 17-09-2004 15:31:00 23.2 C 27 % 3.18 C
3206 17-09-2004 15:43:00 24 C 27 % 3.87 C
3207 17-09-2004 15:55:00 22.8 C 27 % 2.84 C
3208 17-09-2004 16:07:00 23.4 C 28 % 3.87 C
3209 17-09-2004 16:19:00 24.6 C 27 % 4.38 C
3210 17-09-2004 16:31:00 25.1 C 27 % 4.8 C
3211 17-09-2004 16:43:00 25.4 C 26 % 4.52 C
3212 17-09-2004 16:55:00 25.3 C 26 % 4.43 C
3213 17-09-2004 17:07:01 25.4 C 26 % 4.52 C
3214 17-09-2004 17:19:01 25.3 C 28 % 5.49 C
3215 17-09-2004 17:31:01 25.4 C 25 % 3.96 C
3216 17-09-2004 17:43:01 25.7 C 26 % 4.77 C
3217 17-09-2004 17:55:01 25.1 C 28 % 5.32 C
3218 17-09-2004 18:07:01 25 C 27 % 4.72 C
3219 17-09-2004 18:19:00 24.3 C 32 % 6.56 C
3220 17-09-2004 18:31:00 24.1 C 34 % 7.27 C
3221 17-09-2004 18:43:00 22.4 C 38 % 7.4 C
3222 17-09-2004 18:55:00 21.7 C 39 % 7.15 C
3223 17-09-2004 19:07:00 20.8 C 42 % 7.43 C
3224 17-09-2004 19:19:00 19.4 C 44 % 6.84 C
3225 17-09-2004 19:31:00 18.3 C 46 % 6.49 C
Sensor: Nr:Datum:Temp:Feuchte:Taupunkt:
Aussen-T/F 3226 17-09-2004 19:43:00 17.3 C 48 % 6.2 C
3227 17-09-2004 19:55:00 16.7 C 50 % 6.24 C
3228 17-09-2004 20:07:00 16.4 C 51 % 6.25 C
3229 17-09-2004 20:19:00 15.9 C 52 % 6.07 C
3230 17-09-2004 20:31:00 15.7 C 53 % 6.16 C
3231 17-09-2004 20:43:01 15.6 C 54 % 6.34 C
3232 17-09-2004 20:55:01 15.2 C 55 % 6.23 C
3233 17-09-2004 21:07:01 15 C 55 % 6.04 C
3234 17-09-2004 21:19:01 14.9 C 58 % 6.72 C
3235 17-09-2004 21:31:01 15 C 57 % 6.56 C
3236 17-09-2004 21:43:01 14.9 C 58 % 6.72 C
3237 17-09-2004 21:55:01 15 C 56 % 6.3 C
3238 17-09-2004 22:07:00 14.9 C 59 % 6.97 C
3239 17-09-2004 22:19:00 14.7 C 60 % 7.03 C
3240 17-09-2004 22:31:00 14.5 C 61 % 7.08 C
3241 17-09-2004 22:43:00 14.3 C 61 % 6.89 C
3242 17-09-2004 22:55:00 14.2 C 60 % 6.56 C
3243 17-09-2004 23:07:00 14.3 C 60 % 6.65 C
3244 17-09-2004 23:19:00 14 C 61 % 6.61 C
3245 17-09-2004 23:31:00 13.6 C 65 % 7.15 C
3246 17-09-2004 23:43:00 13.1 C 67 % 7.12 C
3247 17-09-2004 23:55:00 12.8 C 69 % 7.26 C
3248 18-09-2004 00:07:00 12.5 C 70 % 7.18 C
3249 18-09-2004 00:19:01 12.2 C 71 % 7.1 C
3250 18-09-2004 00:31:01 11.8 C 71 % 6.72 C
Sensor: Nr:Datum:Temp:Feuchte:Taupunkt:
Aussen-T/F 3251 18-09-2004 00:43:01 11.7 C 72 % 6.83 C
3252 18-09-2004 00:55:01 11.4 C 74 % 6.94 C
3253 18-09-2004 01:07:01 11.3 C 76 % 7.23 C
3254 18-09-2004 01:19:01 11.2 C 75 % 6.94 C
3255 18-09-2004 01:31:00 10.9 C 76 % 6.84 C
3256 18-09-2004 01:43:00 10.8 C 77 % 6.94 C
3257 18-09-2004 01:55:00 10.8 C 77 % 6.94 C
3258 18-09-2004 02:07:00 10.4 C 77 % 6.55 C
3259 18-09-2004 02:19:00 10.2 C 78 % 6.54 C
3260 18-09-2004 02:31:00 10 C 78 % 6.35 C
3261 18-09-2004 02:43:00 9.8 C 80 % 6.52 C
3262 18-09-2004 02:56:03 9.8 C 80 % 6.52 C
3263 18-09-2004 03:08:03 9.6 C 81 % 6.5 C
3264 18-09-2004 03:20:03 9.4 C 82 % 6.49 C
3265 18-09-2004 03:32:01 9.3 C 82 % 6.39 C
3266 18-09-2004 03:44:01 9 C 83 % 6.27 C
3267 18-09-2004 03:56:01 9 C 83 % 6.27 C
3268 18-09-2004 04:08:01 9 C 83 % 6.27 C
3269 18-09-2004 04:20:01 8.9 C 84 % 6.35 C
3270 18-09-2004 04:32:01 8.8 C 84 % 6.25 C
3271 18-09-2004 04:44:01 8.7 C 85 % 6.32 C
3272 18-09-2004 04:56:02 8.6 C 85 % 6.23 C
3273 18-09-2004 05:08:02 8.6 C 85 % 6.23 C
3274 18-09-2004 05:20:02 8.4 C 86 % 6.2 C
3275 18-09-2004 05:32:02 8.3 C 86 % 6.1 C
Sensor: Nr:Datum:Temp:Feuchte:Taupunkt:
Aussen-T/F 3276 18-09-2004 05:44:02 8.2 C 86 % 6 C
3277 18-09-2004 05:56:01 8.1 C 86 % 5.9 C
3278 18-09-2004 06:08:01 7.8 C 87 % 5.78 C
3279 18-09-2004 06:20:01 7.6 C 87 % 5.58 C
3280 18-09-2004 06:32:01 7.7 C 88 % 5.84 C
3281 18-09-2004 06:44:01 7.7 C 88 % 5.84 C
3282 18-09-2004 06:56:01 7.6 C 88 % 5.74 C
3283 18-09-2004 07:08:01 7.6 C 88 % 5.74 C
3284 18-09-2004 07:20:01 7.5 C 88 % 5.64 C
3285 18-09-2004 07:32:00 7.5 C 88 % 5.64 C
3286 18-09-2004 07:44:00 7.8 C 88 % 5.94 C
3287 18-09-2004 07:56:01 7.9 C 88 % 6.04 C
3288 18-09-2004 08:08:02 8 C 88 % 6.14 C
3289 18-09-2004 08:20:02 8 C 87 % 5.97 C
3290 18-09-2004 08:32:01 8 C 87 % 5.97 C
3291 18-09-2004 08:44:01 8.1 C 87 % 6.07 C
3292 18-09-2004 08:56:01 8.1 C 87 % 6.07 C
3293 18-09-2004 09:08:01 8.2 C 88 % 6.33 C
3294 18-09-2004 09:20:01 8.5 C 88 % 6.63 C
3295 18-09-2004 09:32:00 8.7 C 88 % 6.83 C
3296 18-09-2004 09:44:00 9.1 C 87 % 7.05 C
3297 18-09-2004 09:56:01 9.6 C 88 % 7.71 C
3298 18-09-2004 10:08:01 10.1 C 86 % 7.87 C
3299 18-09-2004 10:20:01 10.6 C 85 % 8.19 C
3300 18-09-2004 10:32:00 11.5 C 84 % 8.89 C
Sensor: Nr:Datum:Temp:Feuchte:Taupunkt:
Aussen-T/F 3301 18-09-2004 10:44:00 11.9 C 81 % 8.75 C
3302 18-09-2004 10:56:01 12.7 C 80 % 9.34 C
3303 18-09-2004 11:08:02 13.6 C 78 % 9.84 C
3304 18-09-2004 11:20:01 14.5 C 72 % 9.52 C
3305 18-09-2004 11:32:01 15.3 C 69 % 9.65 C
3306 18-09-2004 11:44:01 15.7 C 70 % 10.25 C
3307 18-09-2004 11:56:02 16.2 C 69 % 10.51 C
3308 18-09-2004 12:08:02 16.7 C 69 % 10.99 C
3309 18-09-2004 12:20:02 17.7 C 64 % 10.81 C
3310 18-09-2004 12:32:02 18.2 C 61 % 10.56 C
3311 18-09-2004 12:44:02 18.7 C 58 % 10.28 C
3312 18-09-2004 12:56:01 20 C 48 % 8.67 C
3313 18-09-2004 13:08:01 20.4 C 49 % 9.34 C
3314 18-09-2004 13:20:01 21 C 46 % 8.95 C
3315 18-09-2004 13:32:00 21.6 C 43 % 8.49 C
3316 18-09-2004 13:44:00 22.2 C 41 % 8.33 C
3317 18-09-2004 13:56:01 22.8 C 41 % 8.87 C
3318 18-09-2004 14:08:01 23.3 C 38 % 8.19 C
3319 18-09-2004 14:20:01 23.8 C 37 % 8.25 C
3320 18-09-2004 14:32:00 24.4 C 36 % 8.37 C
3321 18-09-2004 14:44:00 24.5 C 35 % 8.05 C
3322 18-09-2004 14:56:01 24.9 C 37 % 9.22 C
3323 18-09-2004 15:08:01 25.5 C 34 % 8.5 C
3324 18-09-2004 15:20:01 25.6 C 33 % 8.14 C
3325 18-09-2004 15:32:01 25.8 C 31 % 7.4 C
Sensor: Nr:Datum:Temp:Feuchte:Taupunkt:
Aussen-T/F 3326 18-09-2004 15:44:01 26 C 31 % 7.57 C
3327 18-09-2004 15:56:02 26.1 C 30 % 7.18 C
3328 18-09-2004 16:08:02 26.3 C 31 % 7.83 C
3329 18-09-2004 16:20:02 26.4 C 32 % 8.39 C
3330 18-09-2004 16:32:01 26.8 C 30 % 7.78 C
3331 18-09-2004 16:44:01 26.7 C 30 % 7.7 C
3332 18-09-2004 16:56:01 26.5 C 29 % 7.03 C
3333 18-09-2004 17:08:01 26.5 C 28 % 6.52 C
3334 18-09-2004 17:20:01 27.1 C 30 % 8.04 C
3335 18-09-2004 17:32:00 26.8 C 28 % 6.78 C
3336 18-09-2004 17:44:00 26.9 C 28 % 6.86 C
3337 18-09-2004 17:56:01 27.4 C 31 % 8.78 C
3338 18-09-2004 18:08:01 26.7 C 30 % 7.7 C
3339 18-09-2004 18:20:01 26.1 C 31 % 7.66 C
3340 18-09-2004 18:32:00 25.7 C 36 % 9.52 C
3341 18-09-2004 18:44:00 25.2 C 37 % 9.48 C
3342 18-09-2004 18:56:01 24.6 C 38 % 9.35 C
3343 18-09-2004 19:08:02 23.9 C 40 % 9.49 C
3344 18-09-2004 19:20:02 22.9 C 41 % 8.96 C
3345 18-09-2004 19:32:01 21.7 C 45 % 9.26 C
3346 18-09-2004 19:44:01 20.7 C 49 % 9.61 C
3347 18-09-2004 19:56:01 20 C 51 % 9.56 C
3348 18-09-2004 20:08:01 19.7 C 52 % 9.58 C
3349 18-09-2004 20:20:01 19.4 C 54 % 9.86 C
3350 18-09-2004 20:32:01 19.2 C 56 % 10.22 C
Sensor: Nr:Datum:Temp:Feuchte:Taupunkt:
Aussen-T/F 3351 18-09-2004 20:44:01 18.9 C 56 % 9.94 C
3352 18-09-2004 20:56:01 18.4 C 58 % 9.99 C
3353 18-09-2004 21:08:01 18.2 C 59 % 10.06 C
3354 18-09-2004 21:20:01 17.8 C 62 % 10.43 C
3355 18-09-2004 21:32:01 17.5 C 63 % 10.38 C
3356 18-09-2004 21:44:01 17.2 C 64 % 10.34 C
3357 18-09-2004 21:56:01 16.7 C 66 % 10.32 C
3358 18-09-2004 22:08:01 16.6 C 67 % 10.45 C
3359 18-09-2004 22:20:02 16.4 C 68 % 10.48 C
3360 18-09-2004 22:32:02 16 C 69 % 10.32 C
3361 18-09-2004 22:44:02 15.8 C 70 % 10.34 C
3362 18-09-2004 22:56:01 16.1 C 68 % 10.2 C
3363 18-09-2004 23:08:01 15.7 C 69 % 10.03 C
3364 18-09-2004 23:20:01 15.8 C 69 % 10.13 C
3365 18-09-2004 23:32:00 15.6 C 70 % 10.15 C
3366 18-09-2004 23:44:00 15.4 C 70 % 9.96 C
3367 18-09-2004 23:56:01 15.7 C 69 % 10.03 C
3368 19-09-2004 00:08:01 15.8 C 68 % 9.91 C
3369 19-09-2004 00:20:01 15.7 C 69 % 10.03 C
3370 19-09-2004 00:32:01 15.6 C 70 % 10.15 C
3371 19-09-2004 00:44:02 15.4 C 71 % 10.17 C
3372 19-09-2004 00:56:01 15.1 C 72 % 10.09 C
3373 19-09-2004 01:08:01 15.1 C 72 % 10.09 C
3374 19-09-2004 01:20:01 15 C 72 % 10 C
3375 19-09-2004 01:32:00 15.2 C 72 % 10.19 C
Sensor: Nr:Datum:Temp:Feuchte:Taupunkt:
Aussen-T/F 3376 19-09-2004 01:44:00 15.4 C 72 % 10.38 C
3377 19-09-2004 01:56:01 15.6 C 72 % 10.57 C
3378 19-09-2004 02:08:01 15.6 C 72 % 10.57 C
3379 19-09-2004 02:20:01 15.6 C 73 % 10.78 C
3380 19-09-2004 02:32:00 15.4 C 73 % 10.59 C
3381 19-09-2004 02:44:00 15.1 C 74 % 10.5 C
3382 19-09-2004 02:57:03 14.7 C 81 % 11.48 C
3383 19-09-2004 03:09:03 14.4 C 85 % 11.91 C
3384 19-09-2004 03:21:03 14.7 C 87 % 12.56 C
3385 19-09-2004 03:33:01 14.5 C 88 % 12.54 C
3386 19-09-2004 03:45:01 14.4 C 89 % 12.61 C
3387 19-09-2004 03:57:01 14.5 C 90 % 12.88 C
3388 19-09-2004 04:09:01 14.5 C 90 % 12.88 C
3389 19-09-2004 04:21:01 14.7 C 91 % 13.25 C
3390 19-09-2004 04:33:01 14.5 C 91 % 13.05 C
3391 19-09-2004 04:45:02 14.4 C 91 % 12.95 C
3392 19-09-2004 04:57:02 14.5 C 91 % 13.05 C
3393 19-09-2004 05:09:02 14.6 C 92 % 13.32 C
3394 19-09-2004 05:21:02 14.4 C 92 % 13.12 C
3395 19-09-2004 05:33:01 14.3 C 92 % 13.02 C
3396 19-09-2004 05:45:01 14.3 C 92 % 13.02 C
3397 19-09-2004 05:57:01 14.2 C 92 % 12.92 C
3398 19-09-2004 06:09:01 14.1 C 92 % 12.82 C
3399 19-09-2004 06:21:01 14.1 C 93 % 12.99 C
3400 19-09-2004 06:33:00 14.1 C 93 % 12.99 C
Sensor: Nr:Datum:Temp:Feuchte:Taupunkt:
Aussen-T/F 3401 19-09-2004 06:45:01 14.2 C 93 % 13.08 C
3402 19-09-2004 06:57:01 14.2 C 93 % 13.08 C
3403 19-09-2004 07:09:01 14.2 C 93 % 13.08 C
3404 19-09-2004 07:21:00 14.1 C 93 % 12.99 C
3405 19-09-2004 07:33:00 14.2 C 93 % 13.08 C
3406 19-09-2004 07:45:01 14.3 C 93 % 13.18 C
3407 19-09-2004 07:57:01 14.4 C 92 % 13.12 C
3408 19-09-2004 08:09:02 14.5 C 92 % 13.22 C
3409 19-09-2004 08:21:02 14.4 C 91 % 12.95 C
3410 19-09-2004 08:33:01 14.3 C 91 % 12.85 C
3411 19-09-2004 08:45:01 14.4 C 91 % 12.95 C
3412 19-09-2004 08:57:01 14.4 C 92 % 13.12 C
3413 19-09-2004 09:09:01 14.3 C 92 % 13.02 C
3414 19-09-2004 09:21:01 14.5 C 92 % 13.22 C
3415 19-09-2004 09:33:01 14.4 C 92 % 13.12 C
3416 19-09-2004 09:45:01 14.6 C 91 % 13.15 C
3417 19-09-2004 09:57:01 14.7 C 91 % 13.25 C
3418 19-09-2004 10:09:01 14.7 C 91 % 13.25 C
3419 19-09-2004 10:21:01 15 C 89 % 13.2 C
3420 19-09-2004 10:33:00 15.5 C 88 % 13.52 C
3421 19-09-2004 10:45:01 15.5 C 86 % 13.17 C
3422 19-09-2004 10:57:01 16.2 C 83 % 13.31 C
3423 19-09-2004 11:09:01 16.4 C 82 % 13.32 C
3424 19-09-2004 11:21:00 16.6 C 82 % 13.52 C
3425 19-09-2004 11:33:01 16.8 C 82 % 13.71 C
Sensor: Nr:Datum:Temp:Feuchte:Taupunkt:
Aussen-T/F 3426 19-09-2004 11:45:01 16.8 C 82 % 13.71 C
3427 19-09-2004 11:57:01 16.6 C 81 % 13.33 C
3428 19-09-2004 12:09:00 17.1 C 82 % 14 C
3429 19-09-2004 12:21:00 17.4 C 78 % 13.53 C
3430 19-09-2004 12:33:00 17.8 C 76 % 13.52 C
3431 19-09-2004 12:45:01 17.6 C 76 % 13.32 C
3432 19-09-2004 12:57:01 17.6 C 76 % 13.32 C
3433 19-09-2004 13:09:01 18.5 C 76 % 14.19 C
3434 19-09-2004 13:21:01 18.8 C 72 % 13.65 C
3435 19-09-2004 13:33:01 18.9 C 73 % 13.96 C
3436 19-09-2004 13:45:01 20.1 C 67 % 13.78 C
3437 19-09-2004 13:57:01 21 C 61 % 13.2 C
3438 19-09-2004 14:09:01 20.3 C 60 % 12.29 C
3439 19-09-2004 14:21:01 19.9 C 60 % 11.91 C
3440 19-09-2004 14:33:00 20.7 C 59 % 12.41 C
3441 19-09-2004 14:45:01 20.9 C 51 % 10.39 C
3442 19-09-2004 14:57:01 20.2 C 51 % 9.75 C
3443 19-09-2004 15:09:01 21 C 51 % 10.48 C
3444 19-09-2004 15:21:01 20.5 C 48 % 9.12 C
3445 19-09-2004 15:33:01 21.7 C 48 % 10.22 C
3446 19-09-2004 15:45:01 22.9 C 41 % 8.96 C
3447 19-09-2004 15:57:01 22.6 C 42 % 9.05 C
3448 19-09-2004 16:09:01 22.6 C 47 % 10.72 C
3449 19-09-2004 16:21:01 21.8 C 53 % 11.8 C
3450 19-09-2004 16:33:00 21.8 C 52 % 11.51 C
Sensor: Nr:Datum:Temp:Feuchte:Taupunkt:
Aussen-T/F 3451 19-09-2004 16:45:01 21.9 C 55 % 12.46 C
3452 19-09-2004 16:57:01 21.4 C 54 % 11.71 C
3453 19-09-2004 17:09:01 20.8 C 56 % 11.71 C
3454 19-09-2004 17:21:01 20.9 C 49 % 9.79 C
3455 19-09-2004 17:33:00 20.3 C 56 % 11.24 C
3456 19-09-2004 17:45:01 19.6 C 58 % 11.12 C
3457 19-09-2004 17:57:01 19.1 C 60 % 11.16 C
3458 19-09-2004 18:09:01 18.9 C 60 % 10.97 C
3459 19-09-2004 18:21:01 18.5 C 62 % 11.09 C
3460 19-09-2004 18:33:00 19.3 C 54 % 9.77 C
3461 19-09-2004 18:45:02 19.7 C 46 % 7.77 C
3462 19-09-2004 18:57:02 20.4 C 45 % 8.08 C
3463 19-09-2004 19:09:02 20.3 C 45 % 7.99 C
3464 19-09-2004 19:21:02 19.3 C 43 % 6.42 C
3465 19-09-2004 19:33:01 18.1 C 53 % 8.38 C
3466 19-09-2004 19:45:01 17.1 C 57 % 8.52 C
3467 19-09-2004 19:57:01 16.4 C 59 % 8.38 C
3468 19-09-2004 20:09:01 15.7 C 60 % 7.97 C
3469 19-09-2004 20:21:01 15.4 C 60 % 7.68 C
3470 19-09-2004 20:33:00 15.1 C 61 % 7.64 C
3471 19-09-2004 20:45:01 14.7 C 65 % 8.2 C
3472 19-09-2004 20:57:01 14.7 C 66 % 8.42 C
3473 19-09-2004 21:09:01 14.4 C 64 % 7.68 C
3474 19-09-2004 21:21:01 14.4 C 65 % 7.91 C
3475 19-09-2004 21:33:00 14.3 C 67 % 8.26 C
Sensor: Nr:Datum:Temp:Feuchte:Taupunkt:
Aussen-T/F 3476 19-09-2004 21:45:01 14.4 C 67 % 8.36 C
3477 19-09-2004 21:57:01 14.4 C 66 % 8.14 C
3478 19-09-2004 22:09:01 14.3 C 66 % 8.04 C
3479 19-09-2004 22:21:02 14.1 C 67 % 8.07 C
3480 19-09-2004 22:33:01 13.8 C 67 % 7.79 C
3481 19-09-2004 22:45:01 13.7 C 68 % 7.91 C
3482 19-09-2004 22:57:01 13.3 C 69 % 7.74 C
3483 19-09-2004 23:09:01 12.9 C 70 % 7.57 C
3484 19-09-2004 23:21:01 12.5 C 69 % 6.97 C
3485 19-09-2004 23:33:00 12.4 C 68 % 6.67 C
3486 19-09-2004 23:45:01 12 C 69 % 6.5 C
3487 19-09-2004 23:57:01 11.7 C 73 % 7.03 C
3488 20-09-2004 00:09:01 11.5 C 76 % 7.42 C
3489 20-09-2004 00:21:01 11.3 C 75 % 7.04 C
3490 20-09-2004 00:33:01 11.1 C 76 % 7.04 C
3491 20-09-2004 00:45:01 10.9 C 77 % 7.03 C
3492 20-09-2004 00:57:01 10.7 C 77 % 6.84 C
3493 20-09-2004 01:09:01 10.6 C 78 % 6.93 C
3494 20-09-2004 01:21:01 10.8 C 79 % 7.31 C
3495 20-09-2004 01:33:00 10.9 C 79 % 7.41 C
3496 20-09-2004 01:45:01 10.7 C 79 % 7.21 C
3497 20-09-2004 01:57:01 10.7 C 78 % 7.03 C
3498 20-09-2004 02:09:01 10.6 C 78 % 6.93 C
3499 20-09-2004 02:21:01 10.3 C 79 % 6.82 C
3500 20-09-2004 02:33:00 10.4 C 80 % 7.1 C
Sensor: Nr:Datum:Temp:Feuchte:Taupunkt:
Aussen-T/F 3501 20-09-2004 02:46:03 10.4 C 79 % 6.92 C
3502 20-09-2004 02:58:03 10.4 C 79 % 6.92 C
3503 20-09-2004 03:10:03 10.4 C 79 % 6.92 C
3504 20-09-2004 03:22:03 10.2 C 79 % 6.73 C
3505 20-09-2004 03:34:01 10.2 C 80 % 6.91 C
3506 20-09-2004 03:46:01 10.3 C 79 % 6.82 C
3507 20-09-2004 03:58:01 10.2 C 79 % 6.73 C
3508 20-09-2004 04:10:01 10.1 C 79 % 6.63 C
3509 20-09-2004 04:22:01 10.1 C 79 % 6.63 C
3510 20-09-2004 04:34:00 10.1 C 79 % 6.63 C
3511 20-09-2004 04:46:01 10 C 79 % 6.53 C
3512 20-09-2004 04:58:01 9.8 C 80 % 6.52 C
3513 20-09-2004 05:10:01 9.8 C 81 % 6.7 C
3514 20-09-2004 05:22:01 9.7 C 81 % 6.6 C
3515 20-09-2004 05:34:01 9.6 C 81 % 6.5 C
3516 20-09-2004 05:46:01 9.7 C 81 % 6.6 C
3517 20-09-2004 05:58:01 9.6 C 81 % 6.5 C
3518 20-09-2004 06:10:01 9.5 C 81 % 6.41 C
3519 20-09-2004 06:22:00 9.5 C 81 % 6.41 C
3520 20-09-2004 06:34:00 9.5 C 81 % 6.41 C
3521 20-09-2004 06:46:01 9.6 C 81 % 6.5 C
3522 20-09-2004 06:58:01 9.6 C 81 % 6.5 C
3523 20-09-2004 07:10:01 9.6 C 81 % 6.5 C
3524 20-09-2004 07:22:00 9.3 C 82 % 6.39 C
3525 20-09-2004 07:34:00 9.1 C 83 % 6.37 C
Sensor: Nr:Datum:Temp:Feuchte:Taupunkt:
Aussen-T/F 3526 20-09-2004 07:46:01 9.2 C 84 % 6.64 C
3527 20-09-2004 07:58:01 9.2 C 84 % 6.64 C
3528 20-09-2004 08:10:01 9.2 C 84 % 6.64 C
3529 20-09-2004 08:22:00 9.3 C 84 % 6.74 C
3530 20-09-2004 08:34:01 9.6 C 83 % 6.86 C
3531 20-09-2004 08:46:01 9.9 C 82 % 6.98 C
3532 20-09-2004 08:58:01 10 C 79 % 6.53 C
3533 20-09-2004 09:10:01 10.3 C 79 % 6.82 C
3534 20-09-2004 09:22:00 10.6 C 78 % 6.93 C
3535 20-09-2004 09:34:00 10.9 C 77 % 7.03 C
3536 20-09-2004 09:46:01 11 C 76 % 6.94 C
3537 20-09-2004 09:58:01 11.3 C 76 % 7.23 C
3538 20-09-2004 10:10:01 11.8 C 75 % 7.52 C
3539 20-09-2004 10:22:00 12.1 C 74 % 7.61 C
3540 20-09-2004 10:34:00 12.8 C 70 % 7.47 C
3541 20-09-2004 10:46:01 13.3 C 69 % 7.74 C
3542 20-09-2004 10:58:01 13.7 C 67 % 7.69 C
3543 20-09-2004 11:10:01 14 C 63 % 7.08 C
3544 20-09-2004 11:22:00 14.3 C 61 % 6.89 C
3545 20-09-2004 11:34:00 14.7 C 61 % 7.27 C
3546 20-09-2004 11:46:02 15.1 C 60 % 7.4 C
3547 20-09-2004 11:58:02 15.3 C 58 % 7.09 C
3548 20-09-2004 12:10:02 15.4 C 57 % 6.93 C
3549 20-09-2004 12:22:01 15.6 C 58 % 7.37 C
3550 20-09-2004 12:34:01 15.8 C 56 % 7.05 C
Sensor: Nr:Datum:Temp:Feuchte:Taupunkt:
Aussen-T/F 3551 20-09-2004 12:46:01 15.8 C 56 % 7.05 C
3552 20-09-2004 12:58:01 16.4 C 54 % 7.08 C
3553 20-09-2004 13:10:01 16.7 C 52 % 6.81 C
3554 20-09-2004 13:22:00 16.6 C 51 % 6.43 C
3555 20-09-2004 13:34:00 16.8 C 50 % 6.33 C
3556 20-09-2004 13:46:01 17.1 C 49 % 6.31 C
3557 20-09-2004 13:58:01 17.2 C 48 % 6.11 C
3558 20-09-2004 14:10:01 17 C 48 % 5.92 C
3559 20-09-2004 14:22:01 17.1 C 49 % 6.31 C
3560 20-09-2004 14:34:01 17.3 C 49 % 6.5 C
3561 20-09-2004 14:46:02 17.3 C 50 % 6.79 C
3562 20-09-2004 14:58:02 17.5 C 49 % 6.68 C
3563 20-09-2004 15:10:02 17.2 C 49 % 6.4 C
3564 20-09-2004 15:22:02 17.3 C 50 % 6.79 C
3565 20-09-2004 15:34:02 17 C 50 % 6.51 C
3566 20-09-2004 15:46:01 17 C 50 % 6.51 C
3567 20-09-2004 15:58:01 17 C 50 % 6.51 C
3568 20-09-2004 16:10:01 17 C 51 % 6.8 C
3569 20-09-2004 16:22:01 17.1 C 49 % 6.31 C
3570 20-09-2004 16:34:00 17.2 C 50 % 6.7 C
3571 20-09-2004 16:46:01 17.3 C 49 % 6.5 C
3572 20-09-2004 16:58:01 17.4 C 49 % 6.59 C
3573 20-09-2004 17:10:01 17.5 C 49 % 6.68 C
3574 20-09-2004 17:22:01 17.6 C 49 % 6.77 C
3575 20-09-2004 17:34:00 17.4 C 48 % 6.29 C
Sensor: Nr:Datum:Temp:Feuchte:Taupunkt:
Aussen-T/F 3576 20-09-2004 17:46:01 17.4 C 48 % 6.29 C
3577 20-09-2004 17:58:01 17.4 C 47 % 5.98 C
3578 20-09-2004 18:10:01 17.4 C 46 % 5.67 C
3579 20-09-2004 18:22:02 17.3 C 46 % 5.58 C
3580 20-09-2004 18:34:01 17.2 C 47 % 5.8 C
3581 20-09-2004 18:46:01 17.1 C 47 % 5.71 C
3582 20-09-2004 18:58:01 17 C 47 % 5.62 C
3583 20-09-2004 19:10:01 16.8 C 49 % 6.04 C
3584 20-09-2004 19:22:01 16.7 C 49 % 5.95 C
3585 20-09-2004 19:34:00 16.6 C 50 % 6.15 C
3586 20-09-2004 19:46:01 16.6 C 50 % 6.15 C
3587 20-09-2004 19:58:01 16.6 C 50 % 6.15 C
3588 20-09-2004 20:10:01 16.5 C 50 % 6.05 C
3589 20-09-2004 20:22:01 16.4 C 50 % 5.96 C
3590 20-09-2004 20:34:01 16.5 C 50 % 6.05 C
3591 20-09-2004 20:46:01 16.3 C 51 % 6.16 C
3592 20-09-2004 20:58:01 16 C 52 % 6.16 C
3593 20-09-2004 21:10:01 16.2 C 52 % 6.34 C
3594 20-09-2004 21:22:01 15.8 C 53 % 6.25 C
3595 20-09-2004 21:34:01 16 C 52 % 6.16 C
3596 20-09-2004 21:46:01 16.1 C 52 % 6.25 C
3597 20-09-2004 21:58:01 16.1 C 53 % 6.53 C
3598 20-09-2004 22:10:02 16.1 C 53 % 6.53 C
3599 20-09-2004 22:22:02 16.2 C 53 % 6.62 C
3600 20-09-2004 22:34:02 16.1 C 54 % 6.8 C
Sensor: Nr:Datum:Temp:Feuchte:Taupunkt:
Aussen-T/F 3601 20-09-2004 22:46:01 16.1 C 55 % 7.07 C
3602 20-09-2004 22:58:01 15.9 C 57 % 7.4 C
3603 20-09-2004 23:10:01 15.9 C 58 % 7.66 C
3604 20-09-2004 23:22:00 15.9 C 58 % 7.66 C
3605 20-09-2004 23:34:00 15.9 C 59 % 7.91 C
3606 20-09-2004 23:46:01 15.9 C 59 % 7.91 C
3607 20-09-2004 23:58:01 15.8 C 60 % 8.06 C
3608 21-09-2004 00:10:01 15.8 C 60 % 8.06 C
3609 21-09-2004 00:22:01 15.7 C 60 % 7.97 C
3610 21-09-2004 00:34:01 15.7 C 61 % 8.21 C
3611 21-09-2004 00:46:01 15.8 C 61 % 8.3 C
3612 21-09-2004 00:58:01 15.8 C 61 % 8.3 C
3613 21-09-2004 01:10:01 15.9 C 61 % 8.4 C
3614 21-09-2004 01:22:01 15.8 C 62 % 8.54 C
3615 21-09-2004 01:34:00 15.2 C 67 % 9.12 C
3616 21-09-2004 01:46:01 15.1 C 68 % 9.24 C
3617 21-09-2004 01:58:01 14.4 C 75 % 10.03 C
3618 21-09-2004 02:10:01 14.4 C 75 % 10.03 C
3619 21-09-2004 02:22:01 14.1 C 78 % 10.33 C
3620 21-09-2004 02:34:01 14 C 79 % 10.42 C
3621 21-09-2004 02:47:03 14.3 C 77 % 10.33 C
3622 21-09-2004 02:59:03 14.3 C 77 % 10.33 C
3623 21-09-2004 03:11:03 14.1 C 77 % 10.13 C
3624 21-09-2004 03:23:03 14.1 C 78 % 10.33 C
3625 21-09-2004 03:35:01 14 C 79 % 10.42 C
Sensor: Nr:Datum:Temp:Feuchte:Taupunkt:
Aussen-T/F 3626 21-09-2004 03:47:01 14 C 80 % 10.61 C
3627 21-09-2004 03:59:01 13.5 C 85 % 11.03 C
3628 21-09-2004 04:11:01 13.2 C 88 % 11.26 C
3629 21-09-2004 04:23:01 13 C 89 % 11.23 C
3630 21-09-2004 04:35:01 12.9 C 90 % 11.3 C
3631 21-09-2004 04:47:02 13 C 89 % 11.23 C
3632 21-09-2004 04:59:02 13.1 C 88 % 11.16 C
3633 21-09-2004 05:11:02 13 C 86 % 10.72 C
3634 21-09-2004 05:23:02 13.1 C 82 % 10.1 C
3635 21-09-2004 05:35:01 13.4 C 74 % 8.87 C
3636 21-09-2004 05:47:01 13.3 C 71 % 8.16 C
3637 21-09-2004 05:59:01 13.5 C 65 % 7.06 C
3638 21-09-2004 06:11:01 13.6 C 61 % 6.23 C
3639 21-09-2004 06:23:00 13.8 C 60 % 6.18 C
3640 21-09-2004 06:35:00 13.5 C 60 % 5.9 C
3641 21-09-2004 06:47:01 13.4 C 61 % 6.04 C
3642 21-09-2004 06:59:01 13.3 C 61 % 5.95 C
3643 21-09-2004 07:11:01 13.3 C 62 % 6.18 C
3644 21-09-2004 07:23:00 13.3 C 63 % 6.41 C
3645 21-09-2004 07:35:00 13.3 C 64 % 6.64 C
3646 21-09-2004 07:47:01 13.1 C 64 % 6.45 C
3647 21-09-2004 07:59:01 13.1 C 64 % 6.45 C
3648 21-09-2004 08:11:02 13.2 C 65 % 6.77 C
3649 21-09-2004 08:23:01 13 C 66 % 6.8 C
3650 21-09-2004 08:35:01 13.1 C 67 % 7.12 C
Sensor: Nr:Datum:Temp:Feuchte:Taupunkt:
Aussen-T/F 3651 21-09-2004 08:47:01 13.1 C 67 % 7.12 C
3652 21-09-2004 08:59:01 13 C 67 % 7.02 C
3653 21-09-2004 09:11:01 13 C 68 % 7.24 C
3654 21-09-2004 09:23:00 13.2 C 65 % 6.77 C
3655 21-09-2004 09:35:00 13.5 C 61 % 6.14 C
3656 21-09-2004 09:47:01 13.8 C 56 % 5.19 C
3657 21-09-2004 09:59:01 13.9 C 58 % 5.78 C
3658 21-09-2004 10:11:01 14.1 C 51 % 4.13 C
3659 21-09-2004 10:23:01 14.3 C 50 % 4.03 C
3660 21-09-2004 10:35:00 14.5 C 50 % 4.21 C
3661 21-09-2004 10:47:01 14.3 C 49 % 3.74 C
3662 21-09-2004 10:59:01 14.6 C 47 % 3.43 C
3663 21-09-2004 11:11:01 14.8 C 47 % 3.61 C
3664 21-09-2004 11:23:01 15 C 45 % 3.18 C
3665 21-09-2004 11:35:01 15.3 C 45 % 3.45 C
3666 21-09-2004 11:47:01 15.5 C 44 % 3.31 C
3667 21-09-2004 11:59:01 15.8 C 43 % 3.26 C
3668 21-09-2004 12:11:01 15.8 C 42 % 2.93 C
3669 21-09-2004 12:23:00 16 C 41 % 2.77 C
3670 21-09-2004 12:35:00 15.9 C 40 % 2.33 C
3671 21-09-2004 12:47:01 16.4 C 40 % 2.78 C
3672 21-09-2004 12:59:01 16.5 C 39 % 2.51 C
3673 21-09-2004 13:11:01 16.7 C 38 % 2.33 C
3674 21-09-2004 13:23:00 17.2 C 38 % 2.77 C
3675 21-09-2004 13:35:00 17.4 C 37 % 2.58 C
Sensor: Nr:Datum:Temp:Feuchte:Taupunkt:
Aussen-T/F 3676 21-09-2004 13:47:01 17.2 C 35 % 1.62 C
3677 21-09-2004 13:59:01 17.8 C 35 % 2.15 C
3678 21-09-2004 14:11:01 18.1 C 33 % 1.59 C
3679 21-09-2004 14:23:00 17.4 C 33 % 0.98 C
3680 21-09-2004 14:35:00 17.5 C 35 % 1.89 C
3681 21-09-2004 14:47:01 17.1 C 35 % 1.53 C
3682 21-09-2004 14:59:01 17.4 C 35 % 1.8 C
3683 21-09-2004 15:11:02 18.2 C 32 % 1.25 C
3684 21-09-2004 15:23:02 18 C 33 % 1.51 C
3685 21-09-2004 15:35:01 18 C 32 % 1.08 C
3686 21-09-2004 15:47:01 18.2 C 34 % 2.1 C
3687 21-09-2004 15:59:01 18.2 C 32 % 1.25 C
3688 21-09-2004 16:11:01 18.7 C 31 % 1.25 C
3689 21-09-2004 16:23:01 18.1 C 32 % 1.17 C
3690 21-09-2004 16:35:00 18.4 C 33 % 1.86 C
3691 21-09-2004 16:47:01 18.6 C 32 % 1.6 C
3692 21-09-2004 16:59:01 18.2 C 33 % 1.68 C
3693 21-09-2004 17:11:02 18 C 33 % 1.51 C
3694 21-09-2004 17:23:01 18.2 C 34 % 2.1 C
3695 21-09-2004 17:35:01 18.2 C 33 % 1.68 C
3696 21-09-2004 17:47:02 17.8 C 34 % 1.75 C
3697 21-09-2004 17:59:02 18 C 33 % 1.51 C
3698 21-09-2004 18:11:02 17.8 C 35 % 2.15 C
3699 21-09-2004 18:23:02 17.9 C 35 % 2.24 C
3700 21-09-2004 18:35:02 17.2 C 37 % 2.4 C
Sensor: Nr:Datum:Temp:Feuchte:Taupunkt:
Aussen-T/F 3701 21-09-2004 18:47:01 17.1 C 37 % 2.31 C
3702 21-09-2004 18:59:01 16.3 C 39 % 2.34 C
3703 21-09-2004 19:11:01 15.8 C 41 % 2.59 C
3704 21-09-2004 19:23:01 15.5 C 42 % 2.66 C
3705 21-09-2004 19:35:01 15.1 C 43 % 2.63 C
3706 21-09-2004 19:47:02 14.8 C 45 % 3 C
3707 21-09-2004 19:59:02 14.4 C 47 % 3.25 C
3708 21-09-2004 20:11:02 14.4 C 48 % 3.54 C
3709 21-09-2004 20:23:02 14.3 C 48 % 3.45 C
3710 21-09-2004 20:35:02 14 C 49 % 3.47 C
3711 21-09-2004 20:47:02 13.9 C 50 % 3.66 C
3712 21-09-2004 20:59:02 13.8 C 49 % 3.28 C
3713 21-09-2004 21:11:02 13.7 C 50 % 3.48 C
3714 21-09-2004 21:23:02 13.8 C 50 % 3.57 C
3715 21-09-2004 21:35:02 13.7 C 50 % 3.48 C
3716 21-09-2004 21:47:01 13.5 C 51 % 3.57 C
3717 21-09-2004 21:59:01 13.5 C 52 % 3.85 C
3718 21-09-2004 22:11:01 13.6 C 51 % 3.67 C
3719 21-09-2004 22:23:01 13.5 C 52 % 3.85 C
3720 21-09-2004 22:35:01 13.2 C 53 % 3.84 C
3721 21-09-2004 22:47:01 13.3 C 53 % 3.93 C
3722 21-09-2004 22:59:01 13.1 C 53 % 3.75 C
3723 21-09-2004 23:11:01 13.1 C 54 % 4.01 C
3724 21-09-2004 23:23:01 13 C 54 % 3.92 C
3725 21-09-2004 23:35:00 13 C 54 % 3.92 C
Sensor: Nr:Datum:Temp:Feuchte:Taupunkt:
Aussen-T/F 3726 21-09-2004 23:47:01 12.9 C 56 % 4.35 C
3727 21-09-2004 23:59:01 12.8 C 57 % 4.5 C
3728 22-09-2004 00:11:01 12.7 C 58 % 4.66 C
3729 22-09-2004 00:23:01 12.4 C 59 % 4.62 C
3730 22-09-2004 00:35:01 12.2 C 59 % 4.43 C
3731 22-09-2004 00:47:01 12.2 C 60 % 4.67 C
3732 22-09-2004 00:59:01 12.1 C 60 % 4.58 C
3733 22-09-2004 01:11:01 12.1 C 61 % 4.82 C
3734 22-09-2004 01:23:01 12.2 C 61 % 4.91 C
3735 22-09-2004 01:35:01 12.3 C 61 % 5.01 C
3736 22-09-2004 01:47:01 12.2 C 61 % 4.91 C
3737 22-09-2004 01:59:01 12.2 C 61 % 4.91 C
3738 22-09-2004 02:11:01 12.5 C 60 % 4.96 C
3739 22-09-2004 02:23:01 12.5 C 59 % 4.72 C
3740 22-09-2004 02:35:00 12.4 C 60 % 4.86 C
3741 22-09-2004 02:48:03 12.4 C 60 % 4.86 C
3742 22-09-2004 03:00:03 12.3 C 60 % 4.77 C
3743 22-09-2004 03:12:03 12.1 C 61 % 4.82 C
3744 22-09-2004 03:24:03 12 C 61 % 4.72 C
3745 22-09-2004 03:36:01 11.8 C 63 % 5 C
3746 22-09-2004 03:48:01 11.7 C 63 % 4.9 C
3747 22-09-2004 04:00:01 11.7 C 63 % 4.9 C
3748 22-09-2004 04:12:01 11.7 C 62 % 4.67 C
3749 22-09-2004 04:24:02 11.5 C 63 % 4.71 C
3750 22-09-2004 04:36:01 11.4 C 63 % 4.62 C
Sensor: Nr:Datum:Temp:Feuchte:Taupunkt:
Aussen-T/F 3751 22-09-2004 04:48:01 11.3 C 63 % 4.52 C
3752 22-09-2004 05:00:01 11.3 C 63 % 4.52 C
3753 22-09-2004 05:12:01 11.2 C 64 % 4.65 C
3754 22-09-2004 05:24:01 11.1 C 64 % 4.56 C
3755 22-09-2004 05:36:00 11 C 64 % 4.46 C
3756 22-09-2004 05:48:01 11.1 C 63 % 4.33 C
3757 22-09-2004 06:00:01 10.9 C 64 % 4.37 C
3758 22-09-2004 06:12:01 10.8 C 65 % 4.49 C
3759 22-09-2004 06:24:01 11 C 63 % 4.24 C
3760 22-09-2004 06:36:00 11 C 64 % 4.46 C
3761 22-09-2004 06:48:01 10.8 C 66 % 4.71 C
3762 22-09-2004 07:00:01 10.7 C 66 % 4.62 C
3763 22-09-2004 07:12:01 10.6 C 67 % 4.74 C
3764 22-09-2004 07:24:00 10.7 C 66 % 4.62 C
3765 22-09-2004 07:36:00 10.7 C 66 % 4.62 C
3766 22-09-2004 07:48:02 10.7 C 66 % 4.62 C
3767 22-09-2004 08:00:02 10.7 C 66 % 4.62 C
3768 22-09-2004 08:12:02 10.8 C 65 % 4.49 C
3769 22-09-2004 08:24:01 11 C 63 % 4.24 C
3770 22-09-2004 08:36:01 11.2 C 62 % 4.2 C
3771 22-09-2004 08:48:01 11.5 C 61 % 4.25 C
3772 22-09-2004 09:00:01 11.7 C 61 % 4.44 C
3773 22-09-2004 09:12:01 11.9 C 61 % 4.63 C
3774 22-09-2004 09:24:00 11.9 C 61 % 4.63 C
3775 22-09-2004 09:36:00 11.8 C 62 % 4.77 C
Sensor: Nr:Datum:Temp:Feuchte:Taupunkt:
Aussen-T/F 3776 22-09-2004 09:48:01 11.7 C 64 % 5.13 C
3777 22-09-2004 10:00:01 11.9 C 64 % 5.32 C
3778 22-09-2004 10:12:01 12.4 C 62 % 5.33 C
3779 22-09-2004 10:24:00 12.9 C 61 % 5.57 C
3780 22-09-2004 10:36:00 13 C 60 % 5.43 C
3781 22-09-2004 10:48:01 13.3 C 60 % 5.71 C
3782 22-09-2004 11:00:01 13.5 C 58 % 5.41 C
3783 22-09-2004 11:12:02 13.3 C 58 % 5.22 C
3784 22-09-2004 11:24:01 13.2 C 58 % 5.13 C
3785 22-09-2004 11:36:01 13.6 C 56 % 5 C
3786 22-09-2004 11:48:01 13.7 C 55 % 4.83 C
3787 22-09-2004 12:00:01 14.2 C 54 % 5.04 C
3788 22-09-2004 12:12:01 14.4 C 52 % 4.68 C
3789 22-09-2004 12:24:00 14.9 C 52 % 5.14 C
3790 22-09-2004 12:36:00 15.1 C 47 % 3.88 C
3791 22-09-2004 12:48:01 15.4 C 47 % 4.16 C
3792 22-09-2004 13:00:01 15.2 C 46 % 3.67 C
3793 22-09-2004 13:12:01 15.6 C 45 % 3.72 C
3794 22-09-2004 13:24:00 15.6 C 46 % 4.03 C
3795 22-09-2004 13:36:00 15.8 C 46 % 4.22 C
3796 22-09-2004 13:48:01 15.7 C 45 % 3.81 C
3797 22-09-2004 14:00:01 15.6 C 46 % 4.03 C
3798 22-09-2004 14:12:01 15.1 C 46 % 3.58 C
3799 22-09-2004 14:24:00 15 C 45 % 3.18 C
3800 22-09-2004 14:36:01 15 C 47 % 3.79 C
Sensor: Nr:Datum:Temp:Feuchte:Taupunkt:
Aussen-T/F 3801 22-09-2004 14:48:01 14.8 C 49 % 4.2 C
3802 22-09-2004 15:00:01 14.8 C 50 % 4.49 C
3803 22-09-2004 15:12:01 14.5 C 53 % 5.05 C
3804 22-09-2004 15:24:00 13.8 C 60 % 6.18 C
3805 22-09-2004 15:36:00 13.4 C 64 % 6.74 C
3806 22-09-2004 15:48:01 12.8 C 71 % 7.68 C
3807 22-09-2004 16:00:01 12.5 C 74 % 8 C
3808 22-09-2004 16:12:01 12.1 C 79 % 8.57 C
3809 22-09-2004 16:24:01 11.8 C 83 % 9.01 C
3810 22-09-2004 16:36:00 11.7 C 85 % 9.27 C
3811 22-09-2004 16:48:01 11.6 C 86 % 9.34 C
3812 22-09-2004 17:00:01 11.5 C 87 % 9.41 C
3813 22-09-2004 17:12:01 11.4 C 88 % 9.49 C
3814 22-09-2004 17:24:01 11.5 C 88 % 9.58 C
3815 22-09-2004 17:36:01 11.5 C 89 % 9.75 C
3816 22-09-2004 17:48:02 11.6 C 89 % 9.85 C
3817 22-09-2004 18:00:02 11.7 C 90 % 10.12 C
3818 22-09-2004 18:12:02 11.7 C 90 % 10.12 C
3819 22-09-2004 18:24:02 11.7 C 91 % 10.28 C
3820 22-09-2004 18:36:02 11.7 C 91 % 10.28 C
3821 22-09-2004 18:48:01 11.8 C 91 % 10.38 C
3822 22-09-2004 19:00:01 11.8 C 91 % 10.38 C
3823 22-09-2004 19:12:00 11.9 C 92 % 10.64 C
3824 22-09-2004 19:24:00 12 C 91 % 10.58 C
3825 22-09-2004 19:36:00 12.1 C 91 % 10.68 C
Sensor: Nr:Datum:Temp:Feuchte:Taupunkt:
Aussen-T/F 3826 22-09-2004 19:48:01 12.2 C 92 % 10.94 C
3827 22-09-2004 20:00:01 12.2 C 92 % 10.94 C
3828 22-09-2004 20:12:00 12.3 C 92 % 11.04 C
3829 22-09-2004 20:24:00 12.4 C 92 % 11.14 C
3830 22-09-2004 20:36:00 12.5 C 92 % 11.24 C
3831 22-09-2004 20:48:01 12.5 C 92 % 11.24 C
3832 22-09-2004 21:00:01 12.6 C 93 % 11.5 C
3833 22-09-2004 21:12:01 12.6 C 93 % 11.5 C
3834 22-09-2004 21:24:01 12.7 C 93 % 11.6 C
3835 22-09-2004 21:36:01 12.8 C 92 % 11.53 C
3836 22-09-2004 21:48:01 12.8 C 92 % 11.53 C
3837 22-09-2004 22:00:01 12.9 C 92 % 11.63 C
3838 22-09-2004 22:12:01 13 C 92 % 11.73 C
3839 22-09-2004 22:24:02 13 C 92 % 11.73 C
3840 22-09-2004 22:36:02 13 C 92 % 11.73 C
3841 22-09-2004 22:48:01 13.1 C 92 % 11.83 C
3842 22-09-2004 23:00:01 13.1 C 92 % 11.83 C
3843 22-09-2004 23:12:01 13.4 C 92 % 12.13 C
3844 22-09-2004 23:24:00 13.3 C 92 % 12.03 C
3845 22-09-2004 23:36:00 13.3 C 92 % 12.03 C
3846 22-09-2004 23:48:01 13.2 C 92 % 11.93 C
3847 23-09-2004 00:00:01 13.2 C 92 % 11.93 C
3848 23-09-2004 00:12:01 13.2 C 92 % 11.93 C
3849 23-09-2004 00:24:01 13.3 C 92 % 12.03 C
3850 23-09-2004 00:36:00 13.4 C 91 % 11.96 C
Sensor: Nr:Datum:Temp:Feuchte:Taupunkt:
Aussen-T/F 3851 23-09-2004 00:48:01 13.5 C 91 % 12.06 C
3852 23-09-2004 01:00:01 13.5 C 91 % 12.06 C
3853 23-09-2004 01:12:01 13.5 C 90 % 11.89 C
3854 23-09-2004 01:24:02 13.6 C 90 % 11.99 C
3855 23-09-2004 01:36:02 13.5 C 91 % 12.06 C
3856 23-09-2004 01:48:01 13.1 C 91 % 11.67 C
3857 23-09-2004 02:00:01 13 C 92 % 11.73 C
3858 23-09-2004 02:12:01 12.8 C 93 % 11.7 C
3859 23-09-2004 02:24:01 12.5 C 92 % 11.24 C
3860 23-09-2004 02:36:00 12.3 C 93 % 11.2 C
3861 23-09-2004 02:49:02 12.2 C 93 % 11.1 C
3862 23-09-2004 03:01:02 12.2 C 92 % 10.94 C
3863 23-09-2004 03:13:03 12.2 C 93 % 11.1 C
3864 23-09-2004 03:25:03 12.1 C 93 % 11 C
3865 23-09-2004 03:37:01 12.1 C 93 % 11 C
3866 23-09-2004 03:49:01 12.1 C 93 % 11 C
3867 23-09-2004 04:01:01 12.1 C 93 % 11 C
3868 23-09-2004 04:13:01 12 C 94 % 11.07 C
3869 23-09-2004 04:25:01 11.9 C 94 % 10.97 C
3870 23-09-2004 04:37:01 11.8 C 94 % 10.87 C
3871 23-09-2004 04:49:01 11.8 C 94 % 10.87 C
3872 23-09-2004 05:01:01 11.7 C 94 % 10.77 C
3873 23-09-2004 05:13:01 11.8 C 94 % 10.87 C
3874 23-09-2004 05:25:01 11.8 C 94 % 10.87 C
3875 23-09-2004 05:37:00 11.8 C 95 % 11.03 C
Sensor: Nr:Datum:Temp:Feuchte:Taupunkt:
Aussen-T/F 3876 23-09-2004 05:49:01 11.7 C 95 % 10.93 C
3877 23-09-2004 06:01:01 11.7 C 95 % 10.93 C
3878 23-09-2004 06:13:01 11.7 C 95 % 10.93 C
3879 23-09-2004 06:25:00 11.7 C 95 % 10.93 C
3880 23-09-2004 06:37:00 11.7 C 95 % 10.93 C
3881 23-09-2004 06:49:01 11.8 C 95 % 11.03 C
3882 23-09-2004 07:01:01 12 C 95 % 11.22 C
3883 23-09-2004 07:13:01 12.7 C 95 % 11.92 C
3884 23-09-2004 07:25:02 13 C